<?xml version='1.0' encoding='UTF-8'?><gpx version="1.1" creator="JPX - https://github.com/jenetics/jpx" xmlns="http://www.topografix.com/GPX/1/1"><trk><trkseg><trkpt lat="43.4558687" lon="11.8943181"><ele>262.0</ele><time>2026-03-29T07:41:50.711Z</time></trkpt><trkpt lat="43.4559145" lon="11.8942509"><ele>262.0</ele><time>2026-03-29T07:47:49.711Z</time></trkpt><trkpt lat="43.4559752" lon="11.8942814"><ele>262.0</ele><time>2026-03-29T07:48:01.714Z</time></trkpt><trkpt lat="43.4560302" lon="11.8943394"><ele>262.0</ele><time>2026-03-29T07:48:15.709Z</time></trkpt><trkpt lat="43.4560886" lon="11.8943921"><ele>262.0</ele><time>2026-03-29T07:48:23.716Z</time></trkpt><trkpt lat="43.4561437" lon="11.8944429"><ele>262.0</ele><time>2026-03-29T07:48:40.709Z</time></trkpt><trkpt lat="43.4562082" lon="11.8944898"><ele>262.0</ele><time>2026-03-29T07:50:13.711Z</time></trkpt><trkpt lat="43.4562941" lon="11.8944722"><ele>262.16666666666663</ele><time>2026-03-29T07:51:41.719Z</time></trkpt><trkpt lat="43.4563976" lon="11.8944368"><ele>262.3333333333333</ele><time>2026-03-29T07:51:43.715Z</time></trkpt><trkpt lat="43.4564692" lon="11.8943845"><ele>262.5</ele><time>2026-03-29T07:51:45.705Z</time></trkpt><trkpt lat="43.4565374" lon="11.8943238"><ele>262.6666666666667</ele><time>2026-03-29T07:51:47.706Z</time></trkpt><trkpt lat="43.456632" lon="11.8942496"><ele>262.83333333333337</ele><time>2026-03-29T07:51:49.711Z</time></trkpt><trkpt lat="43.4566908" lon="11.8941954"><ele>263.0</ele><time>2026-03-29T07:51:50.707Z</time></trkpt><trkpt lat="43.456756" lon="11.8941448"><ele>263.0</ele><time>2026-03-29T07:51:51.705Z</time></trkpt><trkpt lat="43.4568278" lon="11.894101"><ele>263.0</ele><time>2026-03-29T07:51:52.705Z</time></trkpt><trkpt lat="43.4569087" lon="11.8940638"><ele>263.0</ele><time>2026-03-29T07:51:53.716Z</time></trkpt><trkpt lat="43.4569846" lon="11.8940406"><ele>263.0</ele><time>2026-03-29T07:51:54.709Z</time></trkpt><trkpt lat="43.4570635" lon="11.8940263"><ele>263.0</ele><time>2026-03-29T07:51:55.705Z</time></trkpt><trkpt lat="43.457141" lon="11.8940019"><ele>263.0</ele><time>2026-03-29T07:51:56.708Z</time></trkpt><trkpt lat="43.4572145" lon="11.8939796"><ele>263.1428571428571</ele><time>2026-03-29T07:51:57.706Z</time></trkpt><trkpt lat="43.4572906" lon="11.8939608"><ele>263.2857142857143</ele><time>2026-03-29T07:51:58.704Z</time></trkpt><trkpt lat="43.4573712" lon="11.8939438"><ele>263.42857142857144</ele><time>2026-03-29T07:51:59.707Z</time></trkpt><trkpt lat="43.4574432" lon="11.8939349"><ele>263.57142857142856</ele><time>2026-03-29T07:52:00.722Z</time></trkpt><trkpt lat="43.4575058" lon="11.8939492"><ele>263.7142857142857</ele><time>2026-03-29T07:52:01.709Z</time></trkpt><trkpt lat="43.4575777" lon="11.8939694"><ele>263.85714285714283</ele><time>2026-03-29T07:52:02.705Z</time></trkpt><trkpt lat="43.457638" lon="11.894021"><ele>264.0</ele><time>2026-03-29T07:52:03.708Z</time></trkpt><trkpt lat="43.4577037" lon="11.8940807"><ele>264.0</ele><time>2026-03-29T07:52:04.704Z</time></trkpt><trkpt lat="43.457766" lon="11.8941646"><ele>264.0</ele><time>2026-03-29T07:52:05.719Z</time></trkpt><trkpt lat="43.45782" lon="11.8942381"><ele>264.0</ele><time>2026-03-29T07:52:06.71Z</time></trkpt><trkpt lat="43.4578726" lon="11.8943418"><ele>264.0</ele><time>2026-03-29T07:52:07.713Z</time></trkpt><trkpt lat="43.4579102" lon="11.8944461"><ele>264.0</ele><time>2026-03-29T07:52:08.71Z</time></trkpt><trkpt lat="43.4579452" lon="11.8945376"><ele>264.0</ele><time>2026-03-29T07:52:09.707Z</time></trkpt><trkpt lat="43.4579708" lon="11.8946378"><ele>264.0</ele><time>2026-03-29T07:52:10.709Z</time></trkpt><trkpt lat="43.4579925" lon="11.8947435"><ele>264.0</ele><time>2026-03-29T07:52:11.715Z</time></trkpt><trkpt lat="43.4580051" lon="11.8948445"><ele>264.0</ele><time>2026-03-29T07:52:12.704Z</time></trkpt><trkpt lat="43.4580087" lon="11.8949465"><ele>264.0</ele><time>2026-03-29T07:52:13.717Z</time></trkpt><trkpt lat="43.4580044" lon="11.8950454"><ele>264.0</ele><time>2026-03-29T07:52:14.705Z</time></trkpt><trkpt lat="43.4579874" lon="11.8951423"><ele>264.0</ele><time>2026-03-29T07:52:15.707Z</time></trkpt><trkpt lat="43.45796" lon="11.8952542"><ele>264.4</ele><time>2026-03-29T07:52:16.708Z</time></trkpt><trkpt lat="43.4579297" lon="11.8953774"><ele>264.79999999999995</ele><time>2026-03-29T07:52:17.707Z</time></trkpt><trkpt lat="43.4578887" lon="11.8955086"><ele>265.20000000000005</ele><time>2026-03-29T07:52:18.721Z</time></trkpt><trkpt lat="43.4578502" lon="11.8956388"><ele>265.6</ele><time>2026-03-29T07:52:19.71Z</time></trkpt><trkpt lat="43.4578072" lon="11.8957705"><ele>266.0</ele><time>2026-03-29T07:52:20.714Z</time></trkpt><trkpt lat="43.4577679" lon="11.8959197"><ele>265.75</ele><time>2026-03-29T07:52:21.709Z</time></trkpt><trkpt lat="43.4577211" lon="11.8960913"><ele>265.5</ele><time>2026-03-29T07:52:22.713Z</time></trkpt><trkpt lat="43.4576752" lon="11.8962457"><ele>265.25</ele><time>2026-03-29T07:52:23.703Z</time></trkpt><trkpt lat="43.457625" lon="11.8963886"><ele>265.0</ele><time>2026-03-29T07:52:24.707Z</time></trkpt><trkpt lat="43.4575792" lon="11.8965213"><ele>265.0</ele><time>2026-03-29T07:52:25.707Z</time></trkpt><trkpt lat="43.457538" lon="11.8966405"><ele>265.0</ele><time>2026-03-29T07:52:26.705Z</time></trkpt><trkpt lat="43.4574994" lon="11.8967607"><ele>265.0</ele><time>2026-03-29T07:52:27.708Z</time></trkpt><trkpt lat="43.4574606" lon="11.8968818"><ele>265.0</ele><time>2026-03-29T07:52:28.705Z</time></trkpt><trkpt lat="43.457422" lon="11.8970137"><ele>265.0</ele><time>2026-03-29T07:52:29.705Z</time></trkpt><trkpt lat="43.4573828" lon="11.8971329"><ele>265.1428571428571</ele><time>2026-03-29T07:52:30.718Z</time></trkpt><trkpt lat="43.4573524" lon="11.8972326"><ele>265.2857142857143</ele><time>2026-03-29T07:52:31.703Z</time></trkpt><trkpt lat="43.4573221" lon="11.8973305"><ele>265.42857142857144</ele><time>2026-03-29T07:52:32.707Z</time></trkpt><trkpt lat="43.4572974" lon="11.8974216"><ele>265.57142857142856</ele><time>2026-03-29T07:52:33.705Z</time></trkpt><trkpt lat="43.4572672" lon="11.8975179"><ele>265.7142857142857</ele><time>2026-03-29T07:52:34.711Z</time></trkpt><trkpt lat="43.4572298" lon="11.8976015"><ele>265.85714285714283</ele><time>2026-03-29T07:52:35.703Z</time></trkpt><trkpt lat="43.457182" lon="11.8976745"><ele>266.0</ele><time>2026-03-29T07:52:36.708Z</time></trkpt><trkpt lat="43.4571332" lon="11.8978436"><ele>266.1666666666667</ele><time>2026-03-29T07:52:38.708Z</time></trkpt><trkpt lat="43.4571225" lon="11.8979427"><ele>266.33333333333337</ele><time>2026-03-29T07:52:39.723Z</time></trkpt><trkpt lat="43.4571295" lon="11.8980484"><ele>266.5</ele><time>2026-03-29T07:52:40.705Z</time></trkpt><trkpt lat="43.4571455" lon="11.8981548"><ele>266.6666666666667</ele><time>2026-03-29T07:52:41.71Z</time></trkpt><trkpt lat="43.4571471" lon="11.8982725"><ele>266.8333333333333</ele><time>2026-03-29T07:52:42.709Z</time></trkpt><trkpt lat="43.4571238" lon="11.8983983"><ele>267.0</ele><time>2026-03-29T07:52:43.708Z</time></trkpt><trkpt lat="43.4570944" lon="11.8985168"><ele>266.6</ele><time>2026-03-29T07:52:44.702Z</time></trkpt><trkpt lat="43.4570663" lon="11.8986456"><ele>266.2</ele><time>2026-03-29T07:52:45.717Z</time></trkpt><trkpt lat="43.4570391" lon="11.8987717"><ele>265.8</ele><time>2026-03-29T07:52:46.707Z</time></trkpt><trkpt lat="43.4570159" lon="11.8988954"><ele>265.4</ele><time>2026-03-29T07:52:47.71Z</time></trkpt><trkpt lat="43.4569936" lon="11.8990207"><ele>265.0</ele><time>2026-03-29T07:52:48.706Z</time></trkpt><trkpt lat="43.4569711" lon="11.8991454"><ele>265.2</ele><time>2026-03-29T07:52:49.718Z</time></trkpt><trkpt lat="43.4569477" lon="11.8992552"><ele>265.4</ele><time>2026-03-29T07:52:50.71Z</time></trkpt><trkpt lat="43.4569226" lon="11.8993694"><ele>265.6</ele><time>2026-03-29T07:52:51.718Z</time></trkpt><trkpt lat="43.4568935" lon="11.8994904"><ele>265.8</ele><time>2026-03-29T07:52:52.705Z</time></trkpt><trkpt lat="43.4568743" lon="11.8996267"><ele>266.0</ele><time>2026-03-29T07:52:53.708Z</time></trkpt><trkpt lat="43.4568486" lon="11.8997478"><ele>266.0</ele><time>2026-03-29T07:52:54.711Z</time></trkpt><trkpt lat="43.4568207" lon="11.8998605"><ele>266.0</ele><time>2026-03-29T07:52:55.71Z</time></trkpt><trkpt lat="43.4568045" lon="11.8999771"><ele>266.0</ele><time>2026-03-29T07:52:56.713Z</time></trkpt><trkpt lat="43.4567903" lon="11.9000869"><ele>266.0</ele><time>2026-03-29T07:52:57.706Z</time></trkpt><trkpt lat="43.4567763" lon="11.9001925"><ele>266.0</ele><time>2026-03-29T07:52:58.707Z</time></trkpt><trkpt lat="43.456756" lon="11.9003299"><ele>266.0</ele><time>2026-03-29T07:52:59.708Z</time></trkpt><trkpt lat="43.4567322" lon="11.9004751"><ele>266.0</ele><time>2026-03-29T07:53:00.704Z</time></trkpt><trkpt lat="43.4567127" lon="11.900609"><ele>266.0</ele><time>2026-03-29T07:53:01.711Z</time></trkpt><trkpt lat="43.4566864" lon="11.9007647"><ele>266.0</ele><time>2026-03-29T07:53:02.707Z</time></trkpt><trkpt lat="43.4566671" lon="11.9009394"><ele>266.0</ele><time>2026-03-29T07:53:03.714Z</time></trkpt><trkpt lat="43.4566551" lon="11.9011068"><ele>266.75</ele><time>2026-03-29T07:53:04.708Z</time></trkpt><trkpt lat="43.456648" lon="11.9012637"><ele>267.5</ele><time>2026-03-29T07:53:05.713Z</time></trkpt><trkpt lat="43.4566492" lon="11.9014007"><ele>268.25</ele><time>2026-03-29T07:53:06.711Z</time></trkpt><trkpt lat="43.4566503" lon="11.9015647"><ele>269.0</ele><time>2026-03-29T07:53:07.706Z</time></trkpt><trkpt lat="43.4566574" lon="11.9017428"><ele>269.0</ele><time>2026-03-29T07:53:08.715Z</time></trkpt><trkpt lat="43.4566753" lon="11.9019044"><ele>269.0</ele><time>2026-03-29T07:53:09.707Z</time></trkpt><trkpt lat="43.4566916" lon="11.9020669"><ele>269.0</ele><time>2026-03-29T07:53:10.706Z</time></trkpt><trkpt lat="43.4567061" lon="11.9022224"><ele>269.0</ele><time>2026-03-29T07:53:11.72Z</time></trkpt><trkpt lat="43.4567167" lon="11.9023726"><ele>269.0</ele><time>2026-03-29T07:53:12.708Z</time></trkpt><trkpt lat="43.4567317" lon="11.9025312"><ele>269.0</ele><time>2026-03-29T07:53:13.709Z</time></trkpt><trkpt lat="43.4567404" lon="11.9026902"><ele>269.0</ele><time>2026-03-29T07:53:14.709Z</time></trkpt><trkpt lat="43.4567545" lon="11.9028405"><ele>269.0</ele><time>2026-03-29T07:53:15.712Z</time></trkpt><trkpt lat="43.4567711" lon="11.9029736"><ele>269.0</ele><time>2026-03-29T07:53:16.718Z</time></trkpt><trkpt lat="43.4567839" lon="11.9030971"><ele>269.0</ele><time>2026-03-29T07:53:17.704Z</time></trkpt><trkpt lat="43.4567973" lon="11.9032077"><ele>269.0</ele><time>2026-03-29T07:53:18.707Z</time></trkpt><trkpt lat="43.4568049" lon="11.9032998"><ele>269.0</ele><time>2026-03-29T07:53:19.706Z</time></trkpt><trkpt lat="43.4567384" lon="11.9034505"><ele>269.0</ele><time>2026-03-29T07:53:21.705Z</time></trkpt><trkpt lat="43.456673" lon="11.9034993"><ele>269.0</ele><time>2026-03-29T07:53:22.71Z</time></trkpt><trkpt lat="43.4565968" lon="11.9035336"><ele>269.0</ele><time>2026-03-29T07:53:23.71Z</time></trkpt><trkpt lat="43.4565093" lon="11.9035375"><ele>269.0</ele><time>2026-03-29T07:53:24.707Z</time></trkpt><trkpt lat="43.4563933" lon="11.903526"><ele>269.0</ele><time>2026-03-29T07:53:25.714Z</time></trkpt><trkpt lat="43.4562599" lon="11.9035045"><ele>269.0</ele><time>2026-03-29T07:53:26.708Z</time></trkpt><trkpt lat="43.4561202" lon="11.903488"><ele>269.0</ele><time>2026-03-29T07:53:27.704Z</time></trkpt><trkpt lat="43.4559741" lon="11.9034856"><ele>268.75</ele><time>2026-03-29T07:53:28.704Z</time></trkpt><trkpt lat="43.4558389" lon="11.9034938"><ele>268.5</ele><time>2026-03-29T07:53:29.704Z</time></trkpt><trkpt lat="43.4557143" lon="11.9035149"><ele>268.25</ele><time>2026-03-29T07:53:30.703Z</time></trkpt><trkpt lat="43.455597" lon="11.903577"><ele>268.0</ele><time>2026-03-29T07:53:31.703Z</time></trkpt><trkpt lat="43.4554957" lon="11.9036699"><ele>269.0</ele><time>2026-03-29T07:53:32.706Z</time></trkpt><trkpt lat="43.4554196" lon="11.9038018"><ele>270.0</ele><time>2026-03-29T07:53:33.699Z</time></trkpt><trkpt lat="43.4553546" lon="11.9039702"><ele>271.0</ele><time>2026-03-29T07:53:34.704Z</time></trkpt><trkpt lat="43.4552991" lon="11.904148"><ele>272.0</ele><time>2026-03-29T07:53:35.702Z</time></trkpt><trkpt lat="43.455254" lon="11.9043334"><ele>272.5</ele><time>2026-03-29T07:53:36.708Z</time></trkpt><trkpt lat="43.4552145" lon="11.9045255"><ele>273.0</ele><time>2026-03-29T07:53:37.709Z</time></trkpt><trkpt lat="43.4551803" lon="11.9047152"><ele>273.5</ele><time>2026-03-29T07:53:38.718Z</time></trkpt><trkpt lat="43.4551421" lon="11.904898"><ele>274.0</ele><time>2026-03-29T07:53:39.707Z</time></trkpt><trkpt lat="43.4550994" lon="11.9050786"><ele>273.75</ele><time>2026-03-29T07:53:40.706Z</time></trkpt><trkpt lat="43.4550466" lon="11.905245"><ele>273.5</ele><time>2026-03-29T07:53:41.707Z</time></trkpt><trkpt lat="43.4549839" lon="11.9053981"><ele>273.25</ele><time>2026-03-29T07:53:42.707Z</time></trkpt><trkpt lat="43.4549159" lon="11.9055554"><ele>273.0</ele><time>2026-03-29T07:53:43.713Z</time></trkpt><trkpt lat="43.4548423" lon="11.9057074"><ele>273.0</ele><time>2026-03-29T07:53:44.712Z</time></trkpt><trkpt lat="43.4547731" lon="11.9058497"><ele>273.0</ele><time>2026-03-29T07:53:45.709Z</time></trkpt><trkpt lat="43.4546894" lon="11.9059924"><ele>273.0</ele><time>2026-03-29T07:53:46.712Z</time></trkpt><trkpt lat="43.4545968" lon="11.906143"><ele>273.0</ele><time>2026-03-29T07:53:47.706Z</time></trkpt><trkpt lat="43.4545084" lon="11.9062979"><ele>273.0</ele><time>2026-03-29T07:53:48.706Z</time></trkpt><trkpt lat="43.454418" lon="11.9064598"><ele>273.0</ele><time>2026-03-29T07:53:49.704Z</time></trkpt><trkpt lat="43.4543157" lon="11.9066132"><ele>273.0</ele><time>2026-03-29T07:53:50.704Z</time></trkpt><trkpt lat="43.4542148" lon="11.9067699"><ele>273.0</ele><time>2026-03-29T07:53:51.704Z</time></trkpt><trkpt lat="43.4541233" lon="11.9069246"><ele>273.0</ele><time>2026-03-29T07:53:52.712Z</time></trkpt><trkpt lat="43.4540431" lon="11.9070748"><ele>273.0</ele><time>2026-03-29T07:53:53.706Z</time></trkpt><trkpt lat="43.4539614" lon="11.9072286"><ele>273.0</ele><time>2026-03-29T07:53:54.718Z</time></trkpt><trkpt lat="43.4538686" lon="11.907389"><ele>273.3333333333333</ele><time>2026-03-29T07:53:55.713Z</time></trkpt><trkpt lat="43.4537744" lon="11.907565"><ele>273.66666666666663</ele><time>2026-03-29T07:53:56.711Z</time></trkpt><trkpt lat="43.4536833" lon="11.9077393"><ele>274.0</ele><time>2026-03-29T07:53:57.708Z</time></trkpt><trkpt lat="43.4535832" lon="11.9079157"><ele>274.0</ele><time>2026-03-29T07:53:58.708Z</time></trkpt><trkpt lat="43.45349" lon="11.9080998"><ele>274.0</ele><time>2026-03-29T07:53:59.705Z</time></trkpt><trkpt lat="43.4533884" lon="11.908288"><ele>274.0</ele><time>2026-03-29T07:54:00.711Z</time></trkpt><trkpt lat="43.4532832" lon="11.9084841"><ele>274.3333333333333</ele><time>2026-03-29T07:54:01.707Z</time></trkpt><trkpt lat="43.4531809" lon="11.9086742"><ele>274.6666666666667</ele><time>2026-03-29T07:54:02.7Z</time></trkpt><trkpt lat="43.4530749" lon="11.9088725"><ele>275.0</ele><time>2026-03-29T07:54:03.704Z</time></trkpt><trkpt lat="43.4529612" lon="11.9090867"><ele>275.33333333333337</ele><time>2026-03-29T07:54:04.71Z</time></trkpt><trkpt lat="43.4528386" lon="11.9093168"><ele>275.6666666666667</ele><time>2026-03-29T07:54:05.715Z</time></trkpt><trkpt lat="43.4527246" lon="11.9095234"><ele>276.0</ele><time>2026-03-29T07:54:06.705Z</time></trkpt><trkpt lat="43.4526262" lon="11.9097125"><ele>276.0</ele><time>2026-03-29T07:54:07.713Z</time></trkpt><trkpt lat="43.4525244" lon="11.9099094"><ele>276.0</ele><time>2026-03-29T07:54:08.712Z</time></trkpt><trkpt lat="43.452418" lon="11.9100992"><ele>276.0</ele><time>2026-03-29T07:54:09.716Z</time></trkpt><trkpt lat="43.4523146" lon="11.9102729"><ele>276.0</ele><time>2026-03-29T07:54:10.719Z</time></trkpt><trkpt lat="43.452216" lon="11.9104462"><ele>276.0</ele><time>2026-03-29T07:54:11.708Z</time></trkpt><trkpt lat="43.4521154" lon="11.9106173"><ele>276.0</ele><time>2026-03-29T07:54:12.706Z</time></trkpt><trkpt lat="43.4520138" lon="11.9107925"><ele>277.0</ele><time>2026-03-29T07:54:13.713Z</time></trkpt><trkpt lat="43.4519129" lon="11.9109499"><ele>278.0</ele><time>2026-03-29T07:54:14.7Z</time></trkpt><trkpt lat="43.4518135" lon="11.9111082"><ele>279.0</ele><time>2026-03-29T07:54:15.708Z</time></trkpt><trkpt lat="43.4517204" lon="11.9112713"><ele>279.0</ele><time>2026-03-29T07:54:16.727Z</time></trkpt><trkpt lat="43.4516313" lon="11.9114363"><ele>279.0</ele><time>2026-03-29T07:54:17.707Z</time></trkpt><trkpt lat="43.4515347" lon="11.9116099"><ele>279.0</ele><time>2026-03-29T07:54:18.71Z</time></trkpt><trkpt lat="43.4514498" lon="11.9117904"><ele>279.0</ele><time>2026-03-29T07:54:19.711Z</time></trkpt><trkpt lat="43.4513661" lon="11.9119628"><ele>279.0</ele><time>2026-03-29T07:54:20.709Z</time></trkpt><trkpt lat="43.4512869" lon="11.9121272"><ele>279.0</ele><time>2026-03-29T07:54:21.732Z</time></trkpt><trkpt lat="43.4512116" lon="11.9122859"><ele>279.0</ele><time>2026-03-29T07:54:22.713Z</time></trkpt><trkpt lat="43.4511361" lon="11.9124325"><ele>279.25</ele><time>2026-03-29T07:54:23.706Z</time></trkpt><trkpt lat="43.4510657" lon="11.9125776"><ele>279.5</ele><time>2026-03-29T07:54:24.707Z</time></trkpt><trkpt lat="43.450995" lon="11.9127386"><ele>279.75</ele><time>2026-03-29T07:54:25.709Z</time></trkpt><trkpt lat="43.4509261" lon="11.9128911"><ele>280.0</ele><time>2026-03-29T07:54:26.715Z</time></trkpt><trkpt lat="43.4508598" lon="11.9130478"><ele>280.0</ele><time>2026-03-29T07:54:27.709Z</time></trkpt><trkpt lat="43.4507849" lon="11.9132057"><ele>280.0</ele><time>2026-03-29T07:54:28.708Z</time></trkpt><trkpt lat="43.4507052" lon="11.9133669"><ele>280.0</ele><time>2026-03-29T07:54:29.706Z</time></trkpt><trkpt lat="43.450619" lon="11.9135076"><ele>280.0</ele><time>2026-03-29T07:54:30.711Z</time></trkpt><trkpt lat="43.4505315" lon="11.913624"><ele>280.5</ele><time>2026-03-29T07:54:31.708Z</time></trkpt><trkpt lat="43.4504483" lon="11.9137411"><ele>281.0</ele><time>2026-03-29T07:54:32.708Z</time></trkpt><trkpt lat="43.4503622" lon="11.9138855"><ele>281.5</ele><time>2026-03-29T07:54:33.707Z</time></trkpt><trkpt lat="43.4502938" lon="11.9140389"><ele>282.0</ele><time>2026-03-29T07:54:34.708Z</time></trkpt><trkpt lat="43.4502418" lon="11.9141973"><ele>282.0</ele><time>2026-03-29T07:54:35.714Z</time></trkpt><trkpt lat="43.4502019" lon="11.9143612"><ele>282.0</ele><time>2026-03-29T07:54:36.704Z</time></trkpt><trkpt lat="43.4501613" lon="11.9145301"><ele>282.0</ele><time>2026-03-29T07:54:37.705Z</time></trkpt><trkpt lat="43.4501179" lon="11.9146959"><ele>282.0</ele><time>2026-03-29T07:54:38.718Z</time></trkpt><trkpt lat="43.4500781" lon="11.9148588"><ele>282.0</ele><time>2026-03-29T07:54:39.705Z</time></trkpt><trkpt lat="43.4500278" lon="11.9150309"><ele>282.0</ele><time>2026-03-29T07:54:40.708Z</time></trkpt><trkpt lat="43.4499791" lon="11.9152021"><ele>282.0</ele><time>2026-03-29T07:54:41.706Z</time></trkpt><trkpt lat="43.4499333" lon="11.9153663"><ele>282.0</ele><time>2026-03-29T07:54:42.709Z</time></trkpt><trkpt lat="43.449888" lon="11.9155362"><ele>281.75</ele><time>2026-03-29T07:54:43.706Z</time></trkpt><trkpt lat="43.4498404" lon="11.9157143"><ele>281.5</ele><time>2026-03-29T07:54:44.703Z</time></trkpt><trkpt lat="43.4497955" lon="11.9158926"><ele>281.25</ele><time>2026-03-29T07:54:45.703Z</time></trkpt><trkpt lat="43.4497507" lon="11.916066"><ele>281.0</ele><time>2026-03-29T07:54:46.713Z</time></trkpt><trkpt lat="43.4496968" lon="11.9162439"><ele>281.75</ele><time>2026-03-29T07:54:47.713Z</time></trkpt><trkpt lat="43.4496437" lon="11.9164222"><ele>282.5</ele><time>2026-03-29T07:54:48.708Z</time></trkpt><trkpt lat="43.4495995" lon="11.916604"><ele>283.25</ele><time>2026-03-29T07:54:49.708Z</time></trkpt><trkpt lat="43.4495575" lon="11.9167722"><ele>284.0</ele><time>2026-03-29T07:54:50.71Z</time></trkpt><trkpt lat="43.4495167" lon="11.9169441"><ele>284.75</ele><time>2026-03-29T07:54:51.705Z</time></trkpt><trkpt lat="43.4494684" lon="11.9171194"><ele>285.5</ele><time>2026-03-29T07:54:52.721Z</time></trkpt><trkpt lat="43.4494174" lon="11.9173071"><ele>286.25</ele><time>2026-03-29T07:54:53.715Z</time></trkpt><trkpt lat="43.4493611" lon="11.9175002"><ele>287.0</ele><time>2026-03-29T07:54:54.709Z</time></trkpt><trkpt lat="43.449312" lon="11.9176903"><ele>287.25</ele><time>2026-03-29T07:54:55.704Z</time></trkpt><trkpt lat="43.4492646" lon="11.9178622"><ele>287.5</ele><time>2026-03-29T07:54:56.709Z</time></trkpt><trkpt lat="43.4492223" lon="11.9180418"><ele>287.75</ele><time>2026-03-29T07:54:57.706Z</time></trkpt><trkpt lat="43.4491747" lon="11.9182215"><ele>288.0</ele><time>2026-03-29T07:54:58.706Z</time></trkpt><trkpt lat="43.4491267" lon="11.9183963"><ele>287.5</ele><time>2026-03-29T07:54:59.71Z</time></trkpt><trkpt lat="43.4490682" lon="11.9185565"><ele>287.0</ele><time>2026-03-29T07:55:00.703Z</time></trkpt><trkpt lat="43.449028" lon="11.9187159"><ele>286.5</ele><time>2026-03-29T07:55:01.715Z</time></trkpt><trkpt lat="43.4489892" lon="11.9188596"><ele>286.0</ele><time>2026-03-29T07:55:02.707Z</time></trkpt><trkpt lat="43.4489548" lon="11.9189915"><ele>286.0</ele><time>2026-03-29T07:55:03.713Z</time></trkpt><trkpt lat="43.4489166" lon="11.9191265"><ele>286.0</ele><time>2026-03-29T07:55:04.714Z</time></trkpt><trkpt lat="43.4488802" lon="11.9192445"><ele>286.0</ele><time>2026-03-29T07:55:05.704Z</time></trkpt><trkpt lat="43.4488491" lon="11.919339"><ele>286.0</ele><time>2026-03-29T07:55:06.71Z</time></trkpt><trkpt lat="43.4488162" lon="11.9194821"><ele>286.0</ele><time>2026-03-29T07:55:08.705Z</time></trkpt><trkpt lat="43.4488303" lon="11.9195835"><ele>286.5</ele><time>2026-03-29T07:55:10.707Z</time></trkpt><trkpt lat="43.4489437" lon="11.91968"><ele>287.0</ele><time>2026-03-29T07:55:12.704Z</time></trkpt><trkpt lat="43.4490056" lon="11.919729"><ele>287.5</ele><time>2026-03-29T07:55:13.711Z</time></trkpt><trkpt lat="43.4490762" lon="11.9197747"><ele>288.0</ele><time>2026-03-29T07:55:14.709Z</time></trkpt><trkpt lat="43.4491457" lon="11.9198145"><ele>288.5</ele><time>2026-03-29T07:55:15.705Z</time></trkpt><trkpt lat="43.4492058" lon="11.9198443"><ele>289.0</ele><time>2026-03-29T07:55:16.716Z</time></trkpt><trkpt lat="43.4492699" lon="11.9198761"><ele>289.0</ele><time>2026-03-29T07:55:17.709Z</time></trkpt><trkpt lat="43.4493384" lon="11.9199106"><ele>289.0</ele><time>2026-03-29T07:55:18.709Z</time></trkpt><trkpt lat="43.4493995" lon="11.9199342"><ele>289.0</ele><time>2026-03-29T07:55:19.721Z</time></trkpt><trkpt lat="43.4494649" lon="11.9199851"><ele>289.0</ele><time>2026-03-29T07:55:20.712Z</time></trkpt><trkpt lat="43.4495213" lon="11.9200609"><ele>289.0</ele><time>2026-03-29T07:55:21.709Z</time></trkpt><trkpt lat="43.4495786" lon="11.9201493"><ele>289.0</ele><time>2026-03-29T07:55:22.709Z</time></trkpt><trkpt lat="43.4496339" lon="11.9202512"><ele>290.2</ele><time>2026-03-29T07:55:23.706Z</time></trkpt><trkpt lat="43.4496913" lon="11.9203389"><ele>291.4</ele><time>2026-03-29T07:55:24.709Z</time></trkpt><trkpt lat="43.4497497" lon="11.9204145"><ele>292.6</ele><time>2026-03-29T07:55:25.708Z</time></trkpt><trkpt lat="43.449799" lon="11.9204701"><ele>293.8</ele><time>2026-03-29T07:55:26.705Z</time></trkpt><trkpt lat="43.4498968" lon="11.9205663"><ele>295.0</ele><time>2026-03-29T07:55:28.706Z</time></trkpt><trkpt lat="43.4499842" lon="11.9206977"><ele>295.00000000000006</ele><time>2026-03-29T07:55:30.704Z</time></trkpt><trkpt lat="43.450028" lon="11.9207862"><ele>295.0</ele><time>2026-03-29T07:55:31.712Z</time></trkpt><trkpt lat="43.4500668" lon="11.9208651"><ele>295.0</ele><time>2026-03-29T07:55:32.703Z</time></trkpt><trkpt lat="43.4501043" lon="11.9209439"><ele>295.0</ele><time>2026-03-29T07:55:33.704Z</time></trkpt><trkpt lat="43.450138" lon="11.9210287"><ele>295.0</ele><time>2026-03-29T07:55:34.714Z</time></trkpt><trkpt lat="43.4501691" lon="11.9211158"><ele>295.00000000000006</ele><time>2026-03-29T07:55:35.703Z</time></trkpt><trkpt lat="43.4501701" lon="11.9212034"><ele>295.0</ele><time>2026-03-29T07:55:36.72Z</time></trkpt><trkpt lat="43.4501622" lon="11.9213051"><ele>296.00000000000006</ele><time>2026-03-29T07:55:37.71Z</time></trkpt><trkpt lat="43.4501585" lon="11.9214122"><ele>297.0</ele><time>2026-03-29T07:55:38.703Z</time></trkpt><trkpt lat="43.4501599" lon="11.9215153"><ele>298.0</ele><time>2026-03-29T07:55:39.702Z</time></trkpt><trkpt lat="43.4501614" lon="11.9216076"><ele>299.0</ele><time>2026-03-29T07:55:40.706Z</time></trkpt><trkpt lat="43.4501672" lon="11.9217043"><ele>300.0</ele><time>2026-03-29T07:55:41.709Z</time></trkpt><trkpt lat="43.450178" lon="11.9217965"><ele>301.00000000000006</ele><time>2026-03-29T07:55:42.703Z</time></trkpt><trkpt lat="43.4502001" lon="11.9218936"><ele>302.0</ele><time>2026-03-29T07:55:43.707Z</time></trkpt><trkpt lat="43.4502285" lon="11.9219879"><ele>302.7142857142857</ele><time>2026-03-29T07:55:44.704Z</time></trkpt><trkpt lat="43.4502519" lon="11.9220746"><ele>303.42857142857144</ele><time>2026-03-29T07:55:45.71Z</time></trkpt><trkpt lat="43.4502744" lon="11.9221602"><ele>304.1428571428571</ele><time>2026-03-29T07:55:46.703Z</time></trkpt><trkpt lat="43.4503032" lon="11.9222416"><ele>304.8571428571429</ele><time>2026-03-29T07:55:47.708Z</time></trkpt><trkpt lat="43.4503245" lon="11.9223238"><ele>305.57142857142856</ele><time>2026-03-29T07:55:48.708Z</time></trkpt><trkpt lat="43.4503676" lon="11.9224774"><ele>306.2857142857143</ele><time>2026-03-29T07:55:50.704Z</time></trkpt><trkpt lat="43.4504052" lon="11.922554"><ele>307.0</ele><time>2026-03-29T07:55:51.706Z</time></trkpt><trkpt lat="43.4504565" lon="11.9226207"><ele>311.0</ele><time>2026-03-29T07:55:52.704Z</time></trkpt><trkpt lat="43.4504984" lon="11.9226885"><ele>315.0</ele><time>2026-03-29T07:55:53.711Z</time></trkpt><trkpt lat="43.4505722" lon="11.9228363"><ele>319.0</ele><time>2026-03-29T07:55:55.703Z</time></trkpt><trkpt lat="43.4505949" lon="11.9229217"><ele>323.0</ele><time>2026-03-29T07:55:56.707Z</time></trkpt><trkpt lat="43.4506147" lon="11.9230076"><ele>327.0</ele><time>2026-03-29T07:55:57.706Z</time></trkpt><trkpt lat="43.4506395" lon="11.9230918"><ele>331.0</ele><time>2026-03-29T07:55:58.707Z</time></trkpt><trkpt lat="43.4506528" lon="11.9231776"><ele>331.0</ele><time>2026-03-29T07:55:59.705Z</time></trkpt><trkpt lat="43.4506654" lon="11.9232646"><ele>331.0</ele><time>2026-03-29T07:56:00.709Z</time></trkpt><trkpt lat="43.4506844" lon="11.9233485"><ele>331.0</ele><time>2026-03-29T07:56:01.704Z</time></trkpt><trkpt lat="43.4507056" lon="11.9234309"><ele>331.0</ele><time>2026-03-29T07:56:02.707Z</time></trkpt><trkpt lat="43.4507632" lon="11.9235707"><ele>331.0</ele><time>2026-03-29T07:56:04.701Z</time></trkpt><trkpt lat="43.4507933" lon="11.9236705"><ele>331.0</ele><time>2026-03-29T07:56:06.706Z</time></trkpt><trkpt lat="43.450799" lon="11.9237717"><ele>332.5</ele><time>2026-03-29T07:56:09.707Z</time></trkpt><trkpt lat="43.4508275" lon="11.9238681"><ele>334.0</ele><time>2026-03-29T07:56:12.704Z</time></trkpt><trkpt lat="43.4508421" lon="11.9239618"><ele>335.5</ele><time>2026-03-29T07:56:14.705Z</time></trkpt><trkpt lat="43.4508337" lon="11.9240643"><ele>337.0</ele><time>2026-03-29T07:56:16.7Z</time></trkpt><trkpt lat="43.4508395" lon="11.9241771"><ele>338.5</ele><time>2026-03-29T07:56:18.714Z</time></trkpt><trkpt lat="43.4508778" lon="11.9243277"><ele>340.0</ele><time>2026-03-29T07:56:20.721Z</time></trkpt><trkpt lat="43.4509139" lon="11.924401"><ele>340.8</ele><time>2026-03-29T07:56:21.716Z</time></trkpt><trkpt lat="43.4509725" lon="11.9245251"><ele>341.6</ele><time>2026-03-29T07:56:23.705Z</time></trkpt><trkpt lat="43.4509961" lon="11.9246607"><ele>342.4</ele><time>2026-03-29T07:56:25.706Z</time></trkpt><trkpt lat="43.4510081" lon="11.9247891"><ele>343.2</ele><time>2026-03-29T07:56:27.716Z</time></trkpt><trkpt lat="43.4510378" lon="11.9249077"><ele>344.0</ele><time>2026-03-29T07:56:29.706Z</time></trkpt><trkpt lat="43.4510602" lon="11.9250022"><ele>343.7142857142857</ele><time>2026-03-29T07:56:30.704Z</time></trkpt><trkpt lat="43.4510795" lon="11.9251045"><ele>343.42857142857144</ele><time>2026-03-29T07:56:31.717Z</time></trkpt><trkpt lat="43.4511006" lon="11.9251915"><ele>343.1428571428571</ele><time>2026-03-29T07:56:32.706Z</time></trkpt><trkpt lat="43.4511386" lon="11.9252742"><ele>342.8571428571429</ele><time>2026-03-29T07:56:33.704Z</time></trkpt><trkpt lat="43.4511758" lon="11.9253565"><ele>342.57142857142856</ele><time>2026-03-29T07:56:34.716Z</time></trkpt><trkpt lat="43.451203" lon="11.9254423"><ele>342.2857142857143</ele><time>2026-03-29T07:56:35.704Z</time></trkpt><trkpt lat="43.4512373" lon="11.9255314"><ele>342.0</ele><time>2026-03-29T07:56:36.716Z</time></trkpt><trkpt lat="43.4512706" lon="11.9256075"><ele>347.6</ele><time>2026-03-29T07:56:37.713Z</time></trkpt><trkpt lat="43.4513065" lon="11.925733"><ele>353.20000000000005</ele><time>2026-03-29T07:56:39.721Z</time></trkpt><trkpt lat="43.4513629" lon="11.9258765"><ele>358.8</ele><time>2026-03-29T07:56:41.716Z</time></trkpt><trkpt lat="43.4514087" lon="11.9260427"><ele>364.4</ele><time>2026-03-29T07:56:43.71Z</time></trkpt><trkpt lat="43.451426" lon="11.9261528"><ele>370.0</ele><time>2026-03-29T07:56:44.709Z</time></trkpt><trkpt lat="43.4514338" lon="11.9262456"><ele>370.6</ele><time>2026-03-29T07:56:45.71Z</time></trkpt><trkpt lat="43.4514416" lon="11.9264011"><ele>371.2</ele><time>2026-03-29T07:56:47.713Z</time></trkpt><trkpt lat="43.4514255" lon="11.9265123"><ele>371.79999999999995</ele><time>2026-03-29T07:56:49.709Z</time></trkpt><trkpt lat="43.451393" lon="11.9266105"><ele>372.4</ele><time>2026-03-29T07:56:51.711Z</time></trkpt><trkpt lat="43.451351" lon="11.9267071"><ele>373.0</ele><time>2026-03-29T07:56:53.709Z</time></trkpt><trkpt lat="43.4512638" lon="11.9268381"><ele>374.16666666666663</ele><time>2026-03-29T07:56:55.704Z</time></trkpt><trkpt lat="43.4512029" lon="11.9269004"><ele>375.3333333333333</ele><time>2026-03-29T07:56:56.717Z</time></trkpt><trkpt lat="43.4511201" lon="11.926994"><ele>376.5</ele><time>2026-03-29T07:56:58.71Z</time></trkpt><trkpt lat="43.4510935" lon="11.9270981"><ele>377.6666666666667</ele><time>2026-03-29T07:57:00.71Z</time></trkpt><trkpt lat="43.451146" lon="11.9271968"><ele>378.83333333333337</ele><time>2026-03-29T07:57:02.708Z</time></trkpt><trkpt lat="43.4512292" lon="11.9271481"><ele>380.0</ele><time>2026-03-29T07:57:06.706Z</time></trkpt><trkpt lat="43.4513183" lon="11.9270849"><ele>380.0</ele><time>2026-03-29T07:57:09.705Z</time></trkpt><trkpt lat="43.4513969" lon="11.9270665"><ele>380.0</ele><time>2026-03-29T07:57:11.709Z</time></trkpt><trkpt lat="43.4514851" lon="11.9270433"><ele>380.0</ele><time>2026-03-29T07:57:13.706Z</time></trkpt><trkpt lat="43.4515819" lon="11.9270186"><ele>380.0</ele><time>2026-03-29T07:57:15.708Z</time></trkpt><trkpt lat="43.4517038" lon="11.9269922"><ele>380.0</ele><time>2026-03-29T07:57:17.709Z</time></trkpt><trkpt lat="43.4518166" lon="11.9269622"><ele>380.0</ele><time>2026-03-29T07:57:19.705Z</time></trkpt><trkpt lat="43.4519168" lon="11.926888"><ele>380.0</ele><time>2026-03-29T07:57:21.706Z</time></trkpt><trkpt lat="43.4519606" lon="11.9268168"><ele>380.0</ele><time>2026-03-29T07:57:23.709Z</time></trkpt><trkpt lat="43.4520026" lon="11.9267275"><ele>380.0</ele><time>2026-03-29T07:57:25.707Z</time></trkpt><trkpt lat="43.4520568" lon="11.9265701"><ele>380.0</ele><time>2026-03-29T07:57:27.699Z</time></trkpt><trkpt lat="43.4520753" lon="11.9264398"><ele>378.83333333333337</ele><time>2026-03-29T07:57:29.709Z</time></trkpt><trkpt lat="43.452089" lon="11.9263278"><ele>377.6666666666667</ele><time>2026-03-29T07:57:31.709Z</time></trkpt><trkpt lat="43.4520913" lon="11.9261618"><ele>376.5</ele><time>2026-03-29T07:57:33.723Z</time></trkpt><trkpt lat="43.4520882" lon="11.9260696"><ele>375.3333333333333</ele><time>2026-03-29T07:57:34.708Z</time></trkpt><trkpt lat="43.4520683" lon="11.9259648"><ele>374.16666666666663</ele><time>2026-03-29T07:57:35.705Z</time></trkpt><trkpt lat="43.4520559" lon="11.9258652"><ele>373.0</ele><time>2026-03-29T07:57:36.706Z</time></trkpt><trkpt lat="43.4520451" lon="11.9257648"><ele>372.5</ele><time>2026-03-29T07:57:37.706Z</time></trkpt><trkpt lat="43.4520438" lon="11.9256644"><ele>372.0</ele><time>2026-03-29T07:57:38.715Z</time></trkpt><trkpt lat="43.4520538" lon="11.9255445"><ele>371.5</ele><time>2026-03-29T07:57:40.712Z</time></trkpt><trkpt lat="43.4520958" lon="11.9254735"><ele>371.0</ele><time>2026-03-29T07:57:42.708Z</time></trkpt><trkpt lat="43.4521618" lon="11.9254715"><ele>370.5</ele><time>2026-03-29T07:57:44.716Z</time></trkpt><trkpt lat="43.4522449" lon="11.9255386"><ele>370.0</ele><time>2026-03-29T07:57:47.708Z</time></trkpt><trkpt lat="43.4522931" lon="11.9256024"><ele>372.57142857142856</ele><time>2026-03-29T07:57:49.703Z</time></trkpt><trkpt lat="43.4523405" lon="11.9256728"><ele>375.1428571428571</ele><time>2026-03-29T07:57:51.704Z</time></trkpt><trkpt lat="43.4523799" lon="11.925756"><ele>377.71428571428567</ele><time>2026-03-29T07:57:53.71Z</time></trkpt><trkpt lat="43.452413" lon="11.9258552"><ele>380.2857142857143</ele><time>2026-03-29T07:57:55.708Z</time></trkpt><trkpt lat="43.4524493" lon="11.9259355"><ele>382.8571428571429</ele><time>2026-03-29T07:57:57.709Z</time></trkpt><trkpt lat="43.45249" lon="11.926023"><ele>385.4285714285714</ele><time>2026-03-29T07:57:59.711Z</time></trkpt><trkpt lat="43.4525219" lon="11.9261194"><ele>388.0</ele><time>2026-03-29T07:58:02.702Z</time></trkpt><trkpt lat="43.4525633" lon="11.9261999"><ele>389.6666666666667</ele><time>2026-03-29T07:58:12.712Z</time></trkpt><trkpt lat="43.4526001" lon="11.926271"><ele>391.33333333333337</ele><time>2026-03-29T07:58:18.706Z</time></trkpt><trkpt lat="43.452629" lon="11.9263873"><ele>393.0</ele><time>2026-03-29T07:58:21.703Z</time></trkpt><trkpt lat="43.4526687" lon="11.9264782"><ele>394.66666666666663</ele><time>2026-03-29T07:58:23.711Z</time></trkpt><trkpt lat="43.452723" lon="11.9266027"><ele>396.3333333333333</ele><time>2026-03-29T07:58:25.714Z</time></trkpt><trkpt lat="43.4527817" lon="11.9266907"><ele>398.0</ele><time>2026-03-29T07:58:26.73Z</time></trkpt><trkpt lat="43.4528306" lon="11.9267795"><ele>398.3333333333333</ele><time>2026-03-29T07:58:27.714Z</time></trkpt><trkpt lat="43.4528962" lon="11.9268823"><ele>398.66666666666663</ele><time>2026-03-29T07:58:29.708Z</time></trkpt><trkpt lat="43.4529367" lon="11.9269849"><ele>399.0</ele><time>2026-03-29T07:58:42.716Z</time></trkpt><trkpt lat="43.4529741" lon="11.9270742"><ele>399.33333333333337</ele><time>2026-03-29T07:58:45.7Z</time></trkpt><trkpt lat="43.4530247" lon="11.9271694"><ele>399.6666666666667</ele><time>2026-03-29T07:58:48.709Z</time></trkpt><trkpt lat="43.4530682" lon="11.9272504"><ele>400.0</ele><time>2026-03-29T07:58:50.714Z</time></trkpt><trkpt lat="43.4531255" lon="11.9273222"><ele>400.42857142857144</ele><time>2026-03-29T07:58:52.708Z</time></trkpt><trkpt lat="43.4531942" lon="11.927376"><ele>400.8571428571429</ele><time>2026-03-29T07:58:54.705Z</time></trkpt><trkpt lat="43.4532451" lon="11.9274449"><ele>401.28571428571433</ele><time>2026-03-29T07:58:55.71Z</time></trkpt><trkpt lat="43.4533057" lon="11.927515"><ele>401.7142857142857</ele><time>2026-03-29T07:58:56.711Z</time></trkpt><trkpt lat="43.4533629" lon="11.9275791"><ele>402.1428571428571</ele><time>2026-03-29T07:58:57.702Z</time></trkpt><trkpt lat="43.4534181" lon="11.9276222"><ele>402.5714285714286</ele><time>2026-03-29T07:58:58.707Z</time></trkpt><trkpt lat="43.4534769" lon="11.9276673"><ele>403.0</ele><time>2026-03-29T07:58:59.715Z</time></trkpt><trkpt lat="43.453531" lon="11.9277359"><ele>403.0</ele><time>2026-03-29T07:59:00.705Z</time></trkpt><trkpt lat="43.453597" lon="11.9278531"><ele>403.0</ele><time>2026-03-29T07:59:01.718Z</time></trkpt><trkpt lat="43.4536738" lon="11.9279806"><ele>403.0</ele><time>2026-03-29T07:59:02.713Z</time></trkpt><trkpt lat="43.453735" lon="11.9280768"><ele>403.0</ele><time>2026-03-29T07:59:03.711Z</time></trkpt><trkpt lat="43.4538078" lon="11.9281377"><ele>403.0</ele><time>2026-03-29T07:59:04.704Z</time></trkpt><trkpt lat="43.4538823" lon="11.9281922"><ele>404.4</ele><time>2026-03-29T07:59:05.718Z</time></trkpt><trkpt lat="43.4539596" lon="11.9282554"><ele>405.79999999999995</ele><time>2026-03-29T07:59:06.714Z</time></trkpt><trkpt lat="43.4540375" lon="11.9283505"><ele>407.2</ele><time>2026-03-29T07:59:07.722Z</time></trkpt><trkpt lat="43.4541284" lon="11.9284492"><ele>408.6</ele><time>2026-03-29T07:59:08.71Z</time></trkpt><trkpt lat="43.45422" lon="11.9285455"><ele>410.0</ele><time>2026-03-29T07:59:09.714Z</time></trkpt><trkpt lat="43.4543017" lon="11.9286373"><ele>409.99999999999994</ele><time>2026-03-29T07:59:10.704Z</time></trkpt><trkpt lat="43.4543709" lon="11.9287029"><ele>410.0</ele><time>2026-03-29T07:59:11.704Z</time></trkpt><trkpt lat="43.4544311" lon="11.9287704"><ele>410.0</ele><time>2026-03-29T07:59:12.705Z</time></trkpt><trkpt lat="43.4545022" lon="11.9288173"><ele>410.0</ele><time>2026-03-29T07:59:13.706Z</time></trkpt><trkpt lat="43.4545634" lon="11.9288725"><ele>409.99999999999994</ele><time>2026-03-29T07:59:14.71Z</time></trkpt><trkpt lat="43.4546138" lon="11.9289306"><ele>410.0</ele><time>2026-03-29T07:59:15.712Z</time></trkpt><trkpt lat="43.4546916" lon="11.9290678"><ele>412.4</ele><time>2026-03-29T07:59:17.715Z</time></trkpt><trkpt lat="43.4547442" lon="11.9291322"><ele>414.8</ele><time>2026-03-29T07:59:18.714Z</time></trkpt><trkpt lat="43.4547993" lon="11.9291956"><ele>417.20000000000005</ele><time>2026-03-29T07:59:19.732Z</time></trkpt><trkpt lat="43.4548772" lon="11.9292994"><ele>419.6</ele><time>2026-03-29T07:59:20.704Z</time></trkpt><trkpt lat="43.4549645" lon="11.9294149"><ele>422.0</ele><time>2026-03-29T07:59:21.712Z</time></trkpt><trkpt lat="43.4550261" lon="11.92952"><ele>422.14285714285717</ele><time>2026-03-29T07:59:22.712Z</time></trkpt><trkpt lat="43.4550812" lon="11.9295873"><ele>422.28571428571433</ele><time>2026-03-29T07:59:23.719Z</time></trkpt><trkpt lat="43.4551406" lon="11.9296354"><ele>422.42857142857144</ele><time>2026-03-29T07:59:24.714Z</time></trkpt><trkpt lat="43.4551901" lon="11.9297022"><ele>422.57142857142856</ele><time>2026-03-29T07:59:25.724Z</time></trkpt><trkpt lat="43.4552409" lon="11.9297806"><ele>422.7142857142857</ele><time>2026-03-29T07:59:26.714Z</time></trkpt><trkpt lat="43.4552929" lon="11.9298555"><ele>422.85714285714283</ele><time>2026-03-29T07:59:27.706Z</time></trkpt><trkpt lat="43.4553454" lon="11.9299307"><ele>423.0</ele><time>2026-03-29T07:59:28.711Z</time></trkpt><trkpt lat="43.4553935" lon="11.9300142"><ele>423.1428571428571</ele><time>2026-03-29T07:59:29.711Z</time></trkpt><trkpt lat="43.4554403" lon="11.9300927"><ele>423.28571428571433</ele><time>2026-03-29T07:59:30.713Z</time></trkpt><trkpt lat="43.4554871" lon="11.9301654"><ele>423.42857142857144</ele><time>2026-03-29T07:59:31.707Z</time></trkpt><trkpt lat="43.4555399" lon="11.9302402"><ele>423.57142857142856</ele><time>2026-03-29T07:59:32.713Z</time></trkpt><trkpt lat="43.4555913" lon="11.9303039"><ele>423.71428571428567</ele><time>2026-03-29T07:59:33.709Z</time></trkpt><trkpt lat="43.4556434" lon="11.9303572"><ele>423.8571428571429</ele><time>2026-03-29T07:59:34.713Z</time></trkpt><trkpt lat="43.4556923" lon="11.9304157"><ele>424.0</ele><time>2026-03-29T07:59:35.724Z</time></trkpt><trkpt lat="43.4557361" lon="11.930478"><ele>428.83333333333337</ele><time>2026-03-29T07:59:36.707Z</time></trkpt><trkpt lat="43.4557727" lon="11.930569"><ele>433.6666666666667</ele><time>2026-03-29T07:59:37.716Z</time></trkpt><trkpt lat="43.4558076" lon="11.9306797"><ele>438.5</ele><time>2026-03-29T07:59:38.714Z</time></trkpt><trkpt lat="43.4558425" lon="11.9307818"><ele>443.33333333333337</ele><time>2026-03-29T07:59:39.712Z</time></trkpt><trkpt lat="43.4558736" lon="11.9308961"><ele>448.1666666666667</ele><time>2026-03-29T07:59:40.711Z</time></trkpt><trkpt lat="43.4559113" lon="11.9310249"><ele>453.0</ele><time>2026-03-29T07:59:41.712Z</time></trkpt><trkpt lat="43.4559494" lon="11.9311568"><ele>453.2857142857142</ele><time>2026-03-29T07:59:42.71Z</time></trkpt><trkpt lat="43.4559764" lon="11.9312694"><ele>453.57142857142856</ele><time>2026-03-29T07:59:43.723Z</time></trkpt><trkpt lat="43.4559972" lon="11.9313751"><ele>453.85714285714283</ele><time>2026-03-29T07:59:44.704Z</time></trkpt><trkpt lat="43.4560241" lon="11.9314735"><ele>454.1428571428571</ele><time>2026-03-29T07:59:45.702Z</time></trkpt><trkpt lat="43.4560492" lon="11.9315625"><ele>454.42857142857144</ele><time>2026-03-29T07:59:46.707Z</time></trkpt><trkpt lat="43.4560715" lon="11.9316499"><ele>454.7142857142857</ele><time>2026-03-29T07:59:47.71Z</time></trkpt><trkpt lat="43.4560925" lon="11.9317416"><ele>455.0</ele><time>2026-03-29T07:59:48.711Z</time></trkpt><trkpt lat="43.456115" lon="11.9318398"><ele>456.49999999999994</ele><time>2026-03-29T07:59:49.716Z</time></trkpt><trkpt lat="43.4561274" lon="11.9319265"><ele>458.0</ele><time>2026-03-29T07:59:50.708Z</time></trkpt><trkpt lat="43.4561426" lon="11.9320514"><ele>459.5</ele><time>2026-03-29T07:59:52.71Z</time></trkpt><trkpt lat="43.4561331" lon="11.9322406"><ele>461.0</ele><time>2026-03-29T07:59:54.702Z</time></trkpt><trkpt lat="43.4561184" lon="11.9323542"><ele>462.49999999999994</ele><time>2026-03-29T07:59:55.71Z</time></trkpt><trkpt lat="43.4561003" lon="11.9324491"><ele>464.0</ele><time>2026-03-29T07:59:56.705Z</time></trkpt><trkpt lat="43.4560981" lon="11.9325439"><ele>466.3333333333333</ele><time>2026-03-29T07:59:57.704Z</time></trkpt><trkpt lat="43.4560941" lon="11.9326533"><ele>468.66666666666663</ele><time>2026-03-29T07:59:58.711Z</time></trkpt><trkpt lat="43.4560848" lon="11.9327897"><ele>471.0</ele><time>2026-03-29T07:59:59.708Z</time></trkpt><trkpt lat="43.4560684" lon="11.9329113"><ele>473.33333333333337</ele><time>2026-03-29T08:00:00.704Z</time></trkpt><trkpt lat="43.4560722" lon="11.9330009"><ele>475.6666666666667</ele><time>2026-03-29T08:00:01.703Z</time></trkpt><trkpt lat="43.4560902" lon="11.9331115"><ele>478.0</ele><time>2026-03-29T08:00:03.711Z</time></trkpt><trkpt lat="43.4561238" lon="11.9332442"><ele>478.00000000000006</ele><time>2026-03-29T08:00:05.707Z</time></trkpt><trkpt lat="43.4561307" lon="11.933382"><ele>478.0</ele><time>2026-03-29T08:00:07.705Z</time></trkpt><trkpt lat="43.4561264" lon="11.9334772"><ele>478.0</ele><time>2026-03-29T08:00:09.708Z</time></trkpt><trkpt lat="43.4561392" lon="11.9335684"><ele>478.0</ele><time>2026-03-29T08:00:11.704Z</time></trkpt><trkpt lat="43.4561778" lon="11.9336393"><ele>478.00000000000006</ele><time>2026-03-29T08:00:13.703Z</time></trkpt><trkpt lat="43.4561753" lon="11.933741"><ele>478.0</ele><time>2026-03-29T08:00:16.709Z</time></trkpt><trkpt lat="43.4560899" lon="11.9336994"><ele>481.59999999999997</ele><time>2026-03-29T08:00:20.705Z</time></trkpt><trkpt lat="43.456006" lon="11.933694"><ele>485.19999999999993</ele><time>2026-03-29T08:00:22.713Z</time></trkpt><trkpt lat="43.4559334" lon="11.9337505"><ele>488.8</ele><time>2026-03-29T08:00:24.71Z</time></trkpt><trkpt lat="43.4558065" lon="11.9338422"><ele>492.4</ele><time>2026-03-29T08:00:26.702Z</time></trkpt><trkpt lat="43.4557378" lon="11.9339035"><ele>496.0</ele><time>2026-03-29T08:00:27.706Z</time></trkpt><trkpt lat="43.4556706" lon="11.933983"><ele>496.00000000000006</ele><time>2026-03-29T08:00:28.709Z</time></trkpt><trkpt lat="43.4556047" lon="11.9340781"><ele>496.0</ele><time>2026-03-29T08:00:29.707Z</time></trkpt><trkpt lat="43.4555442" lon="11.9341724"><ele>496.0</ele><time>2026-03-29T08:00:30.711Z</time></trkpt><trkpt lat="43.4554965" lon="11.9342326"><ele>496.0</ele><time>2026-03-29T08:00:31.721Z</time></trkpt><trkpt lat="43.4554313" lon="11.9342975"><ele>496.00000000000006</ele><time>2026-03-29T08:00:33.716Z</time></trkpt><trkpt lat="43.4553779" lon="11.9343833"><ele>496.0</ele><time>2026-03-29T08:00:36.71Z</time></trkpt><trkpt lat="43.4554051" lon="11.9344813"><ele>496.6666666666667</ele><time>2026-03-29T08:00:39.712Z</time></trkpt><trkpt lat="43.4554366" lon="11.9345964"><ele>497.33333333333337</ele><time>2026-03-29T08:00:41.713Z</time></trkpt><trkpt lat="43.4554475" lon="11.934719"><ele>498.0</ele><time>2026-03-29T08:00:43.709Z</time></trkpt><trkpt lat="43.4554706" lon="11.9348174"><ele>498.66666666666663</ele><time>2026-03-29T08:00:45.715Z</time></trkpt><trkpt lat="43.4555238" lon="11.934946"><ele>499.3333333333333</ele><time>2026-03-29T08:00:47.714Z</time></trkpt><trkpt lat="43.455569" lon="11.9350194"><ele>500.0</ele><time>2026-03-29T08:00:48.708Z</time></trkpt><trkpt lat="43.4556267" lon="11.9350805"><ele>500.0</ele><time>2026-03-29T08:00:49.714Z</time></trkpt><trkpt lat="43.4556746" lon="11.9351616"><ele>500.0</ele><time>2026-03-29T08:00:50.719Z</time></trkpt><trkpt lat="43.4557146" lon="11.9352402"><ele>500.0</ele><time>2026-03-29T08:00:51.712Z</time></trkpt><trkpt lat="43.4557913" lon="11.9353808"><ele>500.0</ele><time>2026-03-29T08:00:53.708Z</time></trkpt><trkpt lat="43.4558666" lon="11.9355067"><ele>500.0</ele><time>2026-03-29T08:00:55.71Z</time></trkpt><trkpt lat="43.4559295" lon="11.9356388"><ele>500.0</ele><time>2026-03-29T08:00:57.705Z</time></trkpt><trkpt lat="43.4559654" lon="11.935713"><ele>500.0</ele><time>2026-03-29T08:00:58.721Z</time></trkpt><trkpt lat="43.4560026" lon="11.9357912"><ele>500.0</ele><time>2026-03-29T08:00:59.709Z</time></trkpt><trkpt lat="43.4560451" lon="11.9358833"><ele>500.0</ele><time>2026-03-29T08:01:00.716Z</time></trkpt><trkpt lat="43.4560833" lon="11.9359661"><ele>500.0</ele><time>2026-03-29T08:01:01.713Z</time></trkpt><trkpt lat="43.4561286" lon="11.9360496"><ele>500.0</ele><time>2026-03-29T08:01:02.712Z</time></trkpt><trkpt lat="43.4561702" lon="11.9361246"><ele>500.0</ele><time>2026-03-29T08:01:03.706Z</time></trkpt><trkpt lat="43.4562339" lon="11.9362646"><ele>502.8</ele><time>2026-03-29T08:01:05.708Z</time></trkpt><trkpt lat="43.4563067" lon="11.9364002"><ele>505.6</ele><time>2026-03-29T08:01:07.71Z</time></trkpt><trkpt lat="43.4563476" lon="11.9364723"><ele>508.4</ele><time>2026-03-29T08:01:08.708Z</time></trkpt><trkpt lat="43.4564075" lon="11.9366142"><ele>511.2</ele><time>2026-03-29T08:01:10.704Z</time></trkpt><trkpt lat="43.4564401" lon="11.9366907"><ele>514.0</ele><time>2026-03-29T08:01:11.709Z</time></trkpt><trkpt lat="43.4565108" lon="11.9367997"><ele>514.0</ele><time>2026-03-29T08:01:13.705Z</time></trkpt><trkpt lat="43.4565763" lon="11.9369014"><ele>514.0</ele><time>2026-03-29T08:01:15.705Z</time></trkpt><trkpt lat="43.4566423" lon="11.936968"><ele>514.0</ele><time>2026-03-29T08:01:17.708Z</time></trkpt><trkpt lat="43.4567082" lon="11.9370313"><ele>514.0</ele><time>2026-03-29T08:01:19.714Z</time></trkpt><trkpt lat="43.4567918" lon="11.9370934"><ele>514.0</ele><time>2026-03-29T08:01:21.706Z</time></trkpt><trkpt lat="43.4568518" lon="11.9371205"><ele>514.0</ele><time>2026-03-29T08:01:22.715Z</time></trkpt><trkpt lat="43.4569639" lon="11.9371659"><ele>514.0</ele><time>2026-03-29T08:01:24.716Z</time></trkpt><trkpt lat="43.4570267" lon="11.9372094"><ele>514.0</ele><time>2026-03-29T08:01:26.713Z</time></trkpt><trkpt lat="43.4570275" lon="11.93731"><ele>514.0</ele><time>2026-03-29T08:01:32.711Z</time></trkpt><trkpt lat="43.4569533" lon="11.9373927"><ele>514.0</ele><time>2026-03-29T08:01:35.717Z</time></trkpt><trkpt lat="43.456878" lon="11.9375"><ele>514.0</ele><time>2026-03-29T08:01:37.709Z</time></trkpt><trkpt lat="43.4568311" lon="11.9376423"><ele>515.6</ele><time>2026-03-29T08:01:39.71Z</time></trkpt><trkpt lat="43.4568721" lon="11.937808"><ele>517.2</ele><time>2026-03-29T08:01:41.711Z</time></trkpt><trkpt lat="43.4569022" lon="11.937918"><ele>518.8000000000001</ele><time>2026-03-29T08:01:42.712Z</time></trkpt><trkpt lat="43.4569276" lon="11.938017"><ele>520.4</ele><time>2026-03-29T08:01:43.719Z</time></trkpt><trkpt lat="43.4569481" lon="11.9381136"><ele>522.0</ele><time>2026-03-29T08:01:44.708Z</time></trkpt><trkpt lat="43.4569876" lon="11.9382614"><ele>522.8000000000001</ele><time>2026-03-29T08:01:46.706Z</time></trkpt><trkpt lat="43.4570461" lon="11.9383879"><ele>523.6</ele><time>2026-03-29T08:01:48.715Z</time></trkpt><trkpt lat="43.4571347" lon="11.9384979"><ele>524.4000000000001</ele><time>2026-03-29T08:01:50.718Z</time></trkpt><trkpt lat="43.4571804" lon="11.9385651"><ele>525.2</ele><time>2026-03-29T08:01:51.72Z</time></trkpt><trkpt lat="43.4572259" lon="11.9386551"><ele>526.0</ele><time>2026-03-29T08:01:52.71Z</time></trkpt><trkpt lat="43.4572722" lon="11.9387482"><ele>526.0</ele><time>2026-03-29T08:01:53.707Z</time></trkpt><trkpt lat="43.4573056" lon="11.9388352"><ele>526.0</ele><time>2026-03-29T08:01:54.709Z</time></trkpt><trkpt lat="43.4573417" lon="11.9389339"><ele>526.0</ele><time>2026-03-29T08:01:55.715Z</time></trkpt><trkpt lat="43.4573709" lon="11.9390271"><ele>526.0</ele><time>2026-03-29T08:01:56.714Z</time></trkpt><trkpt lat="43.4573892" lon="11.9391679"><ele>526.0</ele><time>2026-03-29T08:01:58.705Z</time></trkpt><trkpt lat="43.4573891" lon="11.939304"><ele>526.0</ele><time>2026-03-29T08:02:00.708Z</time></trkpt><trkpt lat="43.4573932" lon="11.9394385"><ele>525.8</ele><time>2026-03-29T08:02:02.708Z</time></trkpt><trkpt lat="43.4573838" lon="11.9395251"><ele>525.6</ele><time>2026-03-29T08:02:03.717Z</time></trkpt><trkpt lat="43.4572952" lon="11.9396195"><ele>525.4</ele><time>2026-03-29T08:02:05.705Z</time></trkpt><trkpt lat="43.4571928" lon="11.9397037"><ele>525.2</ele><time>2026-03-29T08:02:07.721Z</time></trkpt><trkpt lat="43.4571224" lon="11.9397425"><ele>525.0</ele><time>2026-03-29T08:02:08.711Z</time></trkpt><trkpt lat="43.4570329" lon="11.9397906"><ele>526.6</ele><time>2026-03-29T08:02:09.718Z</time></trkpt><trkpt lat="43.4569443" lon="11.9398415"><ele>528.2</ele><time>2026-03-29T08:02:10.711Z</time></trkpt><trkpt lat="43.4568718" lon="11.9398787"><ele>529.8</ele><time>2026-03-29T08:02:11.717Z</time></trkpt><trkpt lat="43.4568098" lon="11.9399481"><ele>531.4</ele><time>2026-03-29T08:02:12.708Z</time></trkpt><trkpt lat="43.456757" lon="11.940055"><ele>533.0</ele><time>2026-03-29T08:02:13.711Z</time></trkpt><trkpt lat="43.4567193" lon="11.9401901"><ele>534.1666666666666</ele><time>2026-03-29T08:02:14.715Z</time></trkpt><trkpt lat="43.4566862" lon="11.9402715"><ele>535.3333333333333</ele><time>2026-03-29T08:02:15.712Z</time></trkpt><trkpt lat="43.4566656" lon="11.9403942"><ele>536.5</ele><time>2026-03-29T08:02:17.729Z</time></trkpt><trkpt lat="43.4566528" lon="11.9404918"><ele>537.6666666666666</ele><time>2026-03-29T08:02:20.701Z</time></trkpt><trkpt lat="43.4565887" lon="11.9405283"><ele>538.8333333333334</ele><time>2026-03-29T08:02:22.712Z</time></trkpt><trkpt lat="43.4565175" lon="11.9406037"><ele>540.0</ele><time>2026-03-29T08:02:24.708Z</time></trkpt><trkpt lat="43.4564722" lon="11.9406764"><ele>540.0</ele><time>2026-03-29T08:02:25.719Z</time></trkpt><trkpt lat="43.4564214" lon="11.94075"><ele>540.0</ele><time>2026-03-29T08:02:26.716Z</time></trkpt><trkpt lat="43.4563719" lon="11.9408132"><ele>540.0</ele><time>2026-03-29T08:02:27.708Z</time></trkpt><trkpt lat="43.4562866" lon="11.9409126"><ele>540.0</ele><time>2026-03-29T08:02:29.712Z</time></trkpt><trkpt lat="43.456201" lon="11.9410099"><ele>540.0</ele><time>2026-03-29T08:02:31.707Z</time></trkpt><trkpt lat="43.4561053" lon="11.9410824"><ele>541.3333333333334</ele><time>2026-03-29T08:02:33.706Z</time></trkpt><trkpt lat="43.4560007" lon="11.9411476"><ele>542.6666666666666</ele><time>2026-03-29T08:02:35.718Z</time></trkpt><trkpt lat="43.4559571" lon="11.9412437"><ele>544.0</ele><time>2026-03-29T08:02:37.705Z</time></trkpt><trkpt lat="43.4559159" lon="11.9413622"><ele>545.3333333333333</ele><time>2026-03-29T08:02:40.709Z</time></trkpt><trkpt lat="43.4559119" lon="11.9414647"><ele>546.6666666666666</ele><time>2026-03-29T08:02:42.709Z</time></trkpt><trkpt lat="43.4559812" lon="11.9415097"><ele>548.0</ele><time>2026-03-29T08:02:44.714Z</time></trkpt><trkpt lat="43.4560829" lon="11.941567"><ele>548.0</ele><time>2026-03-29T08:02:46.706Z</time></trkpt><trkpt lat="43.4561644" lon="11.9415784"><ele>548.0</ele><time>2026-03-29T08:02:48.71Z</time></trkpt><trkpt lat="43.4562535" lon="11.9416002"><ele>548.0</ele><time>2026-03-29T08:02:50.709Z</time></trkpt><trkpt lat="43.4562929" lon="11.9416743"><ele>548.0</ele><time>2026-03-29T08:02:52.71Z</time></trkpt><trkpt lat="43.4563456" lon="11.941806"><ele>548.0</ele><time>2026-03-29T08:02:54.714Z</time></trkpt><trkpt lat="43.4564319" lon="11.9419323"><ele>553.25</ele><time>2026-03-29T08:02:56.71Z</time></trkpt><trkpt lat="43.4565" lon="11.9420448"><ele>558.5</ele><time>2026-03-29T08:02:58.709Z</time></trkpt><trkpt lat="43.4565472" lon="11.9421852"><ele>563.75</ele><time>2026-03-29T08:03:00.711Z</time></trkpt><trkpt lat="43.4566061" lon="11.9423304"><ele>569.0</ele><time>2026-03-29T08:03:02.703Z</time></trkpt><trkpt lat="43.4566684" lon="11.9424598"><ele>571.5</ele><time>2026-03-29T08:03:04.71Z</time></trkpt><trkpt lat="43.4567105" lon="11.9425841"><ele>574.0</ele><time>2026-03-29T08:03:06.709Z</time></trkpt><trkpt lat="43.4567305" lon="11.9426854"><ele>576.5</ele><time>2026-03-29T08:03:08.709Z</time></trkpt><trkpt lat="43.4567105" lon="11.9427976"><ele>579.0</ele><time>2026-03-29T08:03:11.707Z</time></trkpt><trkpt lat="43.4567385" lon="11.9428943"><ele>581.5</ele><time>2026-03-29T08:03:14.715Z</time></trkpt><trkpt lat="43.4567886" lon="11.942988"><ele>584.0</ele><time>2026-03-29T08:03:17.715Z</time></trkpt><trkpt lat="43.4567864" lon="11.9430927"><ele>584.0</ele><time>2026-03-29T08:03:19.704Z</time></trkpt><trkpt lat="43.456778" lon="11.9432051"><ele>584.0</ele><time>2026-03-29T08:03:21.71Z</time></trkpt><trkpt lat="43.4567874" lon="11.9433263"><ele>584.0</ele><time>2026-03-29T08:03:23.714Z</time></trkpt><trkpt lat="43.4568314" lon="11.9434229"><ele>584.0</ele><time>2026-03-29T08:03:24.704Z</time></trkpt><trkpt lat="43.4568882" lon="11.9435082"><ele>584.0</ele><time>2026-03-29T08:03:25.712Z</time></trkpt><trkpt lat="43.4569345" lon="11.943596"><ele>584.0</ele><time>2026-03-29T08:03:26.713Z</time></trkpt><trkpt lat="43.4569752" lon="11.9436968"><ele>584.3333333333333</ele><time>2026-03-29T08:03:27.715Z</time></trkpt><trkpt lat="43.4570162" lon="11.9437962"><ele>584.6666666666666</ele><time>2026-03-29T08:03:28.711Z</time></trkpt><trkpt lat="43.4570535" lon="11.9438904"><ele>585.0</ele><time>2026-03-29T08:03:29.71Z</time></trkpt><trkpt lat="43.4570796" lon="11.9439698"><ele>585.3333333333334</ele><time>2026-03-29T08:03:30.714Z</time></trkpt><trkpt lat="43.4571318" lon="11.9441089"><ele>585.6666666666667</ele><time>2026-03-29T08:03:32.723Z</time></trkpt><trkpt lat="43.4571669" lon="11.9441832"><ele>586.0</ele><time>2026-03-29T08:03:33.716Z</time></trkpt><trkpt lat="43.4572059" lon="11.9442608"><ele>588.2857142857142</ele><time>2026-03-29T08:03:34.71Z</time></trkpt><trkpt lat="43.4572409" lon="11.9443346"><ele>590.5714285714286</ele><time>2026-03-29T08:03:35.707Z</time></trkpt><trkpt lat="43.4572773" lon="11.9444079"><ele>592.8571428571429</ele><time>2026-03-29T08:03:36.715Z</time></trkpt><trkpt lat="43.4573186" lon="11.9444821"><ele>595.1428571428571</ele><time>2026-03-29T08:03:37.707Z</time></trkpt><trkpt lat="43.4573573" lon="11.9445513"><ele>597.4285714285714</ele><time>2026-03-29T08:03:38.714Z</time></trkpt><trkpt lat="43.4574174" lon="11.9446881"><ele>599.7142857142857</ele><time>2026-03-29T08:03:40.712Z</time></trkpt><trkpt lat="43.4574495" lon="11.9447644"><ele>602.0</ele><time>2026-03-29T08:03:41.723Z</time></trkpt><trkpt lat="43.4575116" lon="11.9449036"><ele>602.0</ele><time>2026-03-29T08:03:43.712Z</time></trkpt><trkpt lat="43.4575694" lon="11.9450356"><ele>602.0</ele><time>2026-03-29T08:03:45.709Z</time></trkpt><trkpt lat="43.4576257" lon="11.9451797"><ele>602.0</ele><time>2026-03-29T08:03:47.71Z</time></trkpt><trkpt lat="43.4576882" lon="11.9452789"><ele>602.0</ele><time>2026-03-29T08:03:49.703Z</time></trkpt><trkpt lat="43.45772" lon="11.9453691"><ele>602.0</ele><time>2026-03-29T08:03:52.711Z</time></trkpt><trkpt lat="43.4577375" lon="11.9455245"><ele>602.5</ele><time>2026-03-29T08:03:55.722Z</time></trkpt><trkpt lat="43.4577559" lon="11.9456263"><ele>603.0</ele><time>2026-03-29T08:03:58.711Z</time></trkpt><trkpt lat="43.4577644" lon="11.945723"><ele>603.5</ele><time>2026-03-29T08:04:01.71Z</time></trkpt><trkpt lat="43.4577591" lon="11.9458255"><ele>604.0</ele><time>2026-03-29T08:04:07.712Z</time></trkpt><trkpt lat="43.4577928" lon="11.9459097"><ele>604.5</ele><time>2026-03-29T08:04:10.711Z</time></trkpt><trkpt lat="43.4578243" lon="11.9459981"><ele>605.0</ele><time>2026-03-29T08:04:12.716Z</time></trkpt><trkpt lat="43.4578531" lon="11.9462164"><ele>605.75</ele><time>2026-03-29T08:04:14.706Z</time></trkpt><trkpt lat="43.4578801" lon="11.946382"><ele>606.5</ele><time>2026-03-29T08:04:15.704Z</time></trkpt><trkpt lat="43.4579045" lon="11.9465712"><ele>607.25</ele><time>2026-03-29T08:04:16.711Z</time></trkpt><trkpt lat="43.45792" lon="11.9467662"><ele>608.0</ele><time>2026-03-29T08:04:17.715Z</time></trkpt><trkpt lat="43.4579437" lon="11.946942"><ele>607.8333333333333</ele><time>2026-03-29T08:04:18.709Z</time></trkpt><trkpt lat="43.457983" lon="11.9470727"><ele>607.6666666666666</ele><time>2026-03-29T08:04:19.72Z</time></trkpt><trkpt lat="43.4580135" lon="11.9471587"><ele>607.5</ele><time>2026-03-29T08:04:20.711Z</time></trkpt><trkpt lat="43.4580624" lon="11.9472349"><ele>607.3333333333334</ele><time>2026-03-29T08:04:23.712Z</time></trkpt><trkpt lat="43.4581123" lon="11.9472915"><ele>607.1666666666667</ele><time>2026-03-29T08:04:26.712Z</time></trkpt><trkpt lat="43.4581845" lon="11.9472916"><ele>607.0</ele><time>2026-03-29T08:04:31.707Z</time></trkpt><trkpt lat="43.4582205" lon="11.9474132"><ele>608.25</ele><time>2026-03-29T08:04:34.708Z</time></trkpt><trkpt lat="43.4582187" lon="11.9475786"><ele>609.5</ele><time>2026-03-29T08:04:36.711Z</time></trkpt><trkpt lat="43.458196" lon="11.9477603"><ele>610.75</ele><time>2026-03-29T08:04:38.704Z</time></trkpt><trkpt lat="43.4581805" lon="11.9478677"><ele>612.0</ele><time>2026-03-29T08:04:39.726Z</time></trkpt><trkpt lat="43.458177" lon="11.9480372"><ele>612.0</ele><time>2026-03-29T08:04:41.708Z</time></trkpt><trkpt lat="43.4581667" lon="11.9482072"><ele>612.0</ele><time>2026-03-29T08:04:43.711Z</time></trkpt><trkpt lat="43.4581614" lon="11.948298"><ele>612.0</ele><time>2026-03-29T08:04:44.715Z</time></trkpt><trkpt lat="43.4581594" lon="11.9484293"><ele>612.0</ele><time>2026-03-29T08:04:46.72Z</time></trkpt><trkpt lat="43.4581277" lon="11.9485384"><ele>612.0</ele><time>2026-03-29T08:04:48.716Z</time></trkpt><trkpt lat="43.458057" lon="11.948644"><ele>613.0</ele><time>2026-03-29T08:04:50.706Z</time></trkpt><trkpt lat="43.4580074" lon="11.9487214"><ele>614.0</ele><time>2026-03-29T08:04:51.715Z</time></trkpt><trkpt lat="43.457975" lon="11.9488078"><ele>615.0</ele><time>2026-03-29T08:04:52.713Z</time></trkpt><trkpt lat="43.4579505" lon="11.9489111"><ele>616.0</ele><time>2026-03-29T08:04:53.71Z</time></trkpt><trkpt lat="43.4579182" lon="11.9490166"><ele>617.0</ele><time>2026-03-29T08:04:54.71Z</time></trkpt><trkpt lat="43.4578847" lon="11.9491148"><ele>618.0</ele><time>2026-03-29T08:04:55.709Z</time></trkpt><trkpt lat="43.4578655" lon="11.9492121"><ele>621.4</ele><time>2026-03-29T08:04:56.716Z</time></trkpt><trkpt lat="43.4578592" lon="11.9493237"><ele>624.8</ele><time>2026-03-29T08:04:57.702Z</time></trkpt><trkpt lat="43.457845" lon="11.9494693"><ele>628.2</ele><time>2026-03-29T08:04:58.719Z</time></trkpt><trkpt lat="43.4578156" lon="11.949619"><ele>631.6</ele><time>2026-03-29T08:04:59.708Z</time></trkpt><trkpt lat="43.457783" lon="11.9497292"><ele>635.0</ele><time>2026-03-29T08:05:00.713Z</time></trkpt><trkpt lat="43.4577455" lon="11.9498788"><ele>634.9999999999999</ele><time>2026-03-29T08:05:02.709Z</time></trkpt><trkpt lat="43.457754" lon="11.9499732"><ele>635.0</ele><time>2026-03-29T08:05:03.71Z</time></trkpt><trkpt lat="43.4577546" lon="11.9500889"><ele>635.0</ele><time>2026-03-29T08:05:04.706Z</time></trkpt><trkpt lat="43.45774" lon="11.9501983"><ele>635.0</ele><time>2026-03-29T08:05:05.714Z</time></trkpt><trkpt lat="43.4577252" lon="11.950286"><ele>635.0</ele><time>2026-03-29T08:05:06.708Z</time></trkpt><trkpt lat="43.4577168" lon="11.9503747"><ele>634.9999999999999</ele><time>2026-03-29T08:05:07.723Z</time></trkpt><trkpt lat="43.457715" lon="11.9504789"><ele>635.0</ele><time>2026-03-29T08:05:08.712Z</time></trkpt><trkpt lat="43.4577122" lon="11.9505851"><ele>636.2</ele><time>2026-03-29T08:05:09.7Z</time></trkpt><trkpt lat="43.457706" lon="11.9506826"><ele>637.4</ele><time>2026-03-29T08:05:10.706Z</time></trkpt><trkpt lat="43.4576846" lon="11.9508567"><ele>638.5999999999999</ele><time>2026-03-29T08:05:12.716Z</time></trkpt><trkpt lat="43.4576827" lon="11.9509688"><ele>639.8</ele><time>2026-03-29T08:05:13.712Z</time></trkpt><trkpt lat="43.4576778" lon="11.9510982"><ele>641.0</ele><time>2026-03-29T08:05:14.708Z</time></trkpt><trkpt lat="43.4576688" lon="11.9512251"><ele>642.4</ele><time>2026-03-29T08:05:15.711Z</time></trkpt><trkpt lat="43.4576603" lon="11.9513385"><ele>643.8</ele><time>2026-03-29T08:05:16.708Z</time></trkpt><trkpt lat="43.4576436" lon="11.9514259"><ele>645.1999999999999</ele><time>2026-03-29T08:05:17.716Z</time></trkpt><trkpt lat="43.457604" lon="11.9515787"><ele>646.5999999999999</ele><time>2026-03-29T08:05:19.712Z</time></trkpt><trkpt lat="43.4575568" lon="11.9517089"><ele>648.0</ele><time>2026-03-29T08:05:21.711Z</time></trkpt><trkpt lat="43.4574824" lon="11.9517842"><ele>649.0</ele><time>2026-03-29T08:05:23.709Z</time></trkpt><trkpt lat="43.4574148" lon="11.9517997"><ele>650.0</ele><time>2026-03-29T08:05:24.701Z</time></trkpt><trkpt lat="43.4573419" lon="11.9518255"><ele>651.0</ele><time>2026-03-29T08:05:25.709Z</time></trkpt><trkpt lat="43.4572713" lon="11.9518658"><ele>652.0</ele><time>2026-03-29T08:05:26.705Z</time></trkpt><trkpt lat="43.4572122" lon="11.9519154"><ele>653.0</ele><time>2026-03-29T08:05:27.7Z</time></trkpt><trkpt lat="43.4571715" lon="11.9519816"><ele>654.0</ele><time>2026-03-29T08:05:28.707Z</time></trkpt><trkpt lat="43.4571403" lon="11.9520829"><ele>655.0</ele><time>2026-03-29T08:05:29.709Z</time></trkpt><trkpt lat="43.4571068" lon="11.9521883"><ele>655.8333333333334</ele><time>2026-03-29T08:05:30.702Z</time></trkpt><trkpt lat="43.457074" lon="11.9522675"><ele>656.6666666666667</ele><time>2026-03-29T08:05:31.704Z</time></trkpt><trkpt lat="43.457023" lon="11.9523274"><ele>657.5</ele><time>2026-03-29T08:05:32.709Z</time></trkpt><trkpt lat="43.4569235" lon="11.9524483"><ele>658.3333333333334</ele><time>2026-03-29T08:05:34.714Z</time></trkpt><trkpt lat="43.456889" lon="11.9525364"><ele>659.1666666666666</ele><time>2026-03-29T08:05:35.712Z</time></trkpt><trkpt lat="43.4568463" lon="11.9526204"><ele>660.0</ele><time>2026-03-29T08:05:36.708Z</time></trkpt><trkpt lat="43.456789" lon="11.9526861"><ele>661.8</ele><time>2026-03-29T08:05:37.706Z</time></trkpt><trkpt lat="43.4567112" lon="11.9527272"><ele>663.6</ele><time>2026-03-29T08:05:38.706Z</time></trkpt><trkpt lat="43.4566325" lon="11.9527479"><ele>665.4000000000001</ele><time>2026-03-29T08:05:39.712Z</time></trkpt><trkpt lat="43.4565617" lon="11.9527541"><ele>667.2</ele><time>2026-03-29T08:05:40.713Z</time></trkpt><trkpt lat="43.4564491" lon="11.9527969"><ele>669.0</ele><time>2026-03-29T08:05:42.709Z</time></trkpt><trkpt lat="43.4564089" lon="11.952924"><ele>669.0</ele><time>2026-03-29T08:05:44.719Z</time></trkpt><trkpt lat="43.4564011" lon="11.9530896"><ele>669.0</ele><time>2026-03-29T08:05:46.706Z</time></trkpt><trkpt lat="43.4564548" lon="11.9532386"><ele>669.0</ele><time>2026-03-29T08:05:48.709Z</time></trkpt><trkpt lat="43.4565083" lon="11.9532912"><ele>669.0</ele><time>2026-03-29T08:05:49.727Z</time></trkpt><trkpt lat="43.456596" lon="11.9533889"><ele>669.0</ele><time>2026-03-29T08:05:51.711Z</time></trkpt><trkpt lat="43.4566162" lon="11.9535853"><ele>669.5</ele><time>2026-03-29T08:05:53.709Z</time></trkpt><trkpt lat="43.4566097" lon="11.9537164"><ele>670.0</ele><time>2026-03-29T08:05:54.705Z</time></trkpt><trkpt lat="43.4566174" lon="11.953836"><ele>670.5</ele><time>2026-03-29T08:05:55.707Z</time></trkpt><trkpt lat="43.4566333" lon="11.9539486"><ele>671.0</ele><time>2026-03-29T08:05:56.714Z</time></trkpt><trkpt lat="43.4566593" lon="11.9540446"><ele>671.5</ele><time>2026-03-29T08:05:57.707Z</time></trkpt><trkpt lat="43.4566887" lon="11.9541261"><ele>672.0</ele><time>2026-03-29T08:05:58.716Z</time></trkpt><trkpt lat="43.4567174" lon="11.9542605"><ele>674.0</ele><time>2026-03-29T08:06:00.716Z</time></trkpt><trkpt lat="43.4566897" lon="11.954355"><ele>676.0</ele><time>2026-03-29T08:06:02.709Z</time></trkpt><trkpt lat="43.4566201" lon="11.9543906"><ele>678.0</ele><time>2026-03-29T08:06:05.706Z</time></trkpt><trkpt lat="43.456555" lon="11.954377"><ele>680.0</ele><time>2026-03-29T08:06:08.72Z</time></trkpt><trkpt lat="43.4564816" lon="11.9543869"><ele>682.0</ele><time>2026-03-29T08:08:22.707Z</time></trkpt><trkpt lat="43.4563437" lon="11.9544297"><ele>684.0</ele><time>2026-03-29T08:08:24.718Z</time></trkpt><trkpt lat="43.4562636" lon="11.9544492"><ele>684.0</ele><time>2026-03-29T08:08:25.713Z</time></trkpt><trkpt lat="43.4561848" lon="11.9544804"><ele>684.0</ele><time>2026-03-29T08:08:26.714Z</time></trkpt><trkpt lat="43.4561125" lon="11.9545417"><ele>684.0</ele><time>2026-03-29T08:08:27.709Z</time></trkpt><trkpt lat="43.4560377" lon="11.9546263"><ele>684.0</ele><time>2026-03-29T08:08:28.723Z</time></trkpt><trkpt lat="43.4559638" lon="11.9547233"><ele>684.0</ele><time>2026-03-29T08:08:29.71Z</time></trkpt><trkpt lat="43.4558948" lon="11.9548205"><ele>684.0</ele><time>2026-03-29T08:08:30.704Z</time></trkpt><trkpt lat="43.4558319" lon="11.9548933"><ele>684.0</ele><time>2026-03-29T08:08:31.71Z</time></trkpt><trkpt lat="43.45577" lon="11.9549529"><ele>684.0</ele><time>2026-03-29T08:08:32.709Z</time></trkpt><trkpt lat="43.455702" lon="11.9549749"><ele>684.0</ele><time>2026-03-29T08:08:33.72Z</time></trkpt><trkpt lat="43.4556231" lon="11.9549626"><ele>684.0</ele><time>2026-03-29T08:08:34.709Z</time></trkpt><trkpt lat="43.4555356" lon="11.9549027"><ele>684.0</ele><time>2026-03-29T08:08:35.704Z</time></trkpt><trkpt lat="43.4554405" lon="11.9548029"><ele>684.2</ele><time>2026-03-29T08:08:36.704Z</time></trkpt><trkpt lat="43.4553452" lon="11.9546887"><ele>684.4000000000001</ele><time>2026-03-29T08:08:37.709Z</time></trkpt><trkpt lat="43.4552546" lon="11.9546047"><ele>684.6</ele><time>2026-03-29T08:08:38.715Z</time></trkpt><trkpt lat="43.4551642" lon="11.9545564"><ele>684.8</ele><time>2026-03-29T08:08:39.711Z</time></trkpt><trkpt lat="43.4550616" lon="11.9545339"><ele>685.0</ele><time>2026-03-29T08:08:40.709Z</time></trkpt><trkpt lat="43.4549683" lon="11.9545376"><ele>685.0</ele><time>2026-03-29T08:08:41.707Z</time></trkpt><trkpt lat="43.4548719" lon="11.9545664"><ele>685.0</ele><time>2026-03-29T08:08:42.701Z</time></trkpt><trkpt lat="43.4547861" lon="11.9546305"><ele>685.0</ele><time>2026-03-29T08:08:43.717Z</time></trkpt><trkpt lat="43.4547097" lon="11.9546972"><ele>685.0</ele><time>2026-03-29T08:08:44.708Z</time></trkpt><trkpt lat="43.4546294" lon="11.9547402"><ele>685.0</ele><time>2026-03-29T08:08:45.703Z</time></trkpt><trkpt lat="43.454544" lon="11.9547258"><ele>684.0</ele><time>2026-03-29T08:08:46.711Z</time></trkpt><trkpt lat="43.4544537" lon="11.9546597"><ele>683.0</ele><time>2026-03-29T08:08:47.715Z</time></trkpt><trkpt lat="43.4543677" lon="11.9545935"><ele>682.0</ele><time>2026-03-29T08:08:48.713Z</time></trkpt><trkpt lat="43.4542797" lon="11.9545688"><ele>681.0</ele><time>2026-03-29T08:08:49.71Z</time></trkpt><trkpt lat="43.4541831" lon="11.9545869"><ele>680.0</ele><time>2026-03-29T08:08:50.708Z</time></trkpt><trkpt lat="43.454077" lon="11.9546264"><ele>680.0</ele><time>2026-03-29T08:08:51.706Z</time></trkpt><trkpt lat="43.4539703" lon="11.9546674"><ele>680.0</ele><time>2026-03-29T08:08:52.706Z</time></trkpt><trkpt lat="43.4538685" lon="11.9546874"><ele>680.0</ele><time>2026-03-29T08:08:53.706Z</time></trkpt><trkpt lat="43.4537616" lon="11.9546905"><ele>680.0</ele><time>2026-03-29T08:08:54.713Z</time></trkpt><trkpt lat="43.4536488" lon="11.9546772"><ele>680.0</ele><time>2026-03-29T08:08:55.709Z</time></trkpt><trkpt lat="43.4535286" lon="11.95464"><ele>679.0</ele><time>2026-03-29T08:08:56.708Z</time></trkpt><trkpt lat="43.4533978" lon="11.9545884"><ele>678.0</ele><time>2026-03-29T08:08:57.702Z</time></trkpt><trkpt lat="43.453263" lon="11.9545507"><ele>677.0</ele><time>2026-03-29T08:08:58.707Z</time></trkpt><trkpt lat="43.4531487" lon="11.9545115"><ele>676.0</ele><time>2026-03-29T08:08:59.703Z</time></trkpt><trkpt lat="43.4530645" lon="11.9544633"><ele>676.0</ele><time>2026-03-29T08:09:00.707Z</time></trkpt><trkpt lat="43.4529944" lon="11.9544117"><ele>676.0</ele><time>2026-03-29T08:09:01.711Z</time></trkpt><trkpt lat="43.4529217" lon="11.9543585"><ele>676.0</ele><time>2026-03-29T08:09:02.711Z</time></trkpt><trkpt lat="43.4528523" lon="11.9542981"><ele>676.0</ele><time>2026-03-29T08:09:03.723Z</time></trkpt><trkpt lat="43.4527792" lon="11.9542353"><ele>676.0</ele><time>2026-03-29T08:09:04.707Z</time></trkpt><trkpt lat="43.4527074" lon="11.9541731"><ele>676.0</ele><time>2026-03-29T08:09:05.707Z</time></trkpt><trkpt lat="43.4526474" lon="11.9541294"><ele>674.3333333333334</ele><time>2026-03-29T08:09:06.71Z</time></trkpt><trkpt lat="43.4525751" lon="11.9540802"><ele>672.6666666666667</ele><time>2026-03-29T08:09:08.719Z</time></trkpt><trkpt lat="43.4524528" lon="11.9541676"><ele>671.0</ele><time>2026-03-29T08:09:11.715Z</time></trkpt><trkpt lat="43.4523957" lon="11.9542192"><ele>669.3333333333334</ele><time>2026-03-29T08:09:12.717Z</time></trkpt><trkpt lat="43.4523349" lon="11.9542882"><ele>667.6666666666666</ele><time>2026-03-29T08:09:13.721Z</time></trkpt><trkpt lat="43.452272" lon="11.9543329"><ele>666.0</ele><time>2026-03-29T08:09:14.714Z</time></trkpt><trkpt lat="43.4522053" lon="11.9543536"><ele>666.0</ele><time>2026-03-29T08:09:15.714Z</time></trkpt><trkpt lat="43.4520822" lon="11.9543341"><ele>666.0</ele><time>2026-03-29T08:09:17.713Z</time></trkpt><trkpt lat="43.4520119" lon="11.9542777"><ele>666.0</ele><time>2026-03-29T08:09:18.704Z</time></trkpt><trkpt lat="43.451946" lon="11.95421"><ele>666.0</ele><time>2026-03-29T08:09:19.705Z</time></trkpt><trkpt lat="43.451887" lon="11.9541411"><ele>666.0</ele><time>2026-03-29T08:09:20.712Z</time></trkpt><trkpt lat="43.4518269" lon="11.9540772"><ele>666.0</ele><time>2026-03-29T08:09:21.705Z</time></trkpt><trkpt lat="43.4517702" lon="11.9540157"><ele>666.0</ele><time>2026-03-29T08:09:22.717Z</time></trkpt><trkpt lat="43.4517087" lon="11.9539582"><ele>666.0</ele><time>2026-03-29T08:09:23.711Z</time></trkpt><trkpt lat="43.4516152" lon="11.9538637"><ele>666.0</ele><time>2026-03-29T08:09:25.71Z</time></trkpt><trkpt lat="43.4515093" lon="11.9538705"><ele>666.0</ele><time>2026-03-29T08:09:27.713Z</time></trkpt><trkpt lat="43.4514388" lon="11.9538776"><ele>666.0</ele><time>2026-03-29T08:09:28.714Z</time></trkpt><trkpt lat="43.4513526" lon="11.9538836"><ele>667.3333333333334</ele><time>2026-03-29T08:09:29.712Z</time></trkpt><trkpt lat="43.4512615" lon="11.9539002"><ele>668.6666666666666</ele><time>2026-03-29T08:09:30.708Z</time></trkpt><trkpt lat="43.4511797" lon="11.9538942"><ele>670.0</ele><time>2026-03-29T08:09:31.709Z</time></trkpt><trkpt lat="43.4511051" lon="11.9538779"><ele>671.3333333333333</ele><time>2026-03-29T08:09:32.706Z</time></trkpt><trkpt lat="43.4510393" lon="11.9538533"><ele>672.6666666666666</ele><time>2026-03-29T08:09:33.713Z</time></trkpt><trkpt lat="43.4509734" lon="11.953831"><ele>674.0</ele><time>2026-03-29T08:09:34.704Z</time></trkpt><trkpt lat="43.4508484" lon="11.953794"><ele>674.0</ele><time>2026-03-29T08:09:36.705Z</time></trkpt><trkpt lat="43.4507374" lon="11.95375"><ele>674.0</ele><time>2026-03-29T08:09:38.705Z</time></trkpt><trkpt lat="43.4506622" lon="11.9537179"><ele>674.0</ele><time>2026-03-29T08:09:40.718Z</time></trkpt><trkpt lat="43.4505706" lon="11.9536493"><ele>674.0</ele><time>2026-03-29T08:09:42.71Z</time></trkpt><trkpt lat="43.4505118" lon="11.9535957"><ele>674.0</ele><time>2026-03-29T08:09:43.712Z</time></trkpt><trkpt lat="43.4504529" lon="11.9535429"><ele>674.0</ele><time>2026-03-29T08:09:44.711Z</time></trkpt><trkpt lat="43.450394" lon="11.9534838"><ele>676.1666666666666</ele><time>2026-03-29T08:09:45.715Z</time></trkpt><trkpt lat="43.4503387" lon="11.9534236"><ele>678.3333333333333</ele><time>2026-03-29T08:09:46.711Z</time></trkpt><trkpt lat="43.4502726" lon="11.9533504"><ele>680.5</ele><time>2026-03-29T08:09:47.713Z</time></trkpt><trkpt lat="43.4501995" lon="11.9532667"><ele>682.6666666666666</ele><time>2026-03-29T08:09:48.701Z</time></trkpt><trkpt lat="43.4501216" lon="11.9531949"><ele>684.8333333333334</ele><time>2026-03-29T08:09:49.708Z</time></trkpt><trkpt lat="43.4500347" lon="11.9531214"><ele>687.0</ele><time>2026-03-29T08:09:50.71Z</time></trkpt><trkpt lat="43.4499541" lon="11.9530478"><ele>687.1666666666666</ele><time>2026-03-29T08:09:51.707Z</time></trkpt><trkpt lat="43.4498766" lon="11.9529879"><ele>687.3333333333334</ele><time>2026-03-29T08:09:52.708Z</time></trkpt><trkpt lat="43.4497973" lon="11.9529175"><ele>687.5</ele><time>2026-03-29T08:09:53.716Z</time></trkpt><trkpt lat="43.4497287" lon="11.9528512"><ele>687.6666666666667</ele><time>2026-03-29T08:09:54.711Z</time></trkpt><trkpt lat="43.4496634" lon="11.9528091"><ele>687.8333333333334</ele><time>2026-03-29T08:09:55.719Z</time></trkpt><trkpt lat="43.4495966" lon="11.9527917"><ele>688.0</ele><time>2026-03-29T08:09:56.71Z</time></trkpt><trkpt lat="43.4495039" lon="11.952742"><ele>686.3333333333334</ele><time>2026-03-29T08:09:58.714Z</time></trkpt><trkpt lat="43.449435" lon="11.952719"><ele>684.6666666666667</ele><time>2026-03-29T08:10:00.709Z</time></trkpt><trkpt lat="43.4493405" lon="11.952758"><ele>683.0</ele><time>2026-03-29T08:10:02.708Z</time></trkpt><trkpt lat="43.4492534" lon="11.9528349"><ele>681.3333333333334</ele><time>2026-03-29T08:10:04.72Z</time></trkpt><trkpt lat="43.4491748" lon="11.9528737"><ele>679.6666666666666</ele><time>2026-03-29T08:10:06.709Z</time></trkpt><trkpt lat="43.4491027" lon="11.9529273"><ele>678.0</ele><time>2026-03-29T08:10:08.706Z</time></trkpt><trkpt lat="43.4490127" lon="11.9529866"><ele>678.0</ele><time>2026-03-29T08:10:10.711Z</time></trkpt><trkpt lat="43.4489182" lon="11.9530482"><ele>678.0</ele><time>2026-03-29T08:10:12.703Z</time></trkpt><trkpt lat="43.4488314" lon="11.9531269"><ele>678.0</ele><time>2026-03-29T08:10:14.711Z</time></trkpt><trkpt lat="43.4487654" lon="11.9532252"><ele>678.0</ele><time>2026-03-29T08:10:16.711Z</time></trkpt><trkpt lat="43.4487284" lon="11.9533429"><ele>678.0</ele><time>2026-03-29T08:10:18.719Z</time></trkpt><trkpt lat="43.4487054" lon="11.9534664"><ele>673.4</ele><time>2026-03-29T08:10:20.71Z</time></trkpt><trkpt lat="43.448679" lon="11.9535866"><ele>668.8</ele><time>2026-03-29T08:10:22.705Z</time></trkpt><trkpt lat="43.4486101" lon="11.9536169"><ele>664.2</ele><time>2026-03-29T08:10:24.717Z</time></trkpt><trkpt lat="43.4485089" lon="11.9536117"><ele>659.6</ele><time>2026-03-29T08:10:26.704Z</time></trkpt><trkpt lat="43.4484054" lon="11.9536535"><ele>655.0</ele><time>2026-03-29T08:10:28.714Z</time></trkpt><trkpt lat="43.4482918" lon="11.9536894"><ele>655.0</ele><time>2026-03-29T08:10:30.722Z</time></trkpt><trkpt lat="43.4482297" lon="11.9537442"><ele>655.0</ele><time>2026-03-29T08:10:32.711Z</time></trkpt><trkpt lat="43.4482257" lon="11.9538787"><ele>655.0</ele><time>2026-03-29T08:10:34.707Z</time></trkpt><trkpt lat="43.4482017" lon="11.953995"><ele>655.0</ele><time>2026-03-29T08:10:37.712Z</time></trkpt><trkpt lat="43.4481681" lon="11.9540709"><ele>655.0</ele><time>2026-03-29T08:10:39.713Z</time></trkpt><trkpt lat="43.4480998" lon="11.9541075"><ele>655.0</ele><time>2026-03-29T08:10:41.713Z</time></trkpt><trkpt lat="43.4480229" lon="11.9540819"><ele>654.6</ele><time>2026-03-29T08:10:42.703Z</time></trkpt><trkpt lat="43.4479161" lon="11.9540247"><ele>654.2</ele><time>2026-03-29T08:10:44.724Z</time></trkpt><trkpt lat="43.4478472" lon="11.953974"><ele>653.8</ele><time>2026-03-29T08:10:45.707Z</time></trkpt><trkpt lat="43.4477768" lon="11.953926"><ele>653.4</ele><time>2026-03-29T08:10:46.708Z</time></trkpt><trkpt lat="43.447693" lon="11.9538782"><ele>653.0</ele><time>2026-03-29T08:10:47.71Z</time></trkpt><trkpt lat="43.4475976" lon="11.9538531"><ele>653.0</ele><time>2026-03-29T08:10:48.708Z</time></trkpt><trkpt lat="43.4474973" lon="11.9538546"><ele>653.0</ele><time>2026-03-29T08:10:49.711Z</time></trkpt><trkpt lat="43.4473982" lon="11.9538775"><ele>653.0</ele><time>2026-03-29T08:10:50.724Z</time></trkpt><trkpt lat="43.4473261" lon="11.9538933"><ele>653.0</ele><time>2026-03-29T08:10:51.707Z</time></trkpt><trkpt lat="43.4472263" lon="11.9538873"><ele>653.0</ele><time>2026-03-29T08:10:53.711Z</time></trkpt><trkpt lat="43.4471542" lon="11.9538922"><ele>653.0</ele><time>2026-03-29T08:10:55.714Z</time></trkpt><trkpt lat="43.4470418" lon="11.9539528"><ele>653.4285714285714</ele><time>2026-03-29T08:10:57.712Z</time></trkpt><trkpt lat="43.446991" lon="11.9540083"><ele>653.8571428571429</ele><time>2026-03-29T08:10:58.707Z</time></trkpt><trkpt lat="43.4469397" lon="11.9540592"><ele>654.2857142857142</ele><time>2026-03-29T08:10:59.711Z</time></trkpt><trkpt lat="43.4468831" lon="11.9540986"><ele>654.7142857142858</ele><time>2026-03-29T08:11:00.706Z</time></trkpt><trkpt lat="43.4468149" lon="11.9541292"><ele>655.1428571428571</ele><time>2026-03-29T08:11:01.714Z</time></trkpt><trkpt lat="43.446742" lon="11.9541434"><ele>655.5714285714286</ele><time>2026-03-29T08:11:02.709Z</time></trkpt><trkpt lat="43.4466603" lon="11.95417"><ele>656.0</ele><time>2026-03-29T08:11:03.717Z</time></trkpt><trkpt lat="43.4465744" lon="11.9541984"><ele>657.1666666666666</ele><time>2026-03-29T08:11:04.721Z</time></trkpt><trkpt lat="43.4464834" lon="11.9542282"><ele>658.3333333333333</ele><time>2026-03-29T08:11:05.707Z</time></trkpt><trkpt lat="43.4463877" lon="11.9542871"><ele>659.5</ele><time>2026-03-29T08:11:06.726Z</time></trkpt><trkpt lat="43.4463194" lon="11.9543561"><ele>660.6666666666666</ele><time>2026-03-29T08:11:07.708Z</time></trkpt><trkpt lat="43.4462698" lon="11.9544151"><ele>661.8333333333334</ele><time>2026-03-29T08:11:08.704Z</time></trkpt><trkpt lat="43.4462215" lon="11.9544944"><ele>663.0</ele><time>2026-03-29T08:11:09.713Z</time></trkpt><trkpt lat="43.4461764" lon="11.9545632"><ele>663.8</ele><time>2026-03-29T08:11:10.708Z</time></trkpt><trkpt lat="43.4460768" lon="11.9546437"><ele>664.5999999999999</ele><time>2026-03-29T08:11:12.706Z</time></trkpt><trkpt lat="43.4459447" lon="11.95466"><ele>665.4000000000001</ele><time>2026-03-29T08:11:14.712Z</time></trkpt><trkpt lat="43.445878" lon="11.954664"><ele>666.2</ele><time>2026-03-29T08:11:15.714Z</time></trkpt><trkpt lat="43.4457972" lon="11.9546441"><ele>667.0</ele><time>2026-03-29T08:11:16.707Z</time></trkpt><trkpt lat="43.4457067" lon="11.9546323"><ele>667.0</ele><time>2026-03-29T08:11:17.707Z</time></trkpt><trkpt lat="43.4456192" lon="11.9546145"><ele>667.0</ele><time>2026-03-29T08:11:18.71Z</time></trkpt><trkpt lat="43.4455353" lon="11.9545919"><ele>667.0</ele><time>2026-03-29T08:11:19.706Z</time></trkpt><trkpt lat="43.4454597" lon="11.9545743"><ele>667.0</ele><time>2026-03-29T08:11:20.72Z</time></trkpt><trkpt lat="43.4453922" lon="11.9545738"><ele>667.0</ele><time>2026-03-29T08:11:21.703Z</time></trkpt><trkpt lat="43.4452881" lon="11.9546052"><ele>667.0</ele><time>2026-03-29T08:11:23.708Z</time></trkpt><trkpt lat="43.4452364" lon="11.9546553"><ele>665.8333333333334</ele><time>2026-03-29T08:11:25.718Z</time></trkpt><trkpt lat="43.4451778" lon="11.9546983"><ele>664.6666666666667</ele><time>2026-03-29T08:11:38.711Z</time></trkpt><trkpt lat="43.4450883" lon="11.9547803"><ele>663.5</ele><time>2026-03-29T08:11:40.714Z</time></trkpt><trkpt lat="43.4450203" lon="11.9547922"><ele>662.3333333333334</ele><time>2026-03-29T08:11:41.71Z</time></trkpt><trkpt lat="43.4449475" lon="11.9548025"><ele>661.1666666666666</ele><time>2026-03-29T08:11:42.707Z</time></trkpt><trkpt lat="43.4448623" lon="11.9548067"><ele>660.0</ele><time>2026-03-29T08:11:43.712Z</time></trkpt><trkpt lat="43.4447813" lon="11.954814"><ele>660.0</ele><time>2026-03-29T08:11:44.709Z</time></trkpt><trkpt lat="43.4447056" lon="11.9548239"><ele>660.0</ele><time>2026-03-29T08:11:45.715Z</time></trkpt><trkpt lat="43.4446237" lon="11.9548445"><ele>660.0</ele><time>2026-03-29T08:11:46.708Z</time></trkpt><trkpt lat="43.4445448" lon="11.954905"><ele>660.0</ele><time>2026-03-29T08:11:47.707Z</time></trkpt><trkpt lat="43.4444748" lon="11.9549794"><ele>660.0</ele><time>2026-03-29T08:11:48.715Z</time></trkpt><trkpt lat="43.4444107" lon="11.9550388"><ele>660.0</ele><time>2026-03-29T08:11:49.716Z</time></trkpt><trkpt lat="43.4443532" lon="11.9551113"><ele>659.5</ele><time>2026-03-29T08:11:50.71Z</time></trkpt><trkpt lat="43.4442869" lon="11.9551984"><ele>659.0</ele><time>2026-03-29T08:11:51.711Z</time></trkpt><trkpt lat="43.4442154" lon="11.9552905"><ele>658.5</ele><time>2026-03-29T08:11:52.706Z</time></trkpt><trkpt lat="43.444158" lon="11.9553852"><ele>658.0</ele><time>2026-03-29T08:11:53.711Z</time></trkpt><trkpt lat="43.4441191" lon="11.9554608"><ele>657.5</ele><time>2026-03-29T08:11:54.705Z</time></trkpt><trkpt lat="43.4440781" lon="11.9555372"><ele>657.0</ele><time>2026-03-29T08:11:55.71Z</time></trkpt><trkpt lat="43.4440313" lon="11.9556187"><ele>657.0</ele><time>2026-03-29T08:11:56.711Z</time></trkpt><trkpt lat="43.4439806" lon="11.95571"><ele>657.0</ele><time>2026-03-29T08:11:57.706Z</time></trkpt><trkpt lat="43.4439317" lon="11.9558014"><ele>657.0</ele><time>2026-03-29T08:11:58.721Z</time></trkpt><trkpt lat="43.4438936" lon="11.955886"><ele>657.0</ele><time>2026-03-29T08:11:59.719Z</time></trkpt><trkpt lat="43.4438636" lon="11.9559716"><ele>657.0</ele><time>2026-03-29T08:12:00.715Z</time></trkpt><trkpt lat="43.4438299" lon="11.9560546"><ele>657.0</ele><time>2026-03-29T08:12:01.706Z</time></trkpt><trkpt lat="43.4438089" lon="11.9561372"><ele>657.0</ele><time>2026-03-29T08:12:02.708Z</time></trkpt><trkpt lat="43.4437647" lon="11.9562826"><ele>655.8333333333334</ele><time>2026-03-29T08:12:04.707Z</time></trkpt><trkpt lat="43.4437214" lon="11.9563763"><ele>654.6666666666666</ele><time>2026-03-29T08:12:06.707Z</time></trkpt><trkpt lat="43.4436448" lon="11.9564257"><ele>653.5</ele><time>2026-03-29T08:12:09.713Z</time></trkpt><trkpt lat="43.4435841" lon="11.9563709"><ele>652.3333333333333</ele><time>2026-03-29T08:12:13.709Z</time></trkpt><trkpt lat="43.4435908" lon="11.9562799"><ele>651.1666666666666</ele><time>2026-03-29T08:12:15.712Z</time></trkpt><trkpt lat="43.4436008" lon="11.9561629"><ele>650.0</ele><time>2026-03-29T08:12:17.711Z</time></trkpt><trkpt lat="43.4435739" lon="11.9559868"><ele>650.0</ele><time>2026-03-29T08:12:19.707Z</time></trkpt><trkpt lat="43.4435641" lon="11.9558961"><ele>650.0</ele><time>2026-03-29T08:12:20.709Z</time></trkpt><trkpt lat="43.4435642" lon="11.9558061"><ele>650.0</ele><time>2026-03-29T08:12:21.709Z</time></trkpt><trkpt lat="43.4435424" lon="11.9556904"><ele>650.0</ele><time>2026-03-29T08:12:23.717Z</time></trkpt><trkpt lat="43.4435354" lon="11.9555885"><ele>650.0</ele><time>2026-03-29T08:12:26.708Z</time></trkpt><trkpt lat="43.4435513" lon="11.9554625"><ele>650.0</ele><time>2026-03-29T08:12:29.708Z</time></trkpt><trkpt lat="43.443571" lon="11.9553595"><ele>653.6</ele><time>2026-03-29T08:12:31.707Z</time></trkpt><trkpt lat="43.4435822" lon="11.95526"><ele>657.2</ele><time>2026-03-29T08:12:32.712Z</time></trkpt><trkpt lat="43.4436037" lon="11.9551434"><ele>660.8</ele><time>2026-03-29T08:12:33.706Z</time></trkpt><trkpt lat="43.4436277" lon="11.9550456"><ele>664.4</ele><time>2026-03-29T08:12:34.711Z</time></trkpt><trkpt lat="43.4436568" lon="11.9549023"><ele>668.0</ele><time>2026-03-29T08:12:36.717Z</time></trkpt><trkpt lat="43.4436903" lon="11.9547241"><ele>668.8571428571429</ele><time>2026-03-29T08:12:38.721Z</time></trkpt><trkpt lat="43.4437094" lon="11.9546304"><ele>669.7142857142858</ele><time>2026-03-29T08:12:39.71Z</time></trkpt><trkpt lat="43.44374" lon="11.9545248"><ele>670.5714285714287</ele><time>2026-03-29T08:12:40.715Z</time></trkpt><trkpt lat="43.4437795" lon="11.9544331"><ele>671.4285714285714</ele><time>2026-03-29T08:12:41.711Z</time></trkpt><trkpt lat="43.4438207" lon="11.9543583"><ele>672.2857142857143</ele><time>2026-03-29T08:12:42.716Z</time></trkpt><trkpt lat="43.4438601" lon="11.9542781"><ele>673.1428571428572</ele><time>2026-03-29T08:12:43.708Z</time></trkpt><trkpt lat="43.4438963" lon="11.9541796"><ele>674.0</ele><time>2026-03-29T08:12:44.702Z</time></trkpt><trkpt lat="43.4439172" lon="11.9540793"><ele>676.8333333333333</ele><time>2026-03-29T08:12:45.707Z</time></trkpt><trkpt lat="43.4439318" lon="11.9539917"><ele>679.6666666666666</ele><time>2026-03-29T08:12:46.71Z</time></trkpt><trkpt lat="43.4439701" lon="11.9538911"><ele>682.5</ele><time>2026-03-29T08:12:48.72Z</time></trkpt><trkpt lat="43.4439466" lon="11.9537498"><ele>685.3333333333334</ele><time>2026-03-29T08:13:00.707Z</time></trkpt><trkpt lat="43.4439185" lon="11.9536544"><ele>688.1666666666667</ele><time>2026-03-29T08:13:01.71Z</time></trkpt><trkpt lat="43.4438821" lon="11.9535344"><ele>691.0</ele><time>2026-03-29T08:13:03.707Z</time></trkpt><trkpt lat="43.4438761" lon="11.9534473"><ele>692.8</ele><time>2026-03-29T08:13:05.716Z</time></trkpt><trkpt lat="43.4438586" lon="11.9533282"><ele>694.5999999999999</ele><time>2026-03-29T08:13:07.709Z</time></trkpt><trkpt lat="43.4438158" lon="11.9531978"><ele>696.4</ele><time>2026-03-29T08:13:09.71Z</time></trkpt><trkpt lat="43.443777" lon="11.9531234"><ele>698.2</ele><time>2026-03-29T08:13:10.706Z</time></trkpt><trkpt lat="43.4436996" lon="11.9530181"><ele>700.0</ele><time>2026-03-29T08:13:12.711Z</time></trkpt><trkpt lat="43.4436073" lon="11.9529288"><ele>700.0</ele><time>2026-03-29T08:13:14.709Z</time></trkpt><trkpt lat="43.4435513" lon="11.9528777"><ele>700.0</ele><time>2026-03-29T08:13:15.712Z</time></trkpt><trkpt lat="43.4434908" lon="11.9528196"><ele>700.0</ele><time>2026-03-29T08:13:16.713Z</time></trkpt><trkpt lat="43.4434208" lon="11.9527685"><ele>700.0</ele><time>2026-03-29T08:13:17.716Z</time></trkpt><trkpt lat="43.4433516" lon="11.9527334"><ele>700.0</ele><time>2026-03-29T08:13:18.718Z</time></trkpt><trkpt lat="43.4432771" lon="11.9527217"><ele>700.0</ele><time>2026-03-29T08:13:19.71Z</time></trkpt><trkpt lat="43.4432038" lon="11.9527107"><ele>700.0</ele><time>2026-03-29T08:13:20.703Z</time></trkpt><trkpt lat="43.4431388" lon="11.952692"><ele>700.0</ele><time>2026-03-29T08:13:21.718Z</time></trkpt><trkpt lat="43.4430426" lon="11.9526288"><ele>700.0</ele><time>2026-03-29T08:13:23.719Z</time></trkpt><trkpt lat="43.4429716" lon="11.9525865"><ele>700.0</ele><time>2026-03-29T08:13:24.711Z</time></trkpt><trkpt lat="43.4428973" lon="11.95253"><ele>700.0</ele><time>2026-03-29T08:13:25.718Z</time></trkpt><trkpt lat="43.4428237" lon="11.95248"><ele>700.0</ele><time>2026-03-29T08:13:26.715Z</time></trkpt><trkpt lat="43.4427523" lon="11.9524315"><ele>700.0</ele><time>2026-03-29T08:13:27.71Z</time></trkpt><trkpt lat="43.4426768" lon="11.9523834"><ele>701.8333333333334</ele><time>2026-03-29T08:13:28.713Z</time></trkpt><trkpt lat="43.4426024" lon="11.9523392"><ele>703.6666666666667</ele><time>2026-03-29T08:13:29.714Z</time></trkpt><trkpt lat="43.4425266" lon="11.9522933"><ele>705.5</ele><time>2026-03-29T08:13:30.701Z</time></trkpt><trkpt lat="43.4424521" lon="11.9522441"><ele>707.3333333333334</ele><time>2026-03-29T08:13:31.718Z</time></trkpt><trkpt lat="43.4423681" lon="11.9521931"><ele>709.1666666666666</ele><time>2026-03-29T08:13:32.711Z</time></trkpt><trkpt lat="43.442269" lon="11.9521261"><ele>711.0</ele><time>2026-03-29T08:13:33.721Z</time></trkpt><trkpt lat="43.4421621" lon="11.952048"><ele>708.0</ele><time>2026-03-29T08:13:34.712Z</time></trkpt><trkpt lat="43.4420547" lon="11.9519686"><ele>705.0</ele><time>2026-03-29T08:13:35.711Z</time></trkpt><trkpt lat="43.4419418" lon="11.9518899"><ele>702.0</ele><time>2026-03-29T08:13:36.713Z</time></trkpt><trkpt lat="43.4418308" lon="11.9518186"><ele>699.0</ele><time>2026-03-29T08:13:37.71Z</time></trkpt><trkpt lat="43.4417294" lon="11.9517526"><ele>701.8333333333334</ele><time>2026-03-29T08:13:38.722Z</time></trkpt><trkpt lat="43.4416482" lon="11.9517019"><ele>704.6666666666666</ele><time>2026-03-29T08:13:39.712Z</time></trkpt><trkpt lat="43.4415582" lon="11.95161"><ele>707.5</ele><time>2026-03-29T08:13:41.707Z</time></trkpt><trkpt lat="43.4415172" lon="11.9515423"><ele>710.3333333333333</ele><time>2026-03-29T08:13:43.707Z</time></trkpt><trkpt lat="43.4414481" lon="11.9515314"><ele>713.1666666666666</ele><time>2026-03-29T08:13:45.708Z</time></trkpt><trkpt lat="43.4413934" lon="11.9514536"><ele>716.0</ele><time>2026-03-29T08:13:47.709Z</time></trkpt><trkpt lat="43.4413092" lon="11.9513339"><ele>716.8</ele><time>2026-03-29T08:13:49.715Z</time></trkpt><trkpt lat="43.4412185" lon="11.9512003"><ele>717.5999999999999</ele><time>2026-03-29T08:13:51.714Z</time></trkpt><trkpt lat="43.4411713" lon="11.9510851"><ele>718.4</ele><time>2026-03-29T08:13:52.72Z</time></trkpt><trkpt lat="43.4411253" lon="11.9509643"><ele>719.2</ele><time>2026-03-29T08:13:53.71Z</time></trkpt><trkpt lat="43.4410788" lon="11.9508658"><ele>720.0</ele><time>2026-03-29T08:13:54.715Z</time></trkpt><trkpt lat="43.4410307" lon="11.9507892"><ele>720.0</ele><time>2026-03-29T08:13:55.713Z</time></trkpt><trkpt lat="43.4409743" lon="11.9507166"><ele>720.0</ele><time>2026-03-29T08:13:56.712Z</time></trkpt><trkpt lat="43.4409238" lon="11.9506576"><ele>720.0</ele><time>2026-03-29T08:13:57.704Z</time></trkpt><trkpt lat="43.4408214" lon="11.9505918"><ele>720.0</ele><time>2026-03-29T08:13:59.709Z</time></trkpt><trkpt lat="43.4407013" lon="11.9505581"><ele>720.0</ele><time>2026-03-29T08:14:01.707Z</time></trkpt><trkpt lat="43.440636" lon="11.950545"><ele>720.0</ele><time>2026-03-29T08:14:02.714Z</time></trkpt><trkpt lat="43.4405175" lon="11.950515"><ele>718.4</ele><time>2026-03-29T08:14:04.709Z</time></trkpt><trkpt lat="43.4403987" lon="11.9504706"><ele>716.8</ele><time>2026-03-29T08:14:06.709Z</time></trkpt><trkpt lat="43.4403404" lon="11.9504256"><ele>715.2</ele><time>2026-03-29T08:14:07.714Z</time></trkpt><trkpt lat="43.4402681" lon="11.9503622"><ele>713.6</ele><time>2026-03-29T08:14:09.706Z</time></trkpt><trkpt lat="43.4402064" lon="11.950309"><ele>712.0</ele><time>2026-03-29T08:14:14.712Z</time></trkpt><trkpt lat="43.4400819" lon="11.9502093"><ele>712.0</ele><time>2026-03-29T08:14:16.709Z</time></trkpt><trkpt lat="43.4400116" lon="11.9501442"><ele>712.0</ele><time>2026-03-29T08:14:17.707Z</time></trkpt><trkpt lat="43.439941" lon="11.9500808"><ele>712.0</ele><time>2026-03-29T08:14:18.707Z</time></trkpt><trkpt lat="43.4398582" lon="11.9500123"><ele>712.0</ele><time>2026-03-29T08:14:19.703Z</time></trkpt><trkpt lat="43.4397736" lon="11.9499501"><ele>712.0</ele><time>2026-03-29T08:14:20.709Z</time></trkpt><trkpt lat="43.439713" lon="11.9499093"><ele>712.0</ele><time>2026-03-29T08:14:21.708Z</time></trkpt><trkpt lat="43.4396411" lon="11.9498697"><ele>713.5</ele><time>2026-03-29T08:14:23.71Z</time></trkpt><trkpt lat="43.4395899" lon="11.9498105"><ele>715.0</ele><time>2026-03-29T08:14:41.717Z</time></trkpt><trkpt lat="43.4395231" lon="11.9497778"><ele>716.5</ele><time>2026-03-29T08:14:47.711Z</time></trkpt><trkpt lat="43.439465" lon="11.9497441"><ele>718.0</ele><time>2026-03-29T08:14:49.703Z</time></trkpt><trkpt lat="43.4393594" lon="11.9496578"><ele>719.5</ele><time>2026-03-29T08:14:51.708Z</time></trkpt><trkpt lat="43.4392931" lon="11.9496005"><ele>721.0</ele><time>2026-03-29T08:14:52.709Z</time></trkpt><trkpt lat="43.4392283" lon="11.9495523"><ele>721.0</ele><time>2026-03-29T08:14:53.714Z</time></trkpt><trkpt lat="43.4391557" lon="11.9495073"><ele>721.0</ele><time>2026-03-29T08:14:54.715Z</time></trkpt><trkpt lat="43.4390864" lon="11.9494584"><ele>721.0</ele><time>2026-03-29T08:14:55.717Z</time></trkpt><trkpt lat="43.439025" lon="11.9494154"><ele>721.0</ele><time>2026-03-29T08:14:56.703Z</time></trkpt><trkpt lat="43.4389202" lon="11.9493368"><ele>721.0</ele><time>2026-03-29T08:14:58.713Z</time></trkpt><trkpt lat="43.4388276" lon="11.9492726"><ele>721.0</ele><time>2026-03-29T08:15:00.708Z</time></trkpt><trkpt lat="43.4387462" lon="11.9492195"><ele>720.5</ele><time>2026-03-29T08:15:02.709Z</time></trkpt><trkpt lat="43.4386682" lon="11.9491525"><ele>720.0</ele><time>2026-03-29T08:15:04.708Z</time></trkpt><trkpt lat="43.4386159" lon="11.9491036"><ele>719.5</ele><time>2026-03-29T08:15:05.716Z</time></trkpt><trkpt lat="43.4385609" lon="11.9490497"><ele>719.0</ele><time>2026-03-29T08:15:06.709Z</time></trkpt><trkpt lat="43.4385065" lon="11.9490032"><ele>718.5</ele><time>2026-03-29T08:15:07.71Z</time></trkpt><trkpt lat="43.4384154" lon="11.9489114"><ele>718.0</ele><time>2026-03-29T08:15:09.706Z</time></trkpt><trkpt lat="43.4383306" lon="11.9488131"><ele>718.0</ele><time>2026-03-29T08:15:11.712Z</time></trkpt><trkpt lat="43.4382455" lon="11.9487242"><ele>718.0</ele><time>2026-03-29T08:15:13.711Z</time></trkpt><trkpt lat="43.4381923" lon="11.9486677"><ele>718.0</ele><time>2026-03-29T08:15:14.717Z</time></trkpt><trkpt lat="43.4381093" lon="11.9485543"><ele>718.0</ele><time>2026-03-29T08:15:16.713Z</time></trkpt><trkpt lat="43.4380618" lon="11.9484966"><ele>718.0</ele><time>2026-03-29T08:15:17.707Z</time></trkpt><trkpt lat="43.4379803" lon="11.948389"><ele>715.3333333333334</ele><time>2026-03-29T08:15:19.711Z</time></trkpt><trkpt lat="43.4378977" lon="11.9482991"><ele>712.6666666666667</ele><time>2026-03-29T08:15:21.701Z</time></trkpt><trkpt lat="43.4378259" lon="11.9482519"><ele>710.0</ele><time>2026-03-29T08:15:23.714Z</time></trkpt><trkpt lat="43.4377651" lon="11.9481915"><ele>707.3333333333334</ele><time>2026-03-29T08:15:25.703Z</time></trkpt><trkpt lat="43.4377142" lon="11.9481048"><ele>704.6666666666666</ele><time>2026-03-29T08:15:27.715Z</time></trkpt><trkpt lat="43.4376584" lon="11.9480272"><ele>702.0</ele><time>2026-03-29T08:15:29.722Z</time></trkpt><trkpt lat="43.437589" lon="11.9479768"><ele>702.0</ele><time>2026-03-29T08:15:31.713Z</time></trkpt><trkpt lat="43.4375324" lon="11.9479172"><ele>702.0</ele><time>2026-03-29T08:15:33.708Z</time></trkpt><trkpt lat="43.4374748" lon="11.9478747"><ele>702.0</ele><time>2026-03-29T08:15:35.715Z</time></trkpt><trkpt lat="43.4374017" lon="11.9478566"><ele>702.0</ele><time>2026-03-29T08:15:37.711Z</time></trkpt><trkpt lat="43.4373015" lon="11.947849"><ele>702.0</ele><time>2026-03-29T08:15:39.712Z</time></trkpt><trkpt lat="43.4372151" lon="11.9478312"><ele>702.0</ele><time>2026-03-29T08:15:41.713Z</time></trkpt><trkpt lat="43.4371222" lon="11.9478231"><ele>698.0</ele><time>2026-03-29T08:15:43.71Z</time></trkpt><trkpt lat="43.437001" lon="11.9477524"><ele>694.0</ele><time>2026-03-29T08:15:45.708Z</time></trkpt><trkpt lat="43.4369464" lon="11.9476837"><ele>690.0</ele><time>2026-03-29T08:15:46.713Z</time></trkpt><trkpt lat="43.436899" lon="11.9475717"><ele>686.0</ele><time>2026-03-29T08:15:48.702Z</time></trkpt><trkpt lat="43.436834" lon="11.9474182"><ele>682.0</ele><time>2026-03-29T08:15:50.707Z</time></trkpt><trkpt lat="43.4367806" lon="11.9472696"><ele>682.0</ele><time>2026-03-29T08:15:52.705Z</time></trkpt><trkpt lat="43.4367415" lon="11.9471586"><ele>682.0</ele><time>2026-03-29T08:15:54.708Z</time></trkpt><trkpt lat="43.4367161" lon="11.9470361"><ele>682.0</ele><time>2026-03-29T08:15:56.699Z</time></trkpt><trkpt lat="43.4366503" lon="11.9469012"><ele>682.0</ele><time>2026-03-29T08:15:58.715Z</time></trkpt><trkpt lat="43.4365884" lon="11.9467739"><ele>682.0</ele><time>2026-03-29T08:16:00.716Z</time></trkpt><trkpt lat="43.4365198" lon="11.9466397"><ele>681.1666666666667</ele><time>2026-03-29T08:16:02.712Z</time></trkpt><trkpt lat="43.4364739" lon="11.9465168"><ele>680.3333333333334</ele><time>2026-03-29T08:16:04.708Z</time></trkpt><trkpt lat="43.4364386" lon="11.946432"><ele>679.5</ele><time>2026-03-29T08:16:06.705Z</time></trkpt><trkpt lat="43.4364004" lon="11.9463438"><ele>678.6666666666666</ele><time>2026-03-29T08:16:08.707Z</time></trkpt><trkpt lat="43.4363533" lon="11.946247"><ele>677.8333333333333</ele><time>2026-03-29T08:16:11.707Z</time></trkpt><trkpt lat="43.4363424" lon="11.9461375"><ele>677.0</ele><time>2026-03-29T08:16:14.708Z</time></trkpt><trkpt lat="43.4363244" lon="11.946046"><ele>674.7142857142857</ele><time>2026-03-29T08:16:18.709Z</time></trkpt><trkpt lat="43.4362935" lon="11.9459648"><ele>672.4285714285714</ele><time>2026-03-29T08:16:22.71Z</time></trkpt><trkpt lat="43.4362539" lon="11.9458815"><ele>670.1428571428571</ele><time>2026-03-29T08:17:31.707Z</time></trkpt><trkpt lat="43.436192" lon="11.9458415"><ele>667.8571428571429</ele><time>2026-03-29T08:17:33.707Z</time></trkpt><trkpt lat="43.4361427" lon="11.9457858"><ele>665.5714285714286</ele><time>2026-03-29T08:17:35.703Z</time></trkpt><trkpt lat="43.4360825" lon="11.9457052"><ele>663.2857142857142</ele><time>2026-03-29T08:17:37.644Z</time></trkpt><trkpt lat="43.4360451" lon="11.945616"><ele>661.0</ele><time>2026-03-29T08:17:39.708Z</time></trkpt><trkpt lat="43.4359966" lon="11.9455592"><ele>660.1666666666667</ele><time>2026-03-29T08:17:41.72Z</time></trkpt><trkpt lat="43.4359406" lon="11.9455092"><ele>659.3333333333334</ele><time>2026-03-29T08:17:43.719Z</time></trkpt><trkpt lat="43.4358534" lon="11.9454663"><ele>658.5</ele><time>2026-03-29T08:17:46.669Z</time></trkpt><trkpt lat="43.4357716" lon="11.94544"><ele>657.6666666666666</ele><time>2026-03-29T08:17:48.704Z</time></trkpt><trkpt lat="43.4356984" lon="11.9454111"><ele>656.8333333333333</ele><time>2026-03-29T08:17:50.713Z</time></trkpt><trkpt lat="43.4355898" lon="11.945326"><ele>656.0</ele><time>2026-03-29T08:17:52.71Z</time></trkpt><trkpt lat="43.435537" lon="11.9452546"><ele>656.0</ele><time>2026-03-29T08:17:53.714Z</time></trkpt><trkpt lat="43.4354837" lon="11.9451631"><ele>656.0</ele><time>2026-03-29T08:17:55.702Z</time></trkpt><trkpt lat="43.4354206" lon="11.9451287"><ele>656.0</ele><time>2026-03-29T08:17:58.708Z</time></trkpt><trkpt lat="43.4354295" lon="11.9452152"><ele>656.0</ele><time>2026-03-29T08:18:02.709Z</time></trkpt><trkpt lat="43.4354741" lon="11.9452917"><ele>656.0</ele><time>2026-03-29T08:25:41.711Z</time></trkpt><trkpt lat="43.4355016" lon="11.9454289"><ele>656.0</ele><time>2026-03-29T08:25:43.707Z</time></trkpt><trkpt lat="43.435513" lon="11.9455829"><ele>656.0</ele><time>2026-03-29T08:25:45.711Z</time></trkpt><trkpt lat="43.4355161" lon="11.9457232"><ele>656.0</ele><time>2026-03-29T08:25:47.712Z</time></trkpt><trkpt lat="43.4355238" lon="11.945861"><ele>656.0</ele><time>2026-03-29T08:25:49.72Z</time></trkpt><trkpt lat="43.4355345" lon="11.9460307"><ele>656.0</ele><time>2026-03-29T08:25:51.706Z</time></trkpt><trkpt lat="43.4355316" lon="11.9461259"><ele>656.0</ele><time>2026-03-29T08:25:52.711Z</time></trkpt><trkpt lat="43.4355336" lon="11.9462188"><ele>656.8333333333333</ele><time>2026-03-29T08:25:53.71Z</time></trkpt><trkpt lat="43.4355136" lon="11.946387"><ele>657.6666666666666</ele><time>2026-03-29T08:25:55.712Z</time></trkpt><trkpt lat="43.4355086" lon="11.9464857"><ele>658.5</ele><time>2026-03-29T08:25:56.715Z</time></trkpt><trkpt lat="43.4355038" lon="11.946581"><ele>659.3333333333334</ele><time>2026-03-29T08:25:57.722Z</time></trkpt><trkpt lat="43.4354951" lon="11.9466719"><ele>660.1666666666667</ele><time>2026-03-29T08:25:58.711Z</time></trkpt><trkpt lat="43.4354796" lon="11.9467721"><ele>661.0</ele><time>2026-03-29T08:25:59.71Z</time></trkpt><trkpt lat="43.435452" lon="11.946873"><ele>658.7142857142857</ele><time>2026-03-29T08:26:00.721Z</time></trkpt><trkpt lat="43.4354209" lon="11.9469646"><ele>656.4285714285714</ele><time>2026-03-29T08:26:01.714Z</time></trkpt><trkpt lat="43.4353993" lon="11.9470525"><ele>654.1428571428571</ele><time>2026-03-29T08:26:02.721Z</time></trkpt><trkpt lat="43.4353894" lon="11.9471517"><ele>651.8571428571429</ele><time>2026-03-29T08:26:03.705Z</time></trkpt><trkpt lat="43.4353799" lon="11.947241"><ele>649.5714285714286</ele><time>2026-03-29T08:26:04.715Z</time></trkpt><trkpt lat="43.4353733" lon="11.9473291"><ele>647.2857142857143</ele><time>2026-03-29T08:26:05.715Z</time></trkpt><trkpt lat="43.4353725" lon="11.9474288"><ele>645.0</ele><time>2026-03-29T08:26:06.7Z</time></trkpt><trkpt lat="43.4353712" lon="11.9475335"><ele>645.2857142857143</ele><time>2026-03-29T08:26:07.705Z</time></trkpt><trkpt lat="43.4353739" lon="11.9476326"><ele>645.5714285714286</ele><time>2026-03-29T08:26:08.713Z</time></trkpt><trkpt lat="43.4353781" lon="11.9477278"><ele>645.8571428571429</ele><time>2026-03-29T08:26:09.709Z</time></trkpt><trkpt lat="43.435381" lon="11.9478283"><ele>646.1428571428571</ele><time>2026-03-29T08:26:10.711Z</time></trkpt><trkpt lat="43.4353994" lon="11.9479246"><ele>646.4285714285714</ele><time>2026-03-29T08:26:11.707Z</time></trkpt><trkpt lat="43.4354143" lon="11.948017"><ele>646.7142857142857</ele><time>2026-03-29T08:26:12.708Z</time></trkpt><trkpt lat="43.4354307" lon="11.9481079"><ele>647.0</ele><time>2026-03-29T08:26:13.712Z</time></trkpt><trkpt lat="43.4354367" lon="11.9482707"><ele>647.0</ele><time>2026-03-29T08:26:15.727Z</time></trkpt><trkpt lat="43.4354388" lon="11.9483653"><ele>647.0</ele><time>2026-03-29T08:26:16.711Z</time></trkpt><trkpt lat="43.4354373" lon="11.9484528"><ele>647.0</ele><time>2026-03-29T08:26:17.72Z</time></trkpt><trkpt lat="43.4354417" lon="11.9486098"><ele>647.0</ele><time>2026-03-29T08:26:19.712Z</time></trkpt><trkpt lat="43.4354527" lon="11.9487084"><ele>647.0</ele><time>2026-03-29T08:26:20.718Z</time></trkpt><trkpt lat="43.4354608" lon="11.948825"><ele>647.0</ele><time>2026-03-29T08:26:21.704Z</time></trkpt><trkpt lat="43.4354733" lon="11.9489299"><ele>647.1428571428571</ele><time>2026-03-29T08:26:22.713Z</time></trkpt><trkpt lat="43.435484" lon="11.949026"><ele>647.2857142857143</ele><time>2026-03-29T08:26:23.709Z</time></trkpt><trkpt lat="43.4354943" lon="11.9491216"><ele>647.4285714285714</ele><time>2026-03-29T08:26:24.705Z</time></trkpt><trkpt lat="43.4354957" lon="11.9492102"><ele>647.5714285714286</ele><time>2026-03-29T08:26:25.709Z</time></trkpt><trkpt lat="43.4354921" lon="11.9493047"><ele>647.7142857142857</ele><time>2026-03-29T08:26:26.71Z</time></trkpt><trkpt lat="43.4354879" lon="11.9494157"><ele>647.8571428571429</ele><time>2026-03-29T08:26:27.709Z</time></trkpt><trkpt lat="43.4354804" lon="11.9495453"><ele>648.0</ele><time>2026-03-29T08:26:28.723Z</time></trkpt><trkpt lat="43.4354682" lon="11.9496648"><ele>648.0</ele><time>2026-03-29T08:26:29.71Z</time></trkpt><trkpt lat="43.4354527" lon="11.9497721"><ele>648.0</ele><time>2026-03-29T08:26:30.706Z</time></trkpt><trkpt lat="43.4354308" lon="11.9498805"><ele>648.0</ele><time>2026-03-29T08:26:31.707Z</time></trkpt><trkpt lat="43.4354024" lon="11.949991"><ele>648.0</ele><time>2026-03-29T08:26:32.715Z</time></trkpt><trkpt lat="43.4353644" lon="11.9501043"><ele>648.0</ele><time>2026-03-29T08:26:33.705Z</time></trkpt><trkpt lat="43.4353281" lon="11.9502066"><ele>648.0</ele><time>2026-03-29T08:26:34.713Z</time></trkpt><trkpt lat="43.4353088" lon="11.9502993"><ele>648.8333333333334</ele><time>2026-03-29T08:26:35.708Z</time></trkpt><trkpt lat="43.4352903" lon="11.9504079"><ele>649.6666666666666</ele><time>2026-03-29T08:26:36.708Z</time></trkpt><trkpt lat="43.4352681" lon="11.950496"><ele>650.5</ele><time>2026-03-29T08:26:37.708Z</time></trkpt><trkpt lat="43.435211" lon="11.9506242"><ele>651.3333333333333</ele><time>2026-03-29T08:26:39.708Z</time></trkpt><trkpt lat="43.4351577" lon="11.9507333"><ele>652.1666666666666</ele><time>2026-03-29T08:26:41.708Z</time></trkpt><trkpt lat="43.4350913" lon="11.9507808"><ele>653.0</ele><time>2026-03-29T08:26:42.709Z</time></trkpt><trkpt lat="43.4350044" lon="11.9508378"><ele>655.0</ele><time>2026-03-29T08:26:44.714Z</time></trkpt><trkpt lat="43.4349244" lon="11.950965"><ele>657.0</ele><time>2026-03-29T08:26:46.707Z</time></trkpt><trkpt lat="43.4348603" lon="11.9510987"><ele>659.0</ele><time>2026-03-29T08:26:48.72Z</time></trkpt><trkpt lat="43.4348217" lon="11.9512501"><ele>661.0</ele><time>2026-03-29T08:26:50.707Z</time></trkpt><trkpt lat="43.4348142" lon="11.9514188"><ele>661.0</ele><time>2026-03-29T08:26:52.714Z</time></trkpt><trkpt lat="43.4348053" lon="11.9515614"><ele>661.0</ele><time>2026-03-29T08:26:54.7Z</time></trkpt><trkpt lat="43.4347929" lon="11.9517084"><ele>661.0</ele><time>2026-03-29T08:26:57.711Z</time></trkpt><trkpt lat="43.4347885" lon="11.9518126"><ele>661.0</ele><time>2026-03-29T08:26:58.708Z</time></trkpt><trkpt lat="43.4347802" lon="11.9519276"><ele>661.0</ele><time>2026-03-29T08:26:59.715Z</time></trkpt><trkpt lat="43.4347806" lon="11.9520581"><ele>661.8</ele><time>2026-03-29T08:27:00.719Z</time></trkpt><trkpt lat="43.4347712" lon="11.9521776"><ele>662.5999999999999</ele><time>2026-03-29T08:27:01.714Z</time></trkpt><trkpt lat="43.4347615" lon="11.9522975"><ele>663.4</ele><time>2026-03-29T08:27:02.71Z</time></trkpt><trkpt lat="43.434759" lon="11.95241"><ele>664.2</ele><time>2026-03-29T08:27:03.71Z</time></trkpt><trkpt lat="43.4347511" lon="11.9525651"><ele>665.0</ele><time>2026-03-29T08:27:05.717Z</time></trkpt><trkpt lat="43.4346968" lon="11.9526635"><ele>663.8333333333333</ele><time>2026-03-29T08:27:07.707Z</time></trkpt><trkpt lat="43.4345899" lon="11.9527583"><ele>662.6666666666666</ele><time>2026-03-29T08:27:09.709Z</time></trkpt><trkpt lat="43.4345228" lon="11.9528114"><ele>661.5</ele><time>2026-03-29T08:27:10.722Z</time></trkpt><trkpt lat="43.4344564" lon="11.9528699"><ele>660.3333333333334</ele><time>2026-03-29T08:27:11.714Z</time></trkpt><trkpt lat="43.4343886" lon="11.952926"><ele>659.1666666666667</ele><time>2026-03-29T08:27:12.711Z</time></trkpt><trkpt lat="43.43433" lon="11.9529849"><ele>658.0</ele><time>2026-03-29T08:27:13.722Z</time></trkpt><trkpt lat="43.4342373" lon="11.9530957"><ele>658.0</ele><time>2026-03-29T08:27:15.717Z</time></trkpt><trkpt lat="43.4341539" lon="11.9532166"><ele>658.0</ele><time>2026-03-29T08:27:17.714Z</time></trkpt><trkpt lat="43.434105" lon="11.9532736"><ele>658.0</ele><time>2026-03-29T08:27:18.716Z</time></trkpt><trkpt lat="43.4340214" lon="11.9533712"><ele>658.0</ele><time>2026-03-29T08:27:20.718Z</time></trkpt><trkpt lat="43.4339148" lon="11.9534495"><ele>658.0</ele><time>2026-03-29T08:27:22.712Z</time></trkpt><trkpt lat="43.4338146" lon="11.953573"><ele>656.0</ele><time>2026-03-29T08:27:24.713Z</time></trkpt><trkpt lat="43.4337668" lon="11.9536728"><ele>654.0</ele><time>2026-03-29T08:27:25.717Z</time></trkpt><trkpt lat="43.4337403" lon="11.9538015"><ele>652.0</ele><time>2026-03-29T08:27:26.707Z</time></trkpt><trkpt lat="43.4337293" lon="11.9539149"><ele>650.0</ele><time>2026-03-29T08:27:27.715Z</time></trkpt><trkpt lat="43.4337181" lon="11.9540259"><ele>648.0</ele><time>2026-03-29T08:27:28.71Z</time></trkpt><trkpt lat="43.4337106" lon="11.9541338"><ele>646.0</ele><time>2026-03-29T08:27:29.714Z</time></trkpt><trkpt lat="43.433707" lon="11.9542376"><ele>645.1666666666667</ele><time>2026-03-29T08:27:30.71Z</time></trkpt><trkpt lat="43.4337157" lon="11.9543437"><ele>644.3333333333334</ele><time>2026-03-29T08:27:31.719Z</time></trkpt><trkpt lat="43.43373" lon="11.954467"><ele>643.5</ele><time>2026-03-29T08:27:32.708Z</time></trkpt><trkpt lat="43.4337518" lon="11.954592"><ele>642.6666666666666</ele><time>2026-03-29T08:27:33.721Z</time></trkpt><trkpt lat="43.4337815" lon="11.9547234"><ele>641.8333333333333</ele><time>2026-03-29T08:27:34.716Z</time></trkpt><trkpt lat="43.4338074" lon="11.9548263"><ele>641.0</ele><time>2026-03-29T08:27:35.71Z</time></trkpt><trkpt lat="43.4338269" lon="11.9549264"><ele>642.8571428571429</ele><time>2026-03-29T08:27:36.714Z</time></trkpt><trkpt lat="43.4338272" lon="11.9550305"><ele>644.7142857142857</ele><time>2026-03-29T08:27:37.718Z</time></trkpt><trkpt lat="43.433835" lon="11.9551185"><ele>646.5714285714286</ele><time>2026-03-29T08:27:38.709Z</time></trkpt><trkpt lat="43.433837" lon="11.955214"><ele>648.4285714285714</ele><time>2026-03-29T08:27:39.723Z</time></trkpt><trkpt lat="43.433834" lon="11.9553091"><ele>650.2857142857143</ele><time>2026-03-29T08:27:40.703Z</time></trkpt><trkpt lat="43.4338278" lon="11.9554217"><ele>652.1428571428571</ele><time>2026-03-29T08:27:41.713Z</time></trkpt><trkpt lat="43.4338294" lon="11.9555348"><ele>654.0</ele><time>2026-03-29T08:27:42.716Z</time></trkpt><trkpt lat="43.4338378" lon="11.9556407"><ele>654.0</ele><time>2026-03-29T08:27:43.713Z</time></trkpt><trkpt lat="43.4338385" lon="11.9557361"><ele>654.0</ele><time>2026-03-29T08:27:44.717Z</time></trkpt><trkpt lat="43.4338332" lon="11.9558339"><ele>654.0</ele><time>2026-03-29T08:27:45.708Z</time></trkpt><trkpt lat="43.4338205" lon="11.9559503"><ele>654.0</ele><time>2026-03-29T08:27:46.713Z</time></trkpt><trkpt lat="43.4338098" lon="11.9560661"><ele>654.0</ele><time>2026-03-29T08:27:47.71Z</time></trkpt><trkpt lat="43.4337976" lon="11.9561616"><ele>654.0</ele><time>2026-03-29T08:27:48.709Z</time></trkpt><trkpt lat="43.4337854" lon="11.9562578"><ele>650.2857142857142</ele><time>2026-03-29T08:27:49.724Z</time></trkpt><trkpt lat="43.4337831" lon="11.9563488"><ele>646.5714285714286</ele><time>2026-03-29T08:27:50.707Z</time></trkpt><trkpt lat="43.4337853" lon="11.9564423"><ele>642.8571428571429</ele><time>2026-03-29T08:27:51.709Z</time></trkpt><trkpt lat="43.4337921" lon="11.9565447"><ele>639.1428571428571</ele><time>2026-03-29T08:27:52.712Z</time></trkpt><trkpt lat="43.4338041" lon="11.9566445"><ele>635.4285714285714</ele><time>2026-03-29T08:27:53.713Z</time></trkpt><trkpt lat="43.4338293" lon="11.9567355"><ele>631.7142857142857</ele><time>2026-03-29T08:27:54.712Z</time></trkpt><trkpt lat="43.4338597" lon="11.956833"><ele>628.0</ele><time>2026-03-29T08:27:55.716Z</time></trkpt><trkpt lat="43.4338986" lon="11.9569286"><ele>628.0</ele><time>2026-03-29T08:27:56.709Z</time></trkpt><trkpt lat="43.4339359" lon="11.9570107"><ele>628.0</ele><time>2026-03-29T08:27:57.719Z</time></trkpt><trkpt lat="43.4339711" lon="11.9570829"><ele>628.0</ele><time>2026-03-29T08:27:58.709Z</time></trkpt><trkpt lat="43.4340378" lon="11.9572203"><ele>628.0</ele><time>2026-03-29T08:28:00.713Z</time></trkpt><trkpt lat="43.4340816" lon="11.9572884"><ele>628.0</ele><time>2026-03-29T08:28:01.712Z</time></trkpt><trkpt lat="43.4341395" lon="11.9573605"><ele>628.0</ele><time>2026-03-29T08:28:02.707Z</time></trkpt><trkpt lat="43.4342053" lon="11.9574375"><ele>628.0</ele><time>2026-03-29T08:28:03.719Z</time></trkpt><trkpt lat="43.434248" lon="11.9575022"><ele>628.0</ele><time>2026-03-29T08:28:04.71Z</time></trkpt><trkpt lat="43.4343225" lon="11.957618"><ele>628.0</ele><time>2026-03-29T08:28:06.714Z</time></trkpt><trkpt lat="43.4344104" lon="11.9577275"><ele>628.0</ele><time>2026-03-29T08:28:08.716Z</time></trkpt><trkpt lat="43.4344892" lon="11.9578246"><ele>628.0</ele><time>2026-03-29T08:28:10.724Z</time></trkpt><trkpt lat="43.4345684" lon="11.9579087"><ele>625.0</ele><time>2026-03-29T08:28:12.705Z</time></trkpt><trkpt lat="43.4346823" lon="11.9579594"><ele>622.0</ele><time>2026-03-29T08:28:14.709Z</time></trkpt><trkpt lat="43.4347474" lon="11.957988"><ele>619.0</ele><time>2026-03-29T08:28:15.711Z</time></trkpt><trkpt lat="43.4348539" lon="11.9580203"><ele>616.0</ele><time>2026-03-29T08:28:17.711Z</time></trkpt><trkpt lat="43.4349554" lon="11.9580702"><ele>613.0</ele><time>2026-03-29T08:28:19.714Z</time></trkpt><trkpt lat="43.4350201" lon="11.9580988"><ele>613.0</ele><time>2026-03-29T08:28:20.712Z</time></trkpt><trkpt lat="43.4351326" lon="11.958186"><ele>613.0</ele><time>2026-03-29T08:28:22.707Z</time></trkpt><trkpt lat="43.4351856" lon="11.9582544"><ele>613.0</ele><time>2026-03-29T08:28:23.708Z</time></trkpt><trkpt lat="43.4352344" lon="11.9583277"><ele>613.0</ele><time>2026-03-29T08:28:24.708Z</time></trkpt><trkpt lat="43.4353278" lon="11.958414"><ele>613.0</ele><time>2026-03-29T08:28:26.708Z</time></trkpt><trkpt lat="43.4354127" lon="11.9584595"><ele>609.3333333333334</ele><time>2026-03-29T08:28:28.708Z</time></trkpt><trkpt lat="43.4354768" lon="11.958395"><ele>605.6666666666667</ele><time>2026-03-29T08:28:31.711Z</time></trkpt><trkpt lat="43.4355487" lon="11.9584095"><ele>602.0</ele><time>2026-03-29T08:28:34.709Z</time></trkpt><trkpt lat="43.4355686" lon="11.9585488"><ele>598.3333333333334</ele><time>2026-03-29T08:28:37.708Z</time></trkpt><trkpt lat="43.4355702" lon="11.9586833"><ele>594.6666666666666</ele><time>2026-03-29T08:28:39.713Z</time></trkpt><trkpt lat="43.4355836" lon="11.9588035"><ele>591.0</ele><time>2026-03-29T08:28:41.717Z</time></trkpt><trkpt lat="43.4356085" lon="11.9589648"><ele>591.0</ele><time>2026-03-29T08:28:43.711Z</time></trkpt><trkpt lat="43.4356361" lon="11.9590953"><ele>591.0</ele><time>2026-03-29T08:28:45.706Z</time></trkpt><trkpt lat="43.4356457" lon="11.9591994"><ele>591.0</ele><time>2026-03-29T08:28:47.711Z</time></trkpt><trkpt lat="43.4355918" lon="11.9592501"><ele>591.0</ele><time>2026-03-29T08:28:49.71Z</time></trkpt><trkpt lat="43.4355239" lon="11.9592928"><ele>591.0</ele><time>2026-03-29T08:28:51.709Z</time></trkpt><trkpt lat="43.4354461" lon="11.9592866"><ele>591.0</ele><time>2026-03-29T08:28:53.717Z</time></trkpt><trkpt lat="43.4353485" lon="11.9592566"><ele>588.1666666666666</ele><time>2026-03-29T08:28:55.722Z</time></trkpt><trkpt lat="43.4352178" lon="11.9592431"><ele>585.3333333333334</ele><time>2026-03-29T08:28:57.713Z</time></trkpt><trkpt lat="43.4351524" lon="11.9592351"><ele>582.5</ele><time>2026-03-29T08:28:58.705Z</time></trkpt><trkpt lat="43.4350763" lon="11.9592284"><ele>579.6666666666667</ele><time>2026-03-29T08:28:59.708Z</time></trkpt><trkpt lat="43.4349951" lon="11.9592404"><ele>576.8333333333334</ele><time>2026-03-29T08:29:00.707Z</time></trkpt><trkpt lat="43.4349131" lon="11.9592588"><ele>574.0</ele><time>2026-03-29T08:29:01.713Z</time></trkpt><trkpt lat="43.4348286" lon="11.9592792"><ele>574.0</ele><time>2026-03-29T08:29:02.708Z</time></trkpt><trkpt lat="43.4347471" lon="11.9593051"><ele>574.0</ele><time>2026-03-29T08:29:03.713Z</time></trkpt><trkpt lat="43.4346764" lon="11.9593207"><ele>574.0</ele><time>2026-03-29T08:29:04.708Z</time></trkpt><trkpt lat="43.4345724" lon="11.9593288"><ele>574.0</ele><time>2026-03-29T08:29:06.717Z</time></trkpt><trkpt lat="43.4344608" lon="11.9593627"><ele>574.0</ele><time>2026-03-29T08:29:08.707Z</time></trkpt><trkpt lat="43.4343941" lon="11.9594797"><ele>573.6666666666667</ele><time>2026-03-29T08:29:10.711Z</time></trkpt><trkpt lat="43.4343413" lon="11.9596043"><ele>573.3333333333334</ele><time>2026-03-29T08:29:12.704Z</time></trkpt><trkpt lat="43.434319" lon="11.9597371"><ele>573.0</ele><time>2026-03-29T08:29:13.704Z</time></trkpt><trkpt lat="43.4343008" lon="11.9598475"><ele>572.6666666666666</ele><time>2026-03-29T08:29:14.708Z</time></trkpt><trkpt lat="43.4342771" lon="11.959939"><ele>572.3333333333333</ele><time>2026-03-29T08:29:15.715Z</time></trkpt><trkpt lat="43.4342348" lon="11.9600189"><ele>572.0</ele><time>2026-03-29T08:29:16.705Z</time></trkpt><trkpt lat="43.4342034" lon="11.9601114"><ele>572.0</ele><time>2026-03-29T08:29:17.715Z</time></trkpt><trkpt lat="43.434168" lon="11.9602105"><ele>572.0</ele><time>2026-03-29T08:29:18.717Z</time></trkpt><trkpt lat="43.4341304" lon="11.9602888"><ele>572.0</ele><time>2026-03-29T08:29:19.708Z</time></trkpt><trkpt lat="43.4340766" lon="11.9604158"><ele>572.0</ele><time>2026-03-29T08:29:21.711Z</time></trkpt><trkpt lat="43.4340226" lon="11.9605554"><ele>572.0</ele><time>2026-03-29T08:29:23.718Z</time></trkpt><trkpt lat="43.4339942" lon="11.960653"><ele>572.0</ele><time>2026-03-29T08:29:24.705Z</time></trkpt><trkpt lat="43.4339672" lon="11.9607526"><ele>573.0</ele><time>2026-03-29T08:29:25.709Z</time></trkpt><trkpt lat="43.4339178" lon="11.9608764"><ele>574.0</ele><time>2026-03-29T08:29:26.711Z</time></trkpt><trkpt lat="43.4338459" lon="11.9609822"><ele>575.0</ele><time>2026-03-29T08:29:27.71Z</time></trkpt><trkpt lat="43.4337803" lon="11.9610774"><ele>576.0</ele><time>2026-03-29T08:29:28.715Z</time></trkpt><trkpt lat="43.4337121" lon="11.9611348"><ele>577.0</ele><time>2026-03-29T08:29:29.71Z</time></trkpt><trkpt lat="43.4336544" lon="11.9611874"><ele>577.0</ele><time>2026-03-29T08:29:30.71Z</time></trkpt><trkpt lat="43.4335886" lon="11.9612337"><ele>577.0</ele><time>2026-03-29T08:29:31.712Z</time></trkpt><trkpt lat="43.4335357" lon="11.9612922"><ele>577.0</ele><time>2026-03-29T08:29:32.71Z</time></trkpt><trkpt lat="43.433472" lon="11.9614295"><ele>577.0</ele><time>2026-03-29T08:29:34.708Z</time></trkpt><trkpt lat="43.4334776" lon="11.9615726"><ele>577.0</ele><time>2026-03-29T08:29:36.707Z</time></trkpt><trkpt lat="43.4335002" lon="11.9616957"><ele>574.8571428571429</ele><time>2026-03-29T08:29:38.712Z</time></trkpt><trkpt lat="43.4334879" lon="11.961796"><ele>572.7142857142858</ele><time>2026-03-29T08:29:39.71Z</time></trkpt><trkpt lat="43.4334835" lon="11.9618967"><ele>570.5714285714287</ele><time>2026-03-29T08:29:40.704Z</time></trkpt><trkpt lat="43.4334875" lon="11.9619837"><ele>568.4285714285714</ele><time>2026-03-29T08:29:41.711Z</time></trkpt><trkpt lat="43.4334762" lon="11.962069"><ele>566.2857142857143</ele><time>2026-03-29T08:29:42.708Z</time></trkpt><trkpt lat="43.4334441" lon="11.9621586"><ele>564.1428571428572</ele><time>2026-03-29T08:29:43.714Z</time></trkpt><trkpt lat="43.4333816" lon="11.9622284"><ele>562.0</ele><time>2026-03-29T08:29:44.718Z</time></trkpt><trkpt lat="43.4333224" lon="11.9622942"><ele>562.0</ele><time>2026-03-29T08:29:45.707Z</time></trkpt><trkpt lat="43.4332437" lon="11.9623935"><ele>562.0</ele><time>2026-03-29T08:29:47.719Z</time></trkpt><trkpt lat="43.433182" lon="11.9625064"><ele>562.0</ele><time>2026-03-29T08:29:49.729Z</time></trkpt><trkpt lat="43.4331166" lon="11.9626515"><ele>562.0</ele><time>2026-03-29T08:29:51.71Z</time></trkpt><trkpt lat="43.4330514" lon="11.9627997"><ele>559.2</ele><time>2026-03-29T08:29:53.711Z</time></trkpt><trkpt lat="43.4329966" lon="11.9629182"><ele>556.4000000000001</ele><time>2026-03-29T08:29:55.712Z</time></trkpt><trkpt lat="43.4329532" lon="11.963041"><ele>553.5999999999999</ele><time>2026-03-29T08:29:57.713Z</time></trkpt><trkpt lat="43.4329126" lon="11.9631361"><ele>550.8</ele><time>2026-03-29T08:29:59.711Z</time></trkpt><trkpt lat="43.4328981" lon="11.9632659"><ele>548.0</ele><time>2026-03-29T08:30:01.713Z</time></trkpt><trkpt lat="43.4328952" lon="11.9633829"><ele>546.0</ele><time>2026-03-29T08:30:03.712Z</time></trkpt><trkpt lat="43.4328885" lon="11.9634844"><ele>544.0</ele><time>2026-03-29T08:30:05.711Z</time></trkpt><trkpt lat="43.4328478" lon="11.9635792"><ele>542.0</ele><time>2026-03-29T08:30:07.709Z</time></trkpt><trkpt lat="43.4327821" lon="11.9636445"><ele>540.0</ele><time>2026-03-29T08:30:09.721Z</time></trkpt><trkpt lat="43.4327129" lon="11.9637826"><ele>538.0</ele><time>2026-03-29T08:30:11.707Z</time></trkpt><trkpt lat="43.4326868" lon="11.9638645"><ele>536.0</ele><time>2026-03-29T08:30:12.71Z</time></trkpt><trkpt lat="43.4326642" lon="11.9639571"><ele>536.0</ele><time>2026-03-29T08:30:13.706Z</time></trkpt><trkpt lat="43.4326465" lon="11.9640639"><ele>536.0</ele><time>2026-03-29T08:30:14.711Z</time></trkpt><trkpt lat="43.4326305" lon="11.9641573"><ele>536.0</ele><time>2026-03-29T08:30:15.706Z</time></trkpt><trkpt lat="43.4326348" lon="11.9642438"><ele>536.0</ele><time>2026-03-29T08:30:16.707Z</time></trkpt><trkpt lat="43.4326487" lon="11.964335"><ele>536.0</ele><time>2026-03-29T08:30:17.705Z</time></trkpt><trkpt lat="43.4326805" lon="11.9644872"><ele>536.0</ele><time>2026-03-29T08:30:19.715Z</time></trkpt><trkpt lat="43.4327144" lon="11.9645786"><ele>536.5</ele><time>2026-03-29T08:30:21.723Z</time></trkpt><trkpt lat="43.4327732" lon="11.9646169"><ele>537.0</ele><time>2026-03-29T08:30:22.71Z</time></trkpt><trkpt lat="43.432855" lon="11.9647347"><ele>537.5</ele><time>2026-03-29T08:30:24.71Z</time></trkpt><trkpt lat="43.4328852" lon="11.9649048"><ele>538.0</ele><time>2026-03-29T08:30:26.71Z</time></trkpt><trkpt lat="43.4328969" lon="11.9650002"><ele>538.5</ele><time>2026-03-29T08:30:27.721Z</time></trkpt><trkpt lat="43.4329171" lon="11.9650828"><ele>539.0</ele><time>2026-03-29T08:30:28.705Z</time></trkpt><trkpt lat="43.4329576" lon="11.9651623"><ele>539.2</ele><time>2026-03-29T08:30:29.704Z</time></trkpt><trkpt lat="43.4330184" lon="11.9651886"><ele>539.4</ele><time>2026-03-29T08:30:30.709Z</time></trkpt><trkpt lat="43.4331369" lon="11.965226"><ele>539.6</ele><time>2026-03-29T08:30:32.723Z</time></trkpt><trkpt lat="43.4332337" lon="11.9653476"><ele>539.8</ele><time>2026-03-29T08:30:34.71Z</time></trkpt><trkpt lat="43.4333095" lon="11.9654388"><ele>540.0</ele><time>2026-03-29T08:30:36.71Z</time></trkpt><trkpt lat="43.4333511" lon="11.9655593"><ele>540.0</ele><time>2026-03-29T08:30:38.708Z</time></trkpt><trkpt lat="43.4333334" lon="11.9656952"><ele>540.0</ele><time>2026-03-29T08:30:40.707Z</time></trkpt><trkpt lat="43.4332968" lon="11.9658365"><ele>540.0</ele><time>2026-03-29T08:30:42.702Z</time></trkpt><trkpt lat="43.4332945" lon="11.9659807"><ele>540.0</ele><time>2026-03-29T08:30:44.706Z</time></trkpt><trkpt lat="43.4333661" lon="11.966131"><ele>540.0</ele><time>2026-03-29T08:30:46.708Z</time></trkpt><trkpt lat="43.4334476" lon="11.9662351"><ele>541.8333333333334</ele><time>2026-03-29T08:30:48.712Z</time></trkpt><trkpt lat="43.4335258" lon="11.9662812"><ele>543.6666666666666</ele><time>2026-03-29T08:30:50.703Z</time></trkpt><trkpt lat="43.4335933" lon="11.9663879"><ele>545.5</ele><time>2026-03-29T08:30:52.707Z</time></trkpt><trkpt lat="43.4336497" lon="11.9664573"><ele>547.3333333333333</ele><time>2026-03-29T08:30:53.711Z</time></trkpt><trkpt lat="43.4337047" lon="11.9665272"><ele>549.1666666666666</ele><time>2026-03-29T08:30:54.71Z</time></trkpt><trkpt lat="43.4337641" lon="11.9666067"><ele>551.0</ele><time>2026-03-29T08:30:55.714Z</time></trkpt><trkpt lat="43.4338101" lon="11.9666902"><ele>547.1428571428571</ele><time>2026-03-29T08:30:56.706Z</time></trkpt><trkpt lat="43.4338397" lon="11.9667698"><ele>543.2857142857142</ele><time>2026-03-29T08:30:57.71Z</time></trkpt><trkpt lat="43.4338528" lon="11.9668571"><ele>539.4285714285714</ele><time>2026-03-29T08:30:58.719Z</time></trkpt><trkpt lat="43.4338512" lon="11.9669567"><ele>535.5714285714286</ele><time>2026-03-29T08:30:59.707Z</time></trkpt><trkpt lat="43.4338556" lon="11.967071"><ele>531.7142857142858</ele><time>2026-03-29T08:31:00.708Z</time></trkpt><trkpt lat="43.4338645" lon="11.9671731"><ele>527.8571428571429</ele><time>2026-03-29T08:31:01.715Z</time></trkpt><trkpt lat="43.4338827" lon="11.9672598"><ele>524.0</ele><time>2026-03-29T08:31:02.708Z</time></trkpt><trkpt lat="43.4338994" lon="11.9673446"><ele>524.0</ele><time>2026-03-29T08:31:03.716Z</time></trkpt><trkpt lat="43.4339182" lon="11.9674791"><ele>524.0</ele><time>2026-03-29T08:31:05.713Z</time></trkpt><trkpt lat="43.4339097" lon="11.967685"><ele>524.0</ele><time>2026-03-29T08:31:07.713Z</time></trkpt><trkpt lat="43.4339005" lon="11.9678083"><ele>524.0</ele><time>2026-03-29T08:31:08.715Z</time></trkpt><trkpt lat="43.4339033" lon="11.9679408"><ele>524.0</ele><time>2026-03-29T08:31:09.709Z</time></trkpt><trkpt lat="43.4339101" lon="11.9680617"><ele>524.0</ele><time>2026-03-29T08:31:10.711Z</time></trkpt><trkpt lat="43.4339186" lon="11.9681846"><ele>524.0</ele><time>2026-03-29T08:31:11.709Z</time></trkpt><trkpt lat="43.4339023" lon="11.9682962"><ele>524.0</ele><time>2026-03-29T08:31:12.721Z</time></trkpt><trkpt lat="43.4339001" lon="11.9683842"><ele>524.0</ele><time>2026-03-29T08:31:13.707Z</time></trkpt><trkpt lat="43.433904" lon="11.9684901"><ele>524.0</ele><time>2026-03-29T08:31:15.712Z</time></trkpt><trkpt lat="43.4338489" lon="11.9685677"><ele>524.0</ele><time>2026-03-29T08:31:17.704Z</time></trkpt><trkpt lat="43.4337679" lon="11.9685682"><ele>523.0</ele><time>2026-03-29T08:31:18.708Z</time></trkpt><trkpt lat="43.4336924" lon="11.9685808"><ele>522.0</ele><time>2026-03-29T08:31:19.71Z</time></trkpt><trkpt lat="43.4336142" lon="11.9686025"><ele>521.0</ele><time>2026-03-29T08:31:20.715Z</time></trkpt><trkpt lat="43.4335276" lon="11.9686408"><ele>520.0</ele><time>2026-03-29T08:31:21.708Z</time></trkpt><trkpt lat="43.4334249" lon="11.9686543"><ele>519.0</ele><time>2026-03-29T08:31:22.715Z</time></trkpt><trkpt lat="43.4332956" lon="11.9686635"><ele>519.0</ele><time>2026-03-29T08:31:23.703Z</time></trkpt><trkpt lat="43.4331625" lon="11.9686611"><ele>519.0</ele><time>2026-03-29T08:31:24.709Z</time></trkpt><trkpt lat="43.4330408" lon="11.9686536"><ele>519.0</ele><time>2026-03-29T08:31:25.709Z</time></trkpt><trkpt lat="43.432932" lon="11.9686349"><ele>519.0</ele><time>2026-03-29T08:31:26.722Z</time></trkpt><trkpt lat="43.4328213" lon="11.9686183"><ele>518.4</ele><time>2026-03-29T08:31:27.713Z</time></trkpt><trkpt lat="43.4327136" lon="11.968611"><ele>517.8</ele><time>2026-03-29T08:31:28.708Z</time></trkpt><trkpt lat="43.432633" lon="11.9686144"><ele>517.2</ele><time>2026-03-29T08:31:29.705Z</time></trkpt><trkpt lat="43.4325357" lon="11.9686421"><ele>516.6</ele><time>2026-03-29T08:31:31.707Z</time></trkpt><trkpt lat="43.4324678" lon="11.9687531"><ele>516.0</ele><time>2026-03-29T08:31:33.715Z</time></trkpt><trkpt lat="43.4324334" lon="11.9688672"><ele>516.0</ele><time>2026-03-29T08:31:34.704Z</time></trkpt><trkpt lat="43.4323862" lon="11.9690127"><ele>516.0</ele><time>2026-03-29T08:31:35.702Z</time></trkpt><trkpt lat="43.4323333" lon="11.9691971"><ele>516.0</ele><time>2026-03-29T08:31:36.716Z</time></trkpt><trkpt lat="43.4322792" lon="11.9693388"><ele>516.0</ele><time>2026-03-29T08:31:37.701Z</time></trkpt><trkpt lat="43.4322316" lon="11.9694618"><ele>516.6</ele><time>2026-03-29T08:31:38.713Z</time></trkpt><trkpt lat="43.4321824" lon="11.9695685"><ele>517.2</ele><time>2026-03-29T08:31:39.711Z</time></trkpt><trkpt lat="43.43212" lon="11.9696668"><ele>517.8</ele><time>2026-03-29T08:31:40.71Z</time></trkpt><trkpt lat="43.4320534" lon="11.9697672"><ele>518.4</ele><time>2026-03-29T08:31:41.714Z</time></trkpt><trkpt lat="43.4319638" lon="11.9698642"><ele>519.0</ele><time>2026-03-29T08:31:42.717Z</time></trkpt><trkpt lat="43.4318535" lon="11.9699583"><ele>515.5</ele><time>2026-03-29T08:31:43.711Z</time></trkpt><trkpt lat="43.4317413" lon="11.9700461"><ele>512.0</ele><time>2026-03-29T08:31:44.709Z</time></trkpt><trkpt lat="43.4316335" lon="11.9701299"><ele>508.5</ele><time>2026-03-29T08:31:45.717Z</time></trkpt><trkpt lat="43.4315292" lon="11.9702191"><ele>505.0</ele><time>2026-03-29T08:31:46.713Z</time></trkpt><trkpt lat="43.431429" lon="11.9702985"><ele>505.00000000000006</ele><time>2026-03-29T08:31:47.71Z</time></trkpt><trkpt lat="43.4313439" lon="11.970376"><ele>505.0</ele><time>2026-03-29T08:31:48.717Z</time></trkpt><trkpt lat="43.4312669" lon="11.9704423"><ele>505.0</ele><time>2026-03-29T08:31:49.709Z</time></trkpt><trkpt lat="43.4312018" lon="11.9705133"><ele>505.0</ele><time>2026-03-29T08:31:50.71Z</time></trkpt><trkpt lat="43.4311249" lon="11.9705821"><ele>505.00000000000006</ele><time>2026-03-29T08:31:51.71Z</time></trkpt><trkpt lat="43.431064" lon="11.9706396"><ele>505.0</ele><time>2026-03-29T08:31:52.713Z</time></trkpt><trkpt lat="43.4309658" lon="11.9707072"><ele>502.8</ele><time>2026-03-29T08:31:54.718Z</time></trkpt><trkpt lat="43.4308509" lon="11.9707477"><ele>500.6</ele><time>2026-03-29T08:31:56.716Z</time></trkpt><trkpt lat="43.4307527" lon="11.9708351"><ele>498.4</ele><time>2026-03-29T08:31:58.712Z</time></trkpt><trkpt lat="43.4307242" lon="11.9709127"><ele>496.2</ele><time>2026-03-29T08:31:59.717Z</time></trkpt><trkpt lat="43.4306753" lon="11.9710211"><ele>494.0</ele><time>2026-03-29T08:32:01.714Z</time></trkpt><trkpt lat="43.4305806" lon="11.9710531"><ele>492.16666666666663</ele><time>2026-03-29T08:32:03.714Z</time></trkpt><trkpt lat="43.4305085" lon="11.9710178"><ele>490.3333333333333</ele><time>2026-03-29T08:32:04.711Z</time></trkpt><trkpt lat="43.4304305" lon="11.9709456"><ele>488.5</ele><time>2026-03-29T08:32:05.71Z</time></trkpt><trkpt lat="43.4303547" lon="11.9709069"><ele>486.66666666666663</ele><time>2026-03-29T08:32:06.736Z</time></trkpt><trkpt lat="43.4302767" lon="11.9708947"><ele>484.8333333333333</ele><time>2026-03-29T08:32:07.715Z</time></trkpt><trkpt lat="43.4301978" lon="11.9708966"><ele>483.0</ele><time>2026-03-29T08:32:08.714Z</time></trkpt><trkpt lat="43.4301008" lon="11.9709336"><ele>481.0</ele><time>2026-03-29T08:32:09.717Z</time></trkpt><trkpt lat="43.4299863" lon="11.9709912"><ele>479.0</ele><time>2026-03-29T08:32:10.71Z</time></trkpt><trkpt lat="43.4298389" lon="11.9710894"><ele>477.0</ele><time>2026-03-29T08:32:11.725Z</time></trkpt><trkpt lat="43.4296785" lon="11.9712026"><ele>478.0</ele><time>2026-03-29T08:32:12.711Z</time></trkpt><trkpt lat="43.4295254" lon="11.9712803"><ele>479.0</ele><time>2026-03-29T08:32:13.712Z</time></trkpt><trkpt lat="43.4293658" lon="11.9713422"><ele>480.0</ele><time>2026-03-29T08:32:14.711Z</time></trkpt><trkpt lat="43.4292104" lon="11.9714012"><ele>480.0</ele><time>2026-03-29T08:32:15.725Z</time></trkpt><trkpt lat="43.429071" lon="11.9714669"><ele>480.0</ele><time>2026-03-29T08:32:16.71Z</time></trkpt><trkpt lat="43.4289316" lon="11.9715395"><ele>480.0</ele><time>2026-03-29T08:32:17.711Z</time></trkpt><trkpt lat="43.4287973" lon="11.9716173"><ele>480.0</ele><time>2026-03-29T08:32:18.711Z</time></trkpt><trkpt lat="43.4286629" lon="11.9717009"><ele>482.2</ele><time>2026-03-29T08:32:19.722Z</time></trkpt><trkpt lat="43.428551" lon="11.9717833"><ele>484.4</ele><time>2026-03-29T08:32:20.713Z</time></trkpt><trkpt lat="43.4284639" lon="11.9718431"><ele>486.6</ele><time>2026-03-29T08:32:21.712Z</time></trkpt><trkpt lat="43.4283816" lon="11.9718769"><ele>488.8</ele><time>2026-03-29T08:32:22.706Z</time></trkpt><trkpt lat="43.428272" lon="11.97188"><ele>491.0</ele><time>2026-03-29T08:32:23.724Z</time></trkpt><trkpt lat="43.4281281" lon="11.9718712"><ele>491.0</ele><time>2026-03-29T08:32:24.711Z</time></trkpt><trkpt lat="43.4279973" lon="11.9718543"><ele>491.0</ele><time>2026-03-29T08:32:25.709Z</time></trkpt><trkpt lat="43.4278792" lon="11.9718521"><ele>491.0</ele><time>2026-03-29T08:32:26.708Z</time></trkpt><trkpt lat="43.4277551" lon="11.9718757"><ele>491.0</ele><time>2026-03-29T08:32:27.712Z</time></trkpt><trkpt lat="43.4276248" lon="11.9719412"><ele>491.25</ele><time>2026-03-29T08:32:28.713Z</time></trkpt><trkpt lat="43.4274904" lon="11.9719996"><ele>491.5</ele><time>2026-03-29T08:32:29.708Z</time></trkpt><trkpt lat="43.4273484" lon="11.9720269"><ele>491.75</ele><time>2026-03-29T08:32:30.704Z</time></trkpt><trkpt lat="43.4272053" lon="11.9720518"><ele>492.0</ele><time>2026-03-29T08:32:31.717Z</time></trkpt><trkpt lat="43.4270731" lon="11.9720777"><ele>490.6</ele><time>2026-03-29T08:32:32.705Z</time></trkpt><trkpt lat="43.4269593" lon="11.9720825"><ele>489.20000000000005</ele><time>2026-03-29T08:32:33.71Z</time></trkpt><trkpt lat="43.4268752" lon="11.9720768"><ele>487.8</ele><time>2026-03-29T08:32:34.705Z</time></trkpt><trkpt lat="43.4267865" lon="11.9720456"><ele>486.4</ele><time>2026-03-29T08:32:35.713Z</time></trkpt><trkpt lat="43.4266936" lon="11.9719924"><ele>485.0</ele><time>2026-03-29T08:32:36.7Z</time></trkpt><trkpt lat="43.4266043" lon="11.9719247"><ele>485.0</ele><time>2026-03-29T08:32:37.715Z</time></trkpt><trkpt lat="43.4264972" lon="11.9718601"><ele>485.0</ele><time>2026-03-29T08:32:38.708Z</time></trkpt><trkpt lat="43.4263958" lon="11.9718062"><ele>485.0</ele><time>2026-03-29T08:32:39.725Z</time></trkpt><trkpt lat="43.4262942" lon="11.9717607"><ele>485.0</ele><time>2026-03-29T08:32:40.704Z</time></trkpt><trkpt lat="43.4262079" lon="11.9717242"><ele>485.0</ele><time>2026-03-29T08:32:41.708Z</time></trkpt><trkpt lat="43.4261373" lon="11.9716914"><ele>481.3333333333333</ele><time>2026-03-29T08:32:42.715Z</time></trkpt><trkpt lat="43.4260698" lon="11.9716584"><ele>477.66666666666663</ele><time>2026-03-29T08:32:43.711Z</time></trkpt><trkpt lat="43.4260046" lon="11.9715974"><ele>474.0</ele><time>2026-03-29T08:32:44.715Z</time></trkpt><trkpt lat="43.4259468" lon="11.9715195"><ele>470.33333333333337</ele><time>2026-03-29T08:32:45.715Z</time></trkpt><trkpt lat="43.4258991" lon="11.97143"><ele>466.6666666666667</ele><time>2026-03-29T08:32:46.724Z</time></trkpt><trkpt lat="43.4258394" lon="11.9713576"><ele>463.0</ele><time>2026-03-29T08:32:47.718Z</time></trkpt><trkpt lat="43.4257857" lon="11.971295"><ele>463.0</ele><time>2026-03-29T08:32:48.71Z</time></trkpt><trkpt lat="43.4257278" lon="11.9712511"><ele>462.99999999999994</ele><time>2026-03-29T08:32:49.712Z</time></trkpt><trkpt lat="43.4256676" lon="11.9712051"><ele>463.0</ele><time>2026-03-29T08:32:50.714Z</time></trkpt><trkpt lat="43.4256005" lon="11.9711638"><ele>463.0</ele><time>2026-03-29T08:32:51.722Z</time></trkpt><trkpt lat="43.4255352" lon="11.9711253"><ele>462.99999999999994</ele><time>2026-03-29T08:32:52.71Z</time></trkpt><trkpt lat="43.4254716" lon="11.9710996"><ele>463.0</ele><time>2026-03-29T08:32:53.709Z</time></trkpt><trkpt lat="43.4254077" lon="11.9710711"><ele>463.0</ele><time>2026-03-29T08:32:54.716Z</time></trkpt><trkpt lat="43.4253494" lon="11.9710326"><ele>459.59999999999997</ele><time>2026-03-29T08:32:55.706Z</time></trkpt><trkpt lat="43.4252929" lon="11.970987"><ele>456.19999999999993</ele><time>2026-03-29T08:32:56.711Z</time></trkpt><trkpt lat="43.4252044" lon="11.9708774"><ele>452.8</ele><time>2026-03-29T08:32:58.725Z</time></trkpt><trkpt lat="43.4251456" lon="11.9707341"><ele>449.4</ele><time>2026-03-29T08:33:00.71Z</time></trkpt><trkpt lat="43.4250916" lon="11.9706487"><ele>446.0</ele><time>2026-03-29T08:33:02.716Z</time></trkpt><trkpt lat="43.4249999" lon="11.9706707"><ele>445.49999999999994</ele><time>2026-03-29T08:33:04.717Z</time></trkpt><trkpt lat="43.4249325" lon="11.9707655"><ele>445.0</ele><time>2026-03-29T08:33:06.714Z</time></trkpt><trkpt lat="43.4248975" lon="11.9708467"><ele>444.5</ele><time>2026-03-29T08:33:08.718Z</time></trkpt><trkpt lat="43.4248163" lon="11.9708355"><ele>444.0</ele><time>2026-03-29T08:33:10.711Z</time></trkpt><trkpt lat="43.4247472" lon="11.9707931"><ele>443.49999999999994</ele><time>2026-03-29T08:33:11.715Z</time></trkpt><trkpt lat="43.4246644" lon="11.9707576"><ele>443.0</ele><time>2026-03-29T08:33:13.715Z</time></trkpt><trkpt lat="43.4246075" lon="11.9708065"><ele>440.49999999999994</ele><time>2026-03-29T08:33:14.711Z</time></trkpt><trkpt lat="43.4245606" lon="11.9708655"><ele>438.0</ele><time>2026-03-29T08:33:15.723Z</time></trkpt><trkpt lat="43.4244538" lon="11.9709369"><ele>435.5</ele><time>2026-03-29T08:33:17.712Z</time></trkpt><trkpt lat="43.4243703" lon="11.9709159"><ele>433.0</ele><time>2026-03-29T08:33:18.72Z</time></trkpt><trkpt lat="43.4243013" lon="11.9708959"><ele>430.49999999999994</ele><time>2026-03-29T08:33:19.706Z</time></trkpt><trkpt lat="43.4242048" lon="11.9708482"><ele>428.0</ele><time>2026-03-29T08:33:21.716Z</time></trkpt><trkpt lat="43.4241283" lon="11.9708491"><ele>427.5</ele><time>2026-03-29T08:33:23.712Z</time></trkpt><trkpt lat="43.4240622" lon="11.9708497"><ele>427.0</ele><time>2026-03-29T08:33:26.71Z</time></trkpt><trkpt lat="43.4208089" lon="11.9804032"><ele>1072.0</ele><time>2026-03-29T08:39:53.433Z</time></trkpt><trkpt lat="43.3990953" lon="12.0454652"><ele>1072.0</ele><time>2026-03-29T09:22:07.961Z</time></trkpt><trkpt lat="43.3990324" lon="12.0454895"><ele>1072.0</ele><time>2026-03-29T09:23:04.938Z</time></trkpt><trkpt lat="43.3990941" lon="12.0454551"><ele>1072.0</ele><time>2026-03-29T09:23:11.95Z</time></trkpt><trkpt lat="43.399035" lon="12.0454928"><ele>1072.0</ele><time>2026-03-29T09:24:31.96Z</time></trkpt><trkpt lat="43.4657283" lon="12.0399552"><ele>337.0</ele><time>2026-03-29T10:20:30.062Z</time></trkpt><trkpt lat="43.4653293" lon="12.0372039"><ele>631.0</ele><time>2026-03-29T10:20:42.665Z</time></trkpt><trkpt lat="43.4794925" lon="12.0252246"><ele>468.0</ele><time>2026-03-29T10:47:14.286Z</time></trkpt><trkpt lat="43.5490306" lon="12.0411705"><ele>502.0</ele><time>2026-03-29T10:52:39.994Z</time></trkpt><trkpt lat="43.4632288" lon="11.9451387"><ele>378.0</ele><time>2026-03-29T11:13:50.886Z</time></trkpt><trkpt lat="43.46814" lon="11.9392048"><ele>355.0</ele><time>2026-03-29T11:14:45.997Z</time></trkpt><trkpt lat="43.4666503" lon="11.9381562"><ele>295.0</ele><time>2026-03-29T11:15:24.626Z</time></trkpt><trkpt lat="43.4658058" lon="11.9133935"><ele>275.0</ele><time>2026-03-29T11:18:27.711Z</time></trkpt><trkpt lat="43.4612526" lon="11.9088163"><ele>273.0</ele><time>2026-03-29T11:19:12.91Z</time></trkpt><trkpt lat="43.4605856" lon="11.905897"><ele>273.0</ele><time>2026-03-29T11:19:54.01Z</time></trkpt><trkpt lat="43.4609065" lon="11.904201"><ele>270.0</ele><time>2026-03-29T11:20:08.676Z</time></trkpt><trkpt lat="43.4611966" lon="11.9028524"><ele>267.0</ele><time>2026-03-29T11:20:17.397Z</time></trkpt><trkpt lat="43.4593508" lon="11.8988066"><ele>268.0</ele><time>2026-03-29T11:21:13.659Z</time></trkpt><trkpt lat="43.4573813" lon="11.8933744"><ele>262.0</ele><time>2026-03-29T11:22:24.998Z</time></trkpt><trkpt lat="43.4560461" lon="11.8943772"><ele>262.0</ele><time>2026-03-29T11:25:00.056Z</time></trkpt><trkpt lat="43.4561377" lon="11.8943574"><ele>262.0</ele><time>2026-03-29T11:25:44.844Z</time></trkpt><trkpt lat="43.4560403" lon="11.8943382"><ele>262.0</ele><time>2026-03-29T11:28:12.704Z</time></trkpt><trkpt lat="43.4556423" lon="11.8950161"><ele>262.0</ele><time>2026-03-29T11:28:21.76Z</time></trkpt><trkpt lat="43.4560926" lon="11.894326"><ele>262.0</ele><time>2026-03-29T11:28:48.918Z</time></trkpt><trkpt lat="43.4557692" lon="11.8949207"><ele>262.0</ele><time>2026-03-29T11:28:58.116Z</time></trkpt><trkpt lat="43.4555615" lon="11.8951946"><ele>262.0</ele><time>2026-03-29T11:29:27.219Z</time></trkpt><trkpt lat="43.4556031" lon="11.8950928"><ele>262.0</ele><time>2026-03-29T11:32:53.215Z</time></trkpt><trkpt lat="43.4561326" lon="11.8942867"><ele>262.0</ele><time>2026-03-29T11:33:05.21Z</time></trkpt><trkpt lat="43.4561908" lon="11.8943954"><ele>262.0</ele><time>2026-03-29T11:34:21.392Z</time></trkpt><trkpt lat="43.456041" lon="11.8943585"><ele>262.0</ele><time>2026-03-29T11:34:35.107Z</time></trkpt><trkpt lat="43.45469" lon="11.8954428"><ele>263.0</ele><time>2026-03-29T11:34:44.252Z</time></trkpt><trkpt lat="43.4555962" lon="11.8951504"><ele>262.0</ele><time>2026-03-29T11:35:11.15Z</time></trkpt><trkpt lat="43.4561071" lon="11.8943515"><ele>262.0</ele><time>2026-03-29T11:35:20.1Z</time></trkpt><trkpt lat="43.4559485" lon="11.8942996"><ele>262.0</ele><time>2026-03-29T11:35:40.387Z</time></trkpt><trkpt lat="43.4560077" lon="11.8941255"><ele>262.0</ele><time>2026-03-29T11:35:42.38Z</time></trkpt><trkpt lat="43.4559502" lon="11.8941854"><ele>262.0</ele><time>2026-03-29T11:35:49.391Z</time></trkpt><trkpt lat="43.4559504" lon="11.8942725"><ele>262.0</ele><time>2026-03-29T11:36:01.379Z</time></trkpt><trkpt lat="43.4555999" lon="11.8950576"><ele>262.0</ele><time>2026-03-29T11:37:32.865Z</time></trkpt><trkpt lat="43.4555864" lon="11.8951537"><ele>262.0</ele><time>2026-03-29T11:37:41.918Z</time></trkpt><trkpt lat="43.4560876" lon="11.8943094"><ele>262.0</ele><time>2026-03-29T11:38:56.953Z</time></trkpt><trkpt lat="43.4557562" lon="11.8937891"><ele>262.0</ele><time>2026-03-29T11:49:37.409Z</time></trkpt><trkpt lat="43.4557268" lon="11.8941261"><ele>262.0</ele><time>2026-03-29T11:50:45.319Z</time></trkpt><trkpt lat="43.4559093" lon="11.8942114"><ele>262.0</ele><time>2026-03-29T11:50:46.368Z</time></trkpt><trkpt lat="43.4559582" lon="11.8942708"><ele>263.0</ele><time>2026-03-29T11:50:50.37Z</time></trkpt><trkpt lat="43.4555962" lon="11.8951504"><ele>261.0</ele><time>2026-03-29T11:56:30.001Z</time></trkpt><trkpt lat="43.4545151" lon="11.8939842"><ele>263.0</ele><time>2026-03-29T12:00:18.261Z</time></trkpt><trkpt lat="43.4555962" lon="11.8951504"><ele>262.0</ele><time>2026-03-29T12:01:13.524Z</time></trkpt><trkpt lat="43.4557773" lon="11.8943071"><ele>262.0</ele><time>2026-03-29T12:34:05.708Z</time></trkpt><trkpt lat="43.4560561" lon="11.8943227"><ele>262.0</ele><time>2026-03-29T12:34:39.174Z</time></trkpt><trkpt lat="43.4555962" lon="11.8951504"><ele>262.0</ele><time>2026-03-29T12:37:11.327Z</time></trkpt><trkpt lat="43.4561317" lon="11.8942791"><ele>262.0</ele><time>2026-03-29T12:38:28.197Z</time></trkpt><trkpt lat="43.4560315" lon="11.8944518"><ele>262.0</ele><time>2026-03-29T12:38:36.894Z</time></trkpt><trkpt lat="43.4561616" lon="11.8944182"><ele>262.0</ele><time>2026-03-29T12:41:48.147Z</time></trkpt><trkpt lat="43.4545151" lon="11.8939842"><ele>267.0</ele><time>2026-03-29T12:44:13.427Z</time></trkpt><trkpt lat="43.4573689" lon="11.8979053"><ele>265.0</ele><time>2026-03-29T12:45:05.149Z</time></trkpt><trkpt lat="43.4562875" lon="11.8949731"><ele>265.0</ele><time>2026-03-29T12:45:42.409Z</time></trkpt><trkpt lat="43.4563113" lon="11.8951711"><ele>265.0</ele><time>2026-03-29T12:45:45.596Z</time></trkpt><trkpt lat="43.456374" lon="11.8952692"><ele>265.0</ele><time>2026-03-29T12:45:49.517Z</time></trkpt><trkpt lat="43.4564443" lon="11.8952661"><ele>265.0</ele><time>2026-03-29T12:45:52.406Z</time></trkpt><trkpt lat="43.4564943" lon="11.8951804"><ele>265.0</ele><time>2026-03-29T12:45:55.589Z</time></trkpt><trkpt lat="43.4565334" lon="11.8950653"><ele>264.99999999999994</ele><time>2026-03-29T12:45:58.42Z</time></trkpt><trkpt lat="43.456518" lon="11.8949536"><ele>265.0</ele><time>2026-03-29T12:46:01.435Z</time></trkpt><trkpt lat="43.4565049" lon="11.8948426"><ele>265.0</ele><time>2026-03-29T12:46:05.403Z</time></trkpt><trkpt lat="43.4564942" lon="11.8947533"><ele>265.0</ele><time>2026-03-29T12:46:08.406Z</time></trkpt><trkpt lat="43.4564658" lon="11.8946603"><ele>265.0</ele><time>2026-03-29T12:46:13.466Z</time></trkpt><trkpt lat="43.4563945" lon="11.8946303"><ele>264.99999999999994</ele><time>2026-03-29T12:46:20.419Z</time></trkpt><trkpt lat="43.4563329" lon="11.8946792"><ele>265.0</ele><time>2026-03-29T12:46:26.414Z</time></trkpt><trkpt lat="43.4562623" lon="11.894651"><ele>265.0</ele><time>2026-03-29T12:46:32.419Z</time></trkpt><trkpt lat="43.4562641" lon="11.8945495"><ele>265.0</ele><time>2026-03-29T12:46:38.419Z</time></trkpt><trkpt lat="43.4563384" lon="11.8944847"><ele>265.0</ele><time>2026-03-29T12:46:41.424Z</time></trkpt><trkpt lat="43.4564062" lon="11.8944235"><ele>265.0</ele><time>2026-03-29T12:46:43.413Z</time></trkpt><trkpt lat="43.4564892" lon="11.8943519"><ele>265.0</ele><time>2026-03-29T12:46:45.42Z</time></trkpt><trkpt lat="43.4565785" lon="11.8942996"><ele>265.0</ele><time>2026-03-29T12:46:47.426Z</time></trkpt><trkpt lat="43.4566492" lon="11.8942554"><ele>264.6</ele><time>2026-03-29T12:46:50.405Z</time></trkpt><trkpt lat="43.4567721" lon="11.8941363"><ele>264.2</ele><time>2026-03-29T12:46:55.127Z</time></trkpt><trkpt lat="43.4568348" lon="11.8941225"><ele>263.8</ele><time>2026-03-29T12:46:56.412Z</time></trkpt><trkpt lat="43.4569255" lon="11.8940873"><ele>263.4</ele><time>2026-03-29T12:46:58.418Z</time></trkpt><trkpt lat="43.457018" lon="11.8940443"><ele>263.0</ele><time>2026-03-29T12:47:00.397Z</time></trkpt><trkpt lat="43.4570997" lon="11.8940468"><ele>263.1666666666667</ele><time>2026-03-29T12:47:02.406Z</time></trkpt><trkpt lat="43.4571814" lon="11.8940329"><ele>263.33333333333337</ele><time>2026-03-29T12:47:04.404Z</time></trkpt><trkpt lat="43.4572571" lon="11.894024"><ele>263.5</ele><time>2026-03-29T12:47:06.43Z</time></trkpt><trkpt lat="43.4573237" lon="11.8939976"><ele>263.6666666666667</ele><time>2026-03-29T12:47:08.4Z</time></trkpt><trkpt lat="43.4573801" lon="11.8939437"><ele>263.8333333333333</ele><time>2026-03-29T12:47:16.432Z</time></trkpt><trkpt lat="43.4574337" lon="11.8938382"><ele>264.0</ele><time>2026-03-29T12:47:19.4Z</time></trkpt><trkpt lat="43.4574383" lon="11.8937108"><ele>264.0</ele><time>2026-03-29T12:47:23.401Z</time></trkpt><trkpt lat="43.4573798" lon="11.893631"><ele>264.0</ele><time>2026-03-29T12:47:25.414Z</time></trkpt><trkpt lat="43.4573003" lon="11.893561"><ele>264.0</ele><time>2026-03-29T12:47:27.407Z</time></trkpt><trkpt lat="43.4572093" lon="11.8934638"><ele>264.0</ele><time>2026-03-29T12:47:29.407Z</time></trkpt><trkpt lat="43.4571112" lon="11.8933733"><ele>264.0</ele><time>2026-03-29T12:47:31.427Z</time></trkpt><trkpt lat="43.4570064" lon="11.8932785"><ele>264.1666666666667</ele><time>2026-03-29T12:47:33.413Z</time></trkpt><trkpt lat="43.4569393" lon="11.8932036"><ele>264.3333333333333</ele><time>2026-03-29T12:47:34.415Z</time></trkpt><trkpt lat="43.4568668" lon="11.8931254"><ele>264.5</ele><time>2026-03-29T12:47:35.401Z</time></trkpt><trkpt lat="43.4567871" lon="11.8930524"><ele>264.66666666666663</ele><time>2026-03-29T12:47:36.398Z</time></trkpt><trkpt lat="43.4567171" lon="11.8929866"><ele>264.8333333333333</ele><time>2026-03-29T12:47:37.408Z</time></trkpt><trkpt lat="43.4566573" lon="11.8929227"><ele>265.0</ele><time>2026-03-29T12:47:38.403Z</time></trkpt><trkpt lat="43.4566025" lon="11.8928637"><ele>265.0</ele><time>2026-03-29T12:47:39.411Z</time></trkpt><trkpt lat="43.4565471" lon="11.8928115"><ele>265.0</ele><time>2026-03-29T12:47:40.415Z</time></trkpt><trkpt lat="43.456453" lon="11.8927135"><ele>265.0</ele><time>2026-03-29T12:47:42.41Z</time></trkpt><trkpt lat="43.4563735" lon="11.8926468"><ele>265.0</ele><time>2026-03-29T12:47:44.412Z</time></trkpt><trkpt lat="43.4563187" lon="11.8925895"><ele>265.0</ele><time>2026-03-29T12:47:52.416Z</time></trkpt><trkpt lat="43.456268" lon="11.892537"><ele>265.0</ele><time>2026-03-29T12:47:54.411Z</time></trkpt><trkpt lat="43.4561979" lon="11.8924798"><ele>264.3333333333333</ele><time>2026-03-29T12:47:56.424Z</time></trkpt><trkpt lat="43.456137" lon="11.8924202"><ele>263.6666666666667</ele><time>2026-03-29T12:47:58.408Z</time></trkpt><trkpt lat="43.4558984" lon="11.8922129"><ele>263.0</ele><time>2026-03-29T12:48:03.621Z</time></trkpt><trkpt lat="43.4558031" lon="11.8921213"><ele>263.0</ele><time>2026-03-29T12:48:05.396Z</time></trkpt><trkpt lat="43.4557517" lon="11.8920517"><ele>263.0</ele><time>2026-03-29T12:48:06.402Z</time></trkpt><trkpt lat="43.4557123" lon="11.8919823"><ele>263.0</ele><time>2026-03-29T12:48:07.413Z</time></trkpt><trkpt lat="43.4556432" lon="11.8918883"><ele>263.0</ele><time>2026-03-29T12:48:09.41Z</time></trkpt><trkpt lat="43.455586" lon="11.8918351"><ele>263.0</ele><time>2026-03-29T12:48:10.414Z</time></trkpt><trkpt lat="43.4555232" lon="11.8917708"><ele>263.0</ele><time>2026-03-29T12:48:11.408Z</time></trkpt><trkpt lat="43.4554511" lon="11.8916983"><ele>263.0</ele><time>2026-03-29T12:48:12.402Z</time></trkpt><trkpt lat="43.45537" lon="11.8916293"><ele>263.0</ele><time>2026-03-29T12:48:13.406Z</time></trkpt><trkpt lat="43.4552857" lon="11.8915398"><ele>263.0</ele><time>2026-03-29T12:48:14.397Z</time></trkpt><trkpt lat="43.455198" lon="11.8914356"><ele>263.0</ele><time>2026-03-29T12:48:15.401Z</time></trkpt><trkpt lat="43.4551104" lon="11.8913322"><ele>263.0</ele><time>2026-03-29T12:48:16.423Z</time></trkpt><trkpt lat="43.4550297" lon="11.8912328"><ele>263.0</ele><time>2026-03-29T12:48:17.418Z</time></trkpt><trkpt lat="43.4549561" lon="11.8911398"><ele>263.0</ele><time>2026-03-29T12:48:18.424Z</time></trkpt><trkpt lat="43.4548742" lon="11.8910433"><ele>263.0</ele><time>2026-03-29T12:48:19.417Z</time></trkpt><trkpt lat="43.45479" lon="11.8909461"><ele>263.0</ele><time>2026-03-29T12:48:20.405Z</time></trkpt><trkpt lat="43.4547094" lon="11.8908386"><ele>263.0</ele><time>2026-03-29T12:48:21.424Z</time></trkpt><trkpt lat="43.4546378" lon="11.8907351"><ele>262.8</ele><time>2026-03-29T12:48:22.403Z</time></trkpt><trkpt lat="43.4545699" lon="11.8906295"><ele>262.6</ele><time>2026-03-29T12:48:23.413Z</time></trkpt><trkpt lat="43.4545141" lon="11.890517"><ele>262.4</ele><time>2026-03-29T12:48:24.424Z</time></trkpt><trkpt lat="43.4544667" lon="11.8903963"><ele>262.2</ele><time>2026-03-29T12:48:25.413Z</time></trkpt><trkpt lat="43.4544328" lon="11.8902749"><ele>262.0</ele><time>2026-03-29T12:48:26.417Z</time></trkpt><trkpt lat="43.4544057" lon="11.8901725"><ele>261.8</ele><time>2026-03-29T12:48:27.413Z</time></trkpt><trkpt lat="43.4543885" lon="11.8900804"><ele>261.6</ele><time>2026-03-29T12:48:28.414Z</time></trkpt><trkpt lat="43.4543859" lon="11.889943"><ele>261.40000000000003</ele><time>2026-03-29T12:48:30.417Z</time></trkpt><trkpt lat="43.4544162" lon="11.8898124"><ele>261.2</ele><time>2026-03-29T12:48:32.413Z</time></trkpt><trkpt lat="43.4544225" lon="11.8896614"><ele>261.0</ele><time>2026-03-29T12:48:34.43Z</time></trkpt><trkpt lat="43.4543556" lon="11.8895223"><ele>261.0</ele><time>2026-03-29T12:48:36.405Z</time></trkpt><trkpt lat="43.4542993" lon="11.8894603"><ele>261.0</ele><time>2026-03-29T12:48:37.417Z</time></trkpt><trkpt lat="43.4542452" lon="11.8893965"><ele>261.0</ele><time>2026-03-29T12:48:38.417Z</time></trkpt><trkpt lat="43.454207" lon="11.8893191"><ele>261.0</ele><time>2026-03-29T12:48:39.41Z</time></trkpt><trkpt lat="43.4541822" lon="11.88923"><ele>261.0</ele><time>2026-03-29T12:48:40.415Z</time></trkpt><trkpt lat="43.4541602" lon="11.8891293"><ele>261.0</ele><time>2026-03-29T12:48:41.412Z</time></trkpt><trkpt lat="43.4541425" lon="11.8890207"><ele>261.0</ele><time>2026-03-29T12:48:42.416Z</time></trkpt><trkpt lat="43.4541322" lon="11.8888994"><ele>261.2</ele><time>2026-03-29T12:48:43.421Z</time></trkpt><trkpt lat="43.4541231" lon="11.8887697"><ele>261.40000000000003</ele><time>2026-03-29T12:48:44.425Z</time></trkpt><trkpt lat="43.454116" lon="11.8886369"><ele>261.6</ele><time>2026-03-29T12:48:45.414Z</time></trkpt><trkpt lat="43.4541063" lon="11.8885013"><ele>261.8</ele><time>2026-03-29T12:48:46.419Z</time></trkpt><trkpt lat="43.4540938" lon="11.8883593"><ele>262.0</ele><time>2026-03-29T12:48:47.401Z</time></trkpt><trkpt lat="43.4540789" lon="11.8882092"><ele>262.5</ele><time>2026-03-29T12:48:48.406Z</time></trkpt><trkpt lat="43.4540626" lon="11.8880501"><ele>263.0</ele><time>2026-03-29T12:48:49.401Z</time></trkpt><trkpt lat="43.4540435" lon="11.8878872"><ele>263.5</ele><time>2026-03-29T12:48:50.427Z</time></trkpt><trkpt lat="43.4540278" lon="11.8877248"><ele>264.0</ele><time>2026-03-29T12:48:51.409Z</time></trkpt><trkpt lat="43.4540091" lon="11.8875622"><ele>264.0</ele><time>2026-03-29T12:48:52.412Z</time></trkpt><trkpt lat="43.4539913" lon="11.8874009"><ele>264.0</ele><time>2026-03-29T12:48:53.42Z</time></trkpt><trkpt lat="43.453981" lon="11.8872292"><ele>264.0</ele><time>2026-03-29T12:48:54.422Z</time></trkpt><trkpt lat="43.4539709" lon="11.8870527"><ele>264.0</ele><time>2026-03-29T12:48:55.43Z</time></trkpt><trkpt lat="43.4539504" lon="11.8868692"><ele>263.75</ele><time>2026-03-29T12:48:56.42Z</time></trkpt><trkpt lat="43.4539264" lon="11.886688"><ele>263.5</ele><time>2026-03-29T12:48:57.423Z</time></trkpt><trkpt lat="43.4539017" lon="11.8865076"><ele>263.25</ele><time>2026-03-29T12:48:58.426Z</time></trkpt><trkpt lat="43.45387" lon="11.8863284"><ele>263.0</ele><time>2026-03-29T12:48:59.417Z</time></trkpt><trkpt lat="43.4538354" lon="11.8861435"><ele>263.0</ele><time>2026-03-29T12:49:00.423Z</time></trkpt><trkpt lat="43.4538039" lon="11.8859562"><ele>263.0</ele><time>2026-03-29T12:49:01.417Z</time></trkpt><trkpt lat="43.45377" lon="11.8857761"><ele>263.0</ele><time>2026-03-29T12:49:02.401Z</time></trkpt><trkpt lat="43.4537357" lon="11.8856004"><ele>263.0</ele><time>2026-03-29T12:49:03.411Z</time></trkpt><trkpt lat="43.4536981" lon="11.885433"><ele>262.0</ele><time>2026-03-29T12:49:04.399Z</time></trkpt><trkpt lat="43.4536575" lon="11.885272"><ele>261.0</ele><time>2026-03-29T12:49:05.407Z</time></trkpt><trkpt lat="43.453619" lon="11.8851079"><ele>260.0</ele><time>2026-03-29T12:49:06.41Z</time></trkpt><trkpt lat="43.4535772" lon="11.884948"><ele>259.0</ele><time>2026-03-29T12:49:07.406Z</time></trkpt><trkpt lat="43.4535345" lon="11.8847882"><ele>259.0</ele><time>2026-03-29T12:49:08.412Z</time></trkpt><trkpt lat="43.4534889" lon="11.8846316"><ele>259.0</ele><time>2026-03-29T12:49:09.417Z</time></trkpt><trkpt lat="43.453444" lon="11.8844753"><ele>259.0</ele><time>2026-03-29T12:49:10.419Z</time></trkpt><trkpt lat="43.45339" lon="11.8843181"><ele>259.0</ele><time>2026-03-29T12:49:11.411Z</time></trkpt><trkpt lat="43.4533366" lon="11.8841537"><ele>259.5</ele><time>2026-03-29T12:49:12.412Z</time></trkpt><trkpt lat="43.4532833" lon="11.88399"><ele>260.0</ele><time>2026-03-29T12:49:13.423Z</time></trkpt><trkpt lat="43.4532283" lon="11.8838256"><ele>260.5</ele><time>2026-03-29T12:49:14.421Z</time></trkpt><trkpt lat="43.4531719" lon="11.8836661"><ele>261.0</ele><time>2026-03-29T12:49:15.42Z</time></trkpt><trkpt lat="43.453115" lon="11.8835083"><ele>261.0</ele><time>2026-03-29T12:49:16.426Z</time></trkpt><trkpt lat="43.4530593" lon="11.8833633"><ele>261.0</ele><time>2026-03-29T12:49:17.413Z</time></trkpt><trkpt lat="43.4530013" lon="11.8832225"><ele>261.0</ele><time>2026-03-29T12:49:18.422Z</time></trkpt><trkpt lat="43.4529441" lon="11.8830855"><ele>261.0</ele><time>2026-03-29T12:49:19.415Z</time></trkpt><trkpt lat="43.4528819" lon="11.8829495"><ele>260.25</ele><time>2026-03-29T12:49:20.419Z</time></trkpt><trkpt lat="43.4528225" lon="11.88281"><ele>259.5</ele><time>2026-03-29T12:49:21.417Z</time></trkpt><trkpt lat="43.4527646" lon="11.8826696"><ele>258.75</ele><time>2026-03-29T12:49:22.415Z</time></trkpt><trkpt lat="43.4527071" lon="11.8825257"><ele>258.0</ele><time>2026-03-29T12:49:23.416Z</time></trkpt><trkpt lat="43.452648" lon="11.8823814"><ele>258.0</ele><time>2026-03-29T12:49:24.428Z</time></trkpt><trkpt lat="43.4525922" lon="11.8822363"><ele>258.0</ele><time>2026-03-29T12:49:25.409Z</time></trkpt><trkpt lat="43.4525315" lon="11.8820947"><ele>258.0</ele><time>2026-03-29T12:49:26.417Z</time></trkpt><trkpt lat="43.4524803" lon="11.8819626"><ele>258.0</ele><time>2026-03-29T12:49:27.406Z</time></trkpt><trkpt lat="43.4524353" lon="11.881852"><ele>258.0</ele><time>2026-03-29T12:49:28.407Z</time></trkpt><trkpt lat="43.4523979" lon="11.8817669"><ele>258.0</ele><time>2026-03-29T12:49:29.417Z</time></trkpt><trkpt lat="43.4523562" lon="11.8816294"><ele>258.0</ele><time>2026-03-29T12:49:31.414Z</time></trkpt><trkpt lat="43.4524005" lon="11.8815261"><ele>258.0</ele><time>2026-03-29T12:49:33.402Z</time></trkpt><trkpt lat="43.45251" lon="11.8814583"><ele>258.0</ele><time>2026-03-29T12:49:35.409Z</time></trkpt><trkpt lat="43.4525719" lon="11.8814251"><ele>258.0</ele><time>2026-03-29T12:49:36.408Z</time></trkpt><trkpt lat="43.4526369" lon="11.8813909"><ele>257.99999999999994</ele><time>2026-03-29T12:49:37.413Z</time></trkpt><trkpt lat="43.4527051" lon="11.881363"><ele>258.0</ele><time>2026-03-29T12:49:38.415Z</time></trkpt><trkpt lat="43.4527696" lon="11.8813387"><ele>258.0</ele><time>2026-03-29T12:49:39.394Z</time></trkpt><trkpt lat="43.4528373" lon="11.881317"><ele>258.0</ele><time>2026-03-29T12:49:40.402Z</time></trkpt><trkpt lat="43.4529049" lon="11.8812984"><ele>258.0</ele><time>2026-03-29T12:49:41.401Z</time></trkpt><trkpt lat="43.4529732" lon="11.8812868"><ele>257.99999999999994</ele><time>2026-03-29T12:49:42.412Z</time></trkpt><trkpt lat="43.4530403" lon="11.8812862"><ele>258.0</ele><time>2026-03-29T12:49:43.417Z</time></trkpt><trkpt lat="43.4531087" lon="11.8812823"><ele>258.4</ele><time>2026-03-29T12:49:44.417Z</time></trkpt><trkpt lat="43.4531754" lon="11.8812774"><ele>258.8</ele><time>2026-03-29T12:49:45.415Z</time></trkpt><trkpt lat="43.4532787" lon="11.8812609"><ele>259.2</ele><time>2026-03-29T12:49:47.429Z</time></trkpt><trkpt lat="43.4533555" lon="11.8813345"><ele>259.6</ele><time>2026-03-29T12:49:50.415Z</time></trkpt><trkpt lat="43.4533679" lon="11.8814719"><ele>260.0</ele><time>2026-03-29T12:49:53.407Z</time></trkpt><trkpt lat="43.4533723" lon="11.8816138"><ele>260.0</ele><time>2026-03-29T12:49:55.397Z</time></trkpt><trkpt lat="43.4533647" lon="11.8817477"><ele>260.0</ele><time>2026-03-29T12:49:57.414Z</time></trkpt><trkpt lat="43.4533599" lon="11.8819137"><ele>260.0</ele><time>2026-03-29T12:49:59.415Z</time></trkpt><trkpt lat="43.4533632" lon="11.8820032"><ele>260.0</ele><time>2026-03-29T12:50:00.399Z</time></trkpt><trkpt lat="43.4533712" lon="11.8821529"><ele>260.0</ele><time>2026-03-29T12:50:02.393Z</time></trkpt><trkpt lat="43.4533569" lon="11.882241"><ele>261.0</ele><time>2026-03-29T12:50:05.415Z</time></trkpt><trkpt lat="43.4533665" lon="11.8823335"><ele>261.0</ele><time>2026-03-29T12:50:12.409Z</time></trkpt><trkpt lat="43.4534508" lon="11.8823715"><ele>261.0</ele><time>2026-03-29T12:50:15.421Z</time></trkpt><trkpt lat="43.4533934" lon="11.8822832"><ele>261.0</ele><time>2026-03-29T12:50:34.967Z</time></trkpt><trkpt lat="43.45332" lon="11.8822968"><ele>261.0</ele><time>2026-03-29T12:50:43.397Z</time></trkpt></trkseg></trk></gpx>